Time,TemperatureF,DewpointF,PressureIn,WindDirection,WindDirectionDegrees,WindSpeedMPH,WindSpeedGustMPH,Humidity,HourlyPrecipIn,Conditions,Clouds,dailyrainin,SoftwareType,DateUTC
2013-03-03 00:00:00,57.0,27.3,29.82,West,270,0.0,0.0,30,0.00,,,0.00,WUHU216HW,2013-03-03 05:00:00,
2013-03-03 00:01:00,57.0,27.3,29.82,West,270,0.0,0.0,30,0.00,,,0.00,WUHU216HW,2013-03-03 05:01:00,
2013-03-03 00:02:00,57.2,26.7,29.82,WNW,293,3.1,3.1,31,0.00,,,0.00,WUHU216HW,2013-03-03 05:02:00,
2013-03-03 00:03:00,57.2,26.7,29.82,WNW,293,3.1,3.1,31,0.00,,,0.00,WUHU216HW,2013-03-03 05:03:00,
2013-03-03 00:04:00,57.2,26.7,29.82,West,270,0.0,3.1,30,0.00,,,0.00,WUHU216HW,2013-03-03 05:04:00,
2013-03-03 00:05:00,57.2,26.7,29.82,West,270,0.0,3.1,30,0.00,,,0.00,WUHU216HW,2013-03-03 05:05:00,
2013-03-03 00:06:00,57.0,25.9,29.82,West,270,0.0,3.1,30,0.00,,,0.00,WUHU216HW,2013-03-03 05:06:00,
2013-03-03 00:07:00,57.0,25.9,29.82,West,270,0.0,3.1,30,0.00,,,0.00,WUHU216HW,2013-03-03 05:07:00,
2013-03-03 00:08:00,57.0,25.9,29.82,WSW,248,0.0,3.1,32,0.00,,,0.00,WUHU216HW,2013-03-03 05:08:00,
2013-03-03 00:09:00,33.4,22.1,29.62,West,270,0.0,0.0,63,0.00,,,0.00,WUHU216HW,2013-03-03 05:09:00,
2013-03-03 00:10:00,57.0,25.9,29.82,WSW,248,0.0,3.1,30,0.00,,,0.00,WUHU216HW,2013-03-03 05:10:00,
2013-03-03 00:11:00,57.0,25.9,29.82,WSW,248,0.0,3.1,30,0.00,,,0.00,WUHU216HW,2013-03-03 05:11:00,
2013-03-03 00:12:00,57.0,25.9,29.82,WSW,248,0.0,3.1,30,0.00,,,0.00,WUHU216HW,2013-03-03 05:12:00,
2013-03-03 00:13:00,57.0,25.9,29.82,WSW,248,0.0,0.0,31,0.00,,,0.00,WUHU216HW,2013-03-03 05:13:00,
2013-03-03 00:15:00,33.4,22.1,29.62,West,270,0.0,0.0,63,0.00,,,0.00,WUHU216HW,2013-03-03 05:15:00,
2013-03-03 00:16:00,56.4,26.1,29.82,WNW,293,3.1,3.1,31,0.00,,,0.00,WUHU216HW,2013-03-03 05:16:00,
2013-03-03 00:17:00,56.3,25.2,29.82,West,270,0.8,3.1,30,0.00,,,0.00,WUHU216HW,2013-03-03 05:17:00,
2013-03-03 00:18:00,56.3,25.2,29.82,West,270,0.8,3.1,30,0.00,,,0.00,WUHU216HW,2013-03-03 05:18:00,
2013-03-03 00:19:00,56.1,25.0,29.82,NNW,338,0.0,3.1,30,0.00,,,0.00,WUHU216HW,2013-03-03 05:19:00,
2013-03-03 00:20:00,32.7,21.4,29.61,West,270,0.0,0.0,63,0.00,,,0.00,WUHU216HW,2013-03-03 05:20:00,
2013-03-03 00:21:00,56.1,25.0,29.82,West,270,0.0,3.1,29,0.00,,,0.00,WUHU216HW,2013-03-03 05:21:00,
2013-03-03 00:22:00,56.1,25.0,29.82,West,270,0.0,3.1,29,0.00,,,0.00,WUHU216HW,2013-03-03 05:22:00,
2013-03-03 00:23:00,56.1,25.0,29.82,North,0,0.0,3.1,30,0.00,,,0.00,WUHU216HW,2013-03-03 05:23:00,
2013-03-03 00:24:00,56.1,25.0,29.82,North,0,0.0,3.1,30,0.00,,,0.00,WUHU216HW,2013-03-03 05:24:00,
2013-03-03 00:25:00,32.7,21.4,29.62,West,270,0.0,0.0,63,0.00,,,0.00,WUHU216HW,2013-03-03 05:25:00,
2013-03-03 00:26:00,55.9,26.3,29.82,NE,45,0.0,3.1,32,0.00,,,0.00,WUHU216HW,2013-03-03 05:26:00,
2013-03-03 00:27:00,55.9,26.3,29.82,NE,45,0.0,0.8,32,0.00,,,0.00,WUHU216HW,2013-03-03 05:27:00,
2013-03-03 00:28:00,55.9,26.3,29.82,WSW,248,0.0,0.8,29,0.00,,,0.00,WUHU216HW,2013-03-03 05:28:00,
2013-03-03 00:29:00,55.9,26.3,29.82,WSW,248,0.0,0.0,29,0.00,,,0.00,WUHU216HW,2013-03-03 05:29:00,
2013-03-03 00:30:00,32.5,21.3,29.61,West,270,0.0,0.0,63,0.00,,,0.00,WUHU216HW,2013-03-03 05:30:00,
2013-03-03 00:31:00,55.9,26.3,29.82,West,270,0.0,0.0,29,0.00,,,0.00,WUHU216HW,2013-03-03 05:31:00,
2013-03-03 00:32:00,55.7,23.8,29.82,WSW,248,0.0,0.0,29,0.00,,,0.00,WUHU216HW,2013-03-03 05:32:00,
2013-03-03 00:33:00,55.7,23.8,29.82,WSW,248,0.0,0.0,29,0.00,,,0.00,WUHU216HW,2013-03-03 05:33:00,
2013-03-03 00:34:00,55.4,24.4,29.81,SW,225,0.0,0.0,30,0.00,,,0.00,WUHU216HW,2013-03-03 05:34:00,
2013-03-03 00:35:00,32.5,21.3,29.61,West,270,0.0,0.0,63,0.00,,,0.00,WUHU216HW,2013-03-03 05:35:00,
2013-03-03 00:38:00,55.0,25.5,29.82,WNW,293,0.0,0.0,32,0.00,,,0.00,WUHU216HW,2013-03-03 05:38:00,
2013-03-03 00:39:00,55.0,25.5,29.82,WNW,293,0.0,0.0,32,0.00,,,0.00,WUHU216HW,2013-03-03 05:39:00,
2013-03-03 00:40:00,32.5,21.3,29.61,NNW,338,0.0,0.0,63,0.00,,,0.00,WUHU216HW,2013-03-03 05:40:00,
2013-03-03 00:41:00,55.2,24.9,29.82,West,270,0.0,0.0,31,0.00,,,0.00,WUHU216HW,2013-03-03 05:41:00,
2013-03-03 00:42:00,55.2,24.9,29.82,West,270,0.0,0.0,31,0.00,,,0.00,WUHU216HW,2013-03-03 05:42:00,
2013-03-03 00:43:00,55.2,25.6,29.82,West,270,5.1,5.1,32,0.00,,,0.00,WUHU216HW,2013-03-03 05:43:00,
2013-03-03 00:44:00,55.2,24.9,29.81,West,270,0.0,5.1,31,0.00,,,0.00,WUHU216HW,2013-03-03 05:44:00,
2013-03-03 00:45:00,32.5,21.3,29.61,NNW,338,0.0,0.0,63,0.00,,,0.00,WUHU216HW,2013-03-03 05:45:00,
2013-03-03 00:46:00,55.2,24.9,29.82,West,270,0.0,5.1,31,0.00,,,0.00,WUHU216HW,2013-03-03 05:46:00,
2013-03-03 00:47:00,55.2,24.9,29.81,West,270,0.0,5.1,31,0.00,,,0.00,WUHU216HW,2013-03-03 05:47:00,
2013-03-03 00:48:00,55.2,24.9,29.81,West,270,0.0,5.1,31,0.00,,,0.00,WUHU216HW,2013-03-03 05:48:00,
2013-03-03 00:49:00,55.0,25.5,29.81,WNW,293,0.0,5.1,32,0.00,,,0.00,WUHU216HW,2013-03-03 05:49:00,
2013-03-03 00:50:00,32.3,21.1,29.61,NW,315,0.0,0.0,63,0.00,,,0.00,WUHU216HW,2013-03-03 05:50:00,
2013-03-03 00:51:00,55.0,25.5,29.81,West,270,0.0,5.1,31,0.00,,,0.00,WUHU216HW,2013-03-03 05:51:00,
2013-03-03 00:52:00,55.0,25.5,29.81,West,270,0.0,5.1,31,0.00,,,0.00,WUHU216HW,2013-03-03 05:52:00,
2013-03-03 00:53:00,54.6,25.2,29.81,West,270,0.0,5.1,32,0.00,,,0.00,WUHU216HW,2013-03-03 05:53:00,
2013-03-03 00:54:00,54.6,25.2,29.81,West,270,0.0,0.0,32,0.00,,,0.00,WUHU216HW,2013-03-03 05:54:00,
2013-03-03 00:55:00,32.3,21.1,29.61,NW,315,0.0,0.0,63,0.00,,,0.00,WUHU216HW,2013-03-03 05:55:00,
2013-03-03 00:56:00,54.6,25.2,29.81,West,270,0.0,0.0,31,0.00,,,0.00,WUHU216HW,2013-03-03 05:56:00,
2013-03-03 00:58:00,54.5,25.1,29.81,West,270,0.0,0.0,32,0.00,,,0.00,WUHU216HW,2013-03-03 05:58:00,
2013-03-03 01:00:00,32.1,20.6,29.62,NW,315,0.0,0.0,62,0.00,,,0.00,WUHU216HW,2013-03-03 06:00:00,
2013-03-03 01:05:00,32.0,20.8,29.62,NW,315,0.0,0.0,63,0.00,,,0.00,WUHU216HW,2013-03-03 06:05:00,
2013-03-03 01:06:00,53.7,24.5,29.81,WSW,248,0.0,3.8,32,0.00,,,0.00,WUHU216HW,2013-03-03 06:06:00,
2013-03-03 01:07:00,53.7,24.5,29.81,WSW,248,0.0,3.8,32,0.00,,,0.00,WUHU216HW,2013-03-03 06:07:00,
2013-03-03 01:08:00,53.6,24.3,29.81,WNW,293,1.7,3.8,32,0.00,,,0.00,WUHU216HW,2013-03-03 06:08:00,
2013-03-03 01:09:00,53.6,24.3,29.81,WNW,293,1.7,3.8,32,0.00,,,0.00,WUHU216HW,2013-03-03 06:09:00,
2013-03-03 01:10:00,32.0,20.8,29.62,NW,315,0.0,0.0,63,0.00,,,0.00,WUHU216HW,2013-03-03 06:10:00,
2013-03-03 01:11:00,53.4,24.2,29.81,ENE,68,1.5,3.8,32,0.00,,,0.00,WUHU216HW,2013-03-03 06:11:00,
2013-03-03 01:12:00,53.4,24.2,29.81,ENE,68,1.5,3.8,32,0.00,,,0.00,WUHU216HW,2013-03-03 06:12:00,
2013-03-03 01:13:00,53.4,24.2,29.81,West,270,0.0,3.8,33,0.00,,,0.00,WUHU216HW,2013-03-03 06:13:00,
2013-03-03 01:14:00,53.4,24.2,29.81,West,270,0.0,1.7,33,0.00,,,0.00,WUHU216HW,2013-03-03 06:14:00,
2013-03-03 01:15:00,31.8,20.6,29.62,NW,315,0.0,0.0,62,0.00,,,0.00,WUHU216HW,2013-03-03 06:15:00,
2013-03-03 01:16:00,53.2,24.0,29.81,West,270,0.0,1.7,32,0.00,,,0.00,WUHU216HW,2013-03-03 06:16:00,
2013-03-03 01:17:00,53.2,24.0,29.81,West,270,0.0,1.7,33,0.00,,,0.00,WUHU216HW,2013-03-03 06:17:00,
2013-03-03 01:18:00,53.2,24.0,29.81,West,270,0.0,1.7,33,0.00,,,0.00,WUHU216HW,2013-03-03 06:18:00,
2013-03-03 01:19:00,53.2,24.0,29.81,West,270,0.0,1.7,33,0.00,,,0.00,WUHU216HW,2013-03-03 06:19:00,
2013-03-03 01:20:00,31.8,20.6,29.62,NW,315,0.0,0.0,64,0.00,,,0.00,WUHU216HW,2013-03-03 06:20:00,
2013-03-03 01:21:00,53.2,24.0,29.81,West,270,0.0,1.5,33,0.00,,,0.00,WUHU216HW,2013-03-03 06:21:00,
2013-03-03 01:22:00,53.2,24.0,29.81,West,270,0.0,1.5,33,0.00,,,0.00,WUHU216HW,2013-03-03 06:22:00,
2013-03-03 01:23:00,53.4,24.8,29.81,WNW,293,0.0,0.0,33,0.00,,,0.00,WUHU216HW,2013-03-03 06:23:00,
2013-03-03 01:24:00,53.4,24.8,29.81,WNW,293,0.0,0.0,33,0.00,,,0.00,WUHU216HW,2013-03-03 06:24:00,
2013-03-03 01:25:00,31.6,20.8,29.62,NW,315,0.0,0.0,64,0.00,,,0.00,WUHU216HW,2013-03-03 06:25:00,
2013-03-03 01:26:00,53.2,24.0,29.81,West,270,0.0,0.0,32,0.00,,,0.00,WUHU216HW,2013-03-03 06:26:00,
2013-03-03 01:27:00,53.2,24.0,29.81,West,270,0.0,0.0,32,0.00,,,0.00,WUHU216HW,2013-03-03 06:27:00,
2013-03-03 01:28:00,53.2,24.0,29.81,West,270,0.0,0.0,33,0.00,,,0.00,WUHU216HW,2013-03-03 06:28:00,
2013-03-03 01:29:00,53.2,24.0,29.81,West,270,0.0,0.0,33,0.00,,,0.00,WUHU216HW,2013-03-03 06:29:00,
2013-03-03 01:30:00,31.6,20.8,29.62,NW,315,0.0,0.0,64,0.00,,,0.00,WUHU216HW,2013-03-03 06:30:00,
2013-03-03 01:31:00,53.2,24.0,29.81,West,270,0.0,0.0,33,0.00,,,0.00,WUHU216HW,2013-03-03 06:31:00,
2013-03-03 01:32:00,53.2,24.0,29.81,West,270,0.0,0.0,34,0.00,,,0.00,WUHU216HW,2013-03-03 06:32:00,
2013-03-03 01:33:00,53.2,24.0,29.81,West,270,0.0,0.0,34,0.00,,,0.00,WUHU216HW,2013-03-03 06:33:00,
2013-03-03 01:34:00,53.2,24.0,29.81,West,270,0.0,0.0,33,0.00,,,0.00,WUHU216HW,2013-03-03 06:34:00,
2013-03-03 01:35:00,31.4,20.6,29.62,NW,315,0.0,0.0,64,0.00,,,0.00,WUHU216HW,2013-03-03 06:35:00,
2013-03-03 01:36:00,52.8,25.0,29.81,West,270,0.0,0.0,34,0.00,,,0.00,WUHU216HW,2013-03-03 06:36:00,
2013-03-03 01:37:00,52.8,25.0,29.81,West,270,0.0,0.0,34,0.00,,,0.00,WUHU216HW,2013-03-03 06:37:00,
2013-03-03 01:38:00,52.8,25.0,29.81,West,270,0.0,0.0,34,0.00,,,0.00,WUHU216HW,2013-03-03 06:38:00,
2013-03-03 01:39:00,52.8,25.0,29.81,ENE,68,0.0,0.0,35,0.00,,,0.00,WUHU216HW,2013-03-03 06:39:00,
2013-03-03 01:40:00,31.2,20.4,29.61,NW,315,0.0,0.0,64,0.00,,,0.00,WUHU216HW,2013-03-03 06:40:00,
2013-03-03 01:41:00,52.7,24.9,29.81,WNW,293,0.0,0.0,34,0.00,,,0.00,WUHU216HW,2013-03-03 06:41:00,
2013-03-03 01:42:00,52.7,24.9,29.81,WNW,293,0.0,0.0,34,0.00,,,0.00,WUHU216HW,2013-03-03 06:42:00,
2013-03-03 01:43:00,52.5,24.0,29.81,WNW,293,0.0,0.0,33,0.00,,,0.00,WUHU216HW,2013-03-03 06:43:00,
2013-03-03 01:44:00,52.5,24.0,29.81,WNW,293,0.0,0.0,33,0.00,,,0.00,WUHU216HW,2013-03-03 06:44:00,
2013-03-03 01:45:00,31.2,20.4,29.62,NW,315,0.0,0.0,65,0.00,,,0.00,WUHU216HW,2013-03-03 06:45:00,
2013-03-03 01:46:00,52.3,23.9,29.81,NW,315,0.0,0.0,33,0.00,,,0.00,WUHU216HW,2013-03-03 06:46:00,
2013-03-03 01:47:00,52.3,23.9,29.81,NW,315,0.0,0.0,34,0.00,,,0.00,WUHU216HW,2013-03-03 06:47:00,
2013-03-03 01:48:00,52.3,23.9,29.81,NW,315,0.0,0.0,34,0.00,,,0.00,WUHU216HW,2013-03-03 06:48:00,
2013-03-03 01:49:00,51.9,24.2,29.81,WNW,293,0.0,0.0,34,0.00,,,0.00,WUHU216HW,2013-03-03 06:49:00,
2013-03-03 01:50:00,31.1,20.3,29.62,NW,315,0.0,0.0,65,0.00,,,0.00,WUHU216HW,2013-03-03 06:50:00,
2013-03-03 01:51:00,51.9,24.2,29.81,WNW,293,0.0,0.0,34,0.00,,,0.00,WUHU216HW,2013-03-03 06:51:00,
2013-03-03 01:52:00,51.9,24.2,29.81,WNW,293,0.0,0.0,34,0.00,,,0.00,WUHU216HW,2013-03-03 06:52:00,
2013-03-03 01:53:00,51.9,24.2,29.81,WNW,293,0.0,0.0,34,0.00,,,0.00,WUHU216HW,2013-03-03 06:53:00,
2013-03-03 01:54:00,51.9,24.2,29.81,WNW,293,0.0,0.0,34,0.00,,,0.00,WUHU216HW,2013-03-03 06:54:00,
2013-03-03 01:55:00,30.9,20.4,29.62,NW,315,0.0,0.0,65,0.00,,,0.00,WUHU216HW,2013-03-03 06:55:00,
2013-03-03 01:56:00,51.6,23.9,29.82,WNW,293,0.0,0.0,34,0.00,,,0.00,WUHU216HW,2013-03-03 06:56:00,
2013-03-03 01:57:00,51.6,23.9,29.82,WNW,293,0.0,0.0,34,0.00,,,0.00,WUHU216HW,2013-03-03 06:57:00,
2013-03-03 01:58:00,51.6,23.9,29.82,WNW,293,0.0,0.0,34,0.00,,,0.00,WUHU216HW,2013-03-03 06:58:00,
2013-03-03 01:59:00,51.6,23.9,29.82,WNW,293,0.0,0.0,34,0.00,,,0.00,WUHU216HW,2013-03-03 06:59:00,
2013-03-03 02:00:00,30.9,20.4,29.62,NW,315,0.0,0.0,66,0.00,,,0.00,WUHU216HW,2013-03-03 07:00:00,
2013-03-03 02:01:00,51.6,23.9,29.81,WNW,293,0.0,0.0,35,0.00,,,0.00,WUHU216HW,2013-03-03 07:01:00,
2013-03-03 02:02:00,51.4,23.7,29.81,WNW,293,2.6,2.6,34,0.00,,,0.00,WUHU216HW,2013-03-03 07:02:00,
2013-03-03 02:03:00,51.4,23.7,29.82,WNW,293,2.6,2.6,34,0.00,,,0.00,WUHU216HW,2013-03-03 07:03:00,
2013-03-03 02:04:00,51.4,23.7,29.82,West,270,0.0,2.6,34,0.00,,,0.00,WUHU216HW,2013-03-03 07:04:00,
2013-03-03 02:05:00,30.9,20.4,29.61,NW,315,0.0,0.0,66,0.00,,,0.00,WUHU216HW,2013-03-03 07:05:00,
2013-03-03 02:06:00,51.4,23.7,29.82,West,270,0.0,2.6,34,0.00,,,0.00,WUHU216HW,2013-03-03 07:06:00,
2013-03-03 02:07:00,51.4,23.7,29.82,West,270,0.0,2.6,34,0.00,,,0.00,WUHU216HW,2013-03-03 07:07:00,
2013-03-03 02:08:00,51.4,23.7,29.82,West,270,0.0,2.6,34,0.00,,,0.00,WUHU216HW,2013-03-03 07:08:00,
2013-03-03 02:09:00,51.0,23.4,29.82,NNW,338,0.0,2.6,34,0.00,,,0.00,WUHU216HW,2013-03-03 07:09:00,
2013-03-03 02:10:00,30.7,20.6,29.62,NW,315,0.0,0.0,66,0.00,,,0.00,WUHU216HW,2013-03-03 07:10:00,
2013-03-03 02:11:00,51.0,23.4,29.82,SW,225,0.0,2.6,35,0.00,,,0.00,WUHU216HW,2013-03-03 07:11:00,
2013-03-03 02:12:00,51.0,23.4,29.82,SW,225,0.0,2.6,35,0.00,,,0.00,WUHU216HW,2013-03-03 07:12:00,
2013-03-03 02:13:00,51.0,23.4,29.82,SW,225,0.0,2.6,34,0.00,,,0.00,WUHU216HW,2013-03-03 07:13:00,
2013-03-03 02:14:00,51.0,23.4,29.82,SW,225,0.0,0.0,34,0.00,,,0.00,WUHU216HW,2013-03-03 07:14:00,
2013-03-03 02:15:00,30.7,20.6,29.61,NW,315,0.0,0.0,66,0.00,,,0.00,WUHU216HW,2013-03-03 07:15:00,
2013-03-03 02:16:00,50.9,23.3,29.82,NW,315,0.0,0.0,34,0.00,,,0.00,WUHU216HW,2013-03-03 07:16:00,
2013-03-03 02:17:00,50.9,23.3,29.82,WNW,293,0.0,0.0,34,0.00,,,0.00,WUHU216HW,2013-03-03 07:17:00,
2013-03-03 02:18:00,50.9,23.3,29.82,WNW,293,0.0,0.0,34,0.00,,,0.00,WUHU216HW,2013-03-03 07:18:00,
2013-03-03 02:19:00,50.7,23.1,29.82,WNW,293,0.0,0.0,34,0.00,,,0.00,WUHU216HW,2013-03-03 07:19:00,
2013-03-03 02:20:00,30.7,20.6,29.62,NW,315,0.0,0.0,67,0.00,,,0.00,WUHU216HW,2013-03-03 07:20:00,
2013-03-03 02:21:00,50.5,22.9,29.82,WSW,248,3.1,3.1,34,0.00,,,0.00,WUHU216HW,2013-03-03 07:21:00,
2013-03-03 02:22:00,50.5,22.9,29.82,WSW,248,3.1,3.1,34,0.00,,,0.00,WUHU216HW,2013-03-03 07:22:00,
2013-03-03 02:23:00,50.5,22.9,29.82,WSW,248,3.1,3.1,34,0.00,,,0.00,WUHU216HW,2013-03-03 07:23:00,
2013-03-03 02:24:00,50.5,22.9,29.82,WSW,248,0.0,3.1,34,0.00,,,0.00,WUHU216HW,2013-03-03 07:24:00,
2013-03-03 02:25:00,30.5,20.4,29.61,NW,315,0.0,0.0,66,0.00,,,0.00,WUHU216HW,2013-03-03 07:25:00,
2013-03-03 02:26:00,50.3,22.8,29.82,WSW,248,0.0,3.1,34,0.00,,,0.00,WUHU216HW,2013-03-03 07:26:00,
2013-03-03 02:27:00,50.3,22.8,29.82,WSW,248,0.0,3.1,34,0.00,,,0.00,WUHU216HW,2013-03-03 07:27:00,
2013-03-03 02:28:00,50.1,23.3,29.82,East,90,0.0,3.1,35,0.00,,,0.00,WUHU216HW,2013-03-03 07:28:00,
2013-03-03 02:29:00,50.1,23.3,29.82,East,90,0.0,3.1,35,0.00,,,0.00,WUHU216HW,2013-03-03 07:29:00,
2013-03-03 02:30:00,30.5,20.4,29.61,NW,315,0.0,0.0,66,0.00,,,0.00,WUHU216HW,2013-03-03 07:30:00,
2013-03-03 02:31:00,50.0,23.1,29.82,West,270,0.0,3.1,35,0.00,,,0.00,WUHU216HW,2013-03-03 07:31:00,
2013-03-03 02:32:00,49.8,23.0,29.82,WNW,293,0.0,3.1,35,0.00,,,0.00,WUHU216HW,2013-03-03 07:32:00,
2013-03-03 02:33:00,49.8,23.0,29.82,WNW,293,0.0,0.0,35,0.00,,,0.00,WUHU216HW,2013-03-03 07:33:00,
2013-03-03 02:34:00,49.8,23.0,29.82,WNW,293,0.0,0.0,36,0.00,,,0.00,WUHU216HW,2013-03-03 07:34:00,
2013-03-03 02:35:00,30.3,20.6,29.61,NW,315,0.0,0.0,67,0.00,,,0.00,WUHU216HW,2013-03-03 07:35:00,
2013-03-03 02:36:00,49.6,23.5,29.82,WNW,293,0.0,0.0,36,0.00,,,0.00,WUHU216HW,2013-03-03 07:36:00,
2013-03-03 02:37:00,49.6,23.5,29.82,WNW,293,0.0,0.0,36,0.00,,,0.00,WUHU216HW,2013-03-03 07:37:00,
2013-03-03 02:38:00,49.6,23.5,29.82,WNW,293,0.0,0.0,36,0.00,,,0.00,WUHU216HW,2013-03-03 07:38:00,
2013-03-03 02:39:00,49.6,23.5,29.82,WNW,293,0.0,0.0,36,0.00,,,0.00,WUHU216HW,2013-03-03 07:39:00,
2013-03-03 02:40:00,30.3,20.6,29.61,NW,315,0.0,0.0,67,0.00,,,0.00,WUHU216HW,2013-03-03 07:40:00,
2013-03-03 02:41:00,49.4,23.4,29.82,WNW,293,0.0,0.0,36,0.00,,,0.00,WUHU216HW,2013-03-03 07:41:00,
2013-03-03 02:42:00,49.4,23.4,29.82,WNW,293,0.0,0.0,36,0.00,,,0.00,WUHU216HW,2013-03-03 07:42:00,
2013-03-03 02:43:00,49.2,22.5,29.82,WNW,293,0.0,0.0,35,0.00,,,0.00,WUHU216HW,2013-03-03 07:43:00,
2013-03-03 02:44:00,49.2,22.5,29.82,WNW,293,0.0,0.0,35,0.00,,,0.00,WUHU216HW,2013-03-03 07:44:00,
2013-03-03 02:45:00,30.3,20.6,29.61,NW,315,0.0,0.0,68,0.00,,,0.00,WUHU216HW,2013-03-03 07:45:00,
2013-03-03 02:46:00,49.1,23.0,29.82,WNW,293,0.0,0.0,36,0.00,,,0.00,WUHU216HW,2013-03-03 07:46:00,
2013-03-03 02:47:00,49.1,23.0,29.82,WNW,293,0.0,0.0,36,0.00,,,0.00,WUHU216HW,2013-03-03 07:47:00,
2013-03-03 02:48:00,49.1,23.0,29.82,WNW,293,0.0,0.0,36,0.00,,,0.00,WUHU216HW,2013-03-03 07:48:00,
2013-03-03 02:49:00,49.1,23.0,29.82,WSW,248,0.0,0.0,35,0.00,,,0.00,WUHU216HW,2013-03-03 07:49:00,
2013-03-03 02:50:00,30.3,20.6,29.61,NW,315,0.0,0.0,69,0.00,,,0.00,WUHU216HW,2013-03-03 07:50:00,
2013-03-03 02:51:00,48.9,22.9,29.82,WSW,248,0.0,0.0,36,0.00,,,0.00,WUHU216HW,2013-03-03 07:51:00,
2013-03-03 02:52:00,48.9,22.9,29.82,WSW,248,0.0,0.0,36,0.00,,,0.00,WUHU216HW,2013-03-03 07:52:00,
2013-03-03 02:53:00,48.9,22.9,29.82,WSW,248,0.0,0.0,36,0.00,,,0.00,WUHU216HW,2013-03-03 07:53:00,
2013-03-03 02:54:00,48.9,22.9,29.82,WSW,248,0.0,0.0,36,0.00,,,0.00,WUHU216HW,2013-03-03 07:54:00,
2013-03-03 02:55:00,48.9,22.9,29.82,WSW,248,0.0,0.0,36,0.00,,,0.00,WUHU216HW,2013-03-03 07:55:00,
2013-03-03 02:56:00,30.0,21.0,29.60,NW,315,0.0,0.0,68,0.00,,,0.00,WUHU216HW,2013-03-03 07:56:00,
2013-03-03 02:57:00,48.7,23.4,29.82,WSW,248,0.0,0.0,37,0.00,,,0.00,WUHU216HW,2013-03-03 07:57:00,
2013-03-03 02:58:00,48.5,23.2,29.82,WSW,248,0.0,0.0,37,0.00,,,0.00,WUHU216HW,2013-03-03 07:58:00,
2013-03-03 02:59:00,48.5,23.2,29.82,WSW,248,0.0,0.0,37,0.00,,,0.00,WUHU216HW,2013-03-03 07:59:00,
2013-03-03 03:00:00,48.3,22.4,29.83,West,270,0.0,0.0,36,0.00,,,0.00,WUHU216HW,2013-03-03 08:00:00,
2013-03-03 03:01:00,30.0,21.0,29.60,NW,315,0.0,0.0,69,0.00,,,0.00,WUHU216HW,2013-03-03 08:01:00,
2013-03-03 03:02:00,48.3,22.4,29.83,West,270,0.0,0.0,37,0.00,,,0.00,WUHU216HW,2013-03-03 08:02:00,
2013-03-03 03:03:00,48.3,22.4,29.83,West,270,0.0,0.0,37,0.00,,,0.00,WUHU216HW,2013-03-03 08:03:00,
2013-03-03 03:04:00,48.3,22.4,29.83,West,270,0.0,0.0,37,0.00,,,0.00,WUHU216HW,2013-03-03 08:04:00,
2013-03-03 03:05:00,48.3,22.4,29.83,West,270,0.0,0.0,37,0.00,,,0.00,WUHU216HW,2013-03-03 08:05:00,
2013-03-03 03:06:00,30.0,21.0,29.60,NW,315,0.0,0.0,69,0.00,,,0.00,WUHU216HW,2013-03-03 08:06:00,
2013-03-03 03:07:00,48.0,22.1,29.83,West,270,0.0,0.0,36,0.00,,,0.00,WUHU216HW,2013-03-03 08:07:00,
2013-03-03 03:08:00,48.0,22.1,29.83,West,270,0.0,0.0,36,0.00,,,0.00,WUHU216HW,2013-03-03 08:08:00,
2013-03-03 03:09:00,48.0,22.1,29.83,West,270,0.0,0.0,37,0.00,,,0.00,WUHU216HW,2013-03-03 08:09:00,
2013-03-03 03:10:00,48.0,22.1,29.83,West,270,0.0,0.0,37,0.00,,,0.00,WUHU216HW,2013-03-03 08:10:00,
2013-03-03 03:11:00,29.8,21.2,29.60,NW,315,0.0,0.0,69,0.00,,,0.00,WUHU216HW,2013-03-03 08:11:00,
2013-03-03 03:12:00,48.0,22.1,29.83,West,270,0.0,0.0,37,0.00,,,0.00,WUHU216HW,2013-03-03 08:12:00,
2013-03-03 03:13:00,47.8,22.6,29.83,West,270,0.0,0.0,37,0.00,,,0.00,WUHU216HW,2013-03-03 08:13:00,
2013-03-03 03:14:00,47.8,22.6,29.83,West,270,0.0,0.0,37,0.00,,,0.00,WUHU216HW,2013-03-03 08:14:00,
2013-03-03 03:15:00,47.8,22.6,29.83,West,270,0.0,0.0,38,0.00,,,0.00,WUHU216HW,2013-03-03 08:15:00,
2013-03-03 03:16:00,29.8,21.2,29.60,NW,315,0.0,0.0,69,0.00,,,0.00,WUHU216HW,2013-03-03 08:16:00,
2013-03-03 03:17:00,47.8,22.6,29.83,West,270,0.0,0.0,38,0.00,,,0.00,WUHU216HW,2013-03-03 08:17:00,
2013-03-03 03:18:00,47.8,22.6,29.83,West,270,0.0,0.0,38,0.00,,,0.00,WUHU216HW,2013-03-03 08:18:00,
2013-03-03 03:19:00,47.8,22.6,29.83,West,270,0.0,0.0,38,0.00,,,0.00,WUHU216HW,2013-03-03 08:19:00,
2013-03-03 03:20:00,47.4,22.3,29.83,West,270,0.0,0.0,37,0.00,,,0.00,WUHU216HW,2013-03-03 08:20:00,
2013-03-03 03:21:00,29.8,21.2,29.60,NW,315,0.0,0.0,70,0.00,,,0.00,WUHU216HW,2013-03-03 08:21:00,
2013-03-03 03:22:00,47.4,22.3,29.83,West,270,0.0,0.0,38,0.00,,,0.00,WUHU216HW,2013-03-03 08:22:00,
2013-03-03 03:23:00,47.4,22.3,29.84,West,270,0.0,0.0,38,0.00,,,0.00,WUHU216HW,2013-03-03 08:23:00,
2013-03-03 03:24:00,47.4,22.3,29.84,West,270,0.0,0.0,38,0.00,,,0.00,WUHU216HW,2013-03-03 08:24:00,
2013-03-03 03:25:00,47.4,22.3,29.84,West,270,0.0,0.0,38,0.00,,,0.00,WUHU216HW,2013-03-03 08:25:00,
2013-03-03 03:26:00,29.4,20.9,29.60,NW,315,0.0,0.0,70,0.00,,,0.00,WUHU216HW,2013-03-03 08:26:00,
2013-03-03 03:27:00,47.3,22.8,29.84,West,270,0.0,0.0,38,0.00,,,0.00,WUHU216HW,2013-03-03 08:27:00,
2013-03-03 03:28:00,47.1,23.3,29.84,West,270,0.0,0.0,39,0.00,,,0.00,WUHU216HW,2013-03-03 08:28:00,
2013-03-03 03:29:00,47.1,23.3,29.84,West,270,0.0,0.0,39,0.00,,,0.00,WUHU216HW,2013-03-03 08:29:00,
2013-03-03 03:30:00,46.9,23.1,29.84,West,270,0.0,0.0,39,0.00,,,0.00,WUHU216HW,2013-03-03 08:30:00,
2013-03-03 03:31:00,29.4,20.9,29.60,NW,315,0.0,0.0,70,0.00,,,0.00,WUHU216HW,2013-03-03 08:31:00,
2013-03-03 03:32:00,46.9,23.1,29.84,West,270,0.0,0.0,39,0.00,,,0.00,WUHU216HW,2013-03-03 08:32:00,
2013-03-03 03:33:00,46.9,23.1,29.84,West,270,0.0,0.0,39,0.00,,,0.00,WUHU216HW,2013-03-03 08:33:00,
2013-03-03 03:34:00,46.9,23.1,29.84,West,270,0.0,0.0,39,0.00,,,0.00,WUHU216HW,2013-03-03 08:34:00,
2013-03-03 03:35:00,46.9,23.1,29.84,West,270,0.0,0.0,39,0.00,,,0.00,WUHU216HW,2013-03-03 08:35:00,
2013-03-03 03:36:00,29.4,20.9,29.60,NW,315,0.0,0.0,70,0.00,,,0.00,WUHU216HW,2013-03-03 08:36:00,
2013-03-03 03:40:00,46.5,22.8,29.84,West,270,0.0,0.0,39,0.00,,,0.00,WUHU216HW,2013-03-03 08:40:00,
2013-03-03 03:41:00,29.4,20.9,29.60,NW,315,0.0,0.0,71,0.00,,,0.00,WUHU216HW,2013-03-03 08:41:00,
2013-03-03 03:42:00,46.5,22.8,29.84,West,270,0.0,0.0,40,0.00,,,0.00,WUHU216HW,2013-03-03 08:42:00,
2013-03-03 03:43:00,46.4,23.3,29.84,West,270,0.0,0.0,40,0.00,,,0.00,WUHU216HW,2013-03-03 08:43:00,
2013-03-03 03:44:00,46.4,23.3,29.84,West,270,0.0,0.0,40,0.00,,,0.00,WUHU216HW,2013-03-03 08:44:00,
2013-03-03 03:45:00,46.2,23.2,29.84,West,270,0.0,0.0,40,0.00,,,0.00,WUHU216HW,2013-03-03 08:45:00,
2013-03-03 03:46:00,29.3,21.0,29.60,NW,315,0.0,0.0,71,0.00,,,0.00,WUHU216HW,2013-03-03 08:46:00,
2013-03-03 03:47:00,46.0,23.0,29.83,West,270,0.0,0.0,40,0.00,,,0.00,WUHU216HW,2013-03-03 08:47:00,
2013-03-03 03:48:00,46.0,23.0,29.84,West,270,0.0,0.0,40,0.00,,,0.00,WUHU216HW,2013-03-03 08:48:00,
2013-03-03 03:49:00,46.0,23.0,29.84,West,270,0.0,0.0,40,0.00,,,0.00,WUHU216HW,2013-03-03 08:49:00,
2013-03-03 03:50:00,46.0,23.0,29.84,West,270,0.0,0.0,41,0.00,,,0.00,WUHU216HW,2013-03-03 08:50:00,
2013-03-03 03:51:00,29.3,21.0,29.60,NW,315,0.0,0.0,71,0.00,,,0.00,WUHU216HW,2013-03-03 08:51:00,
2013-03-03 03:52:00,45.8,23.4,29.84,West,270,0.0,0.0,41,0.00,,,0.00,WUHU216HW,2013-03-03 08:52:00,
2013-03-03 03:53:00,45.8,23.4,29.84,West,270,0.0,0.0,41,0.00,,,0.00,WUHU216HW,2013-03-03 08:53:00,
2013-03-03 03:54:00,45.6,23.2,29.84,West,270,0.0,0.0,41,0.00,,,0.00,WUHU216HW,2013-03-03 08:54:00,
2013-03-03 03:55:00,45.6,23.2,29.84,West,270,0.0,0.0,41,0.00,,,0.00,WUHU216HW,2013-03-03 08:55:00,
2013-03-03 03:56:00,29.3,21.0,29.60,NW,315,0.0,0.0,71,0.00,,,0.00,WUHU216HW,2013-03-03 08:56:00,
2013-03-03 03:57:00,45.5,23.0,29.84,West,270,0.0,0.0,41,0.00,,,0.00,WUHU216HW,2013-03-03 08:57:00,
2013-03-03 03:58:00,45.5,23.0,29.84,West,270,0.0,0.0,41,0.00,,,0.00,WUHU216HW,2013-03-03 08:58:00,
2013-03-03 03:59:00,45.5,23.0,29.84,West,270,0.0,0.0,41,0.00,,,0.00,WUHU216HW,2013-03-03 08:59:00,
2013-03-03 04:00:00,45.3,22.9,29.84,West,270,0.0,0.0,41,0.00,,,0.00,WUHU216HW,2013-03-03 09:00:00,
2013-03-03 04:01:00,29.3,21.0,29.60,NW,315,0.0,0.0,71,0.00,,,0.00,WUHU216HW,2013-03-03 09:01:00,
2013-03-03 04:02:00,45.3,22.9,29.84,West,270,0.0,0.0,42,0.00,,,0.00,WUHU216HW,2013-03-03 09:02:00,
2013-03-03 04:03:00,45.3,22.9,29.84,West,270,0.0,0.0,42,0.00,,,0.00,WUHU216HW,2013-03-03 09:03:00,
2013-03-03 04:04:00,45.1,23.3,29.84,West,270,0.0,0.0,42,0.00,,,0.00,WUHU216HW,2013-03-03 09:04:00,
2013-03-03 04:05:00,45.1,23.3,29.84,West,270,0.0,0.0,42,0.00,,,0.00,WUHU216HW,2013-03-03 09:05:00,
2013-03-03 04:06:00,29.1,21.2,29.60,NW,315,0.0,0.0,71,0.00,,,0.00,WUHU216HW,2013-03-03 09:06:00,
2013-03-03 04:07:00,45.1,23.3,29.84,West,270,0.0,0.0,42,0.00,,,0.00,WUHU216HW,2013-03-03 09:07:00,
2013-03-03 04:08:00,45.1,23.3,29.84,West,270,0.0,0.0,42,0.00,,,0.00,WUHU216HW,2013-03-03 09:08:00,
2013-03-03 04:09:00,44.9,22.6,29.84,West,270,0.0,0.0,41,0.00,,,0.00,WUHU216HW,2013-03-03 09:09:00,
2013-03-03 04:10:00,44.9,22.6,29.84,West,270,0.0,0.0,41,0.00,,,0.00,WUHU216HW,2013-03-03 09:10:00,
2013-03-03 04:11:00,29.1,21.2,29.60,NW,315,0.0,0.0,72,0.00,,,0.00,WUHU216HW,2013-03-03 09:11:00,
2013-03-03 04:12:00,44.9,22.6,29.84,West,270,0.0,0.0,41,0.00,,,0.00,WUHU216HW,2013-03-03 09:12:00,
2013-03-03 04:13:00,44.9,22.6,29.84,West,270,0.0,0.0,42,0.00,,,0.00,WUHU216HW,2013-03-03 09:13:00,
2013-03-03 04:15:00,44.9,22.6,29.84,West,270,0.0,0.0,42,0.00,,,0.00,WUHU216HW,2013-03-03 09:15:00,
2013-03-03 04:16:00,29.1,21.2,29.60,NW,315,0.0,0.0,72,0.00,,,0.00,WUHU216HW,2013-03-03 09:16:00,
2013-03-03 04:17:00,44.7,22.4,29.84,West,270,0.0,0.0,41,0.00,,,0.00,WUHU216HW,2013-03-03 09:17:00,
2013-03-03 04:19:00,44.7,22.4,29.84,West,270,0.0,0.0,41,0.00,,,0.00,WUHU216HW,2013-03-03 09:19:00,
2013-03-03 04:20:00,44.7,22.4,29.84,West,270,0.0,0.0,41,0.00,,,0.00,WUHU216HW,2013-03-03 09:20:00,
2013-03-03 04:21:00,29.1,21.2,29.60,NW,315,0.0,0.0,72,0.00,,,0.00,WUHU216HW,2013-03-03 09:21:00,
2013-03-03 04:22:00,44.7,22.4,29.84,West,270,0.0,0.0,42,0.00,,,0.00,WUHU216HW,2013-03-03 09:22:00,
2013-03-03 04:23:00,44.7,22.4,29.84,West,270,0.0,0.0,42,0.00,,,0.00,WUHU216HW,2013-03-03 09:23:00,
2013-03-03 04:24:00,44.4,22.6,29.84,West,270,0.0,0.0,42,0.00,,,0.00,WUHU216HW,2013-03-03 09:24:00,
2013-03-03 04:26:00,28.9,20.7,29.61,NW,315,0.0,0.0,72,0.00,,,0.00,WUHU216HW,2013-03-03 09:26:00,
2013-03-03 04:27:00,44.4,22.6,29.84,West,270,0.0,0.0,42,0.00,,,0.00,WUHU216HW,2013-03-03 09:27:00,
2013-03-03 04:28:00,44.4,22.6,29.84,West,270,0.0,0.0,43,0.00,,,0.00,WUHU216HW,2013-03-03 09:28:00,
2013-03-03 04:30:00,44.2,23.0,29.84,West,270,0.0,0.0,43,0.00,,,0.00,WUHU216HW,2013-03-03 09:30:00,
2013-03-03 04:31:00,28.9,20.7,29.61,NW,315,0.0,0.0,72,0.00,,,0.00,WUHU216HW,2013-03-03 09:31:00,
2013-03-03 04:32:00,44.2,23.0,29.84,West,270,0.0,0.0,43,0.00,,,0.00,WUHU216HW,2013-03-03 09:32:00,
2013-03-03 04:33:00,44.2,23.0,29.84,West,270,0.0,0.0,43,0.00,,,0.00,WUHU216HW,2013-03-03 09:33:00,
2013-03-03 04:34:00,44.2,23.0,29.84,West,270,0.0,0.0,44,0.00,,,0.00,WUHU216HW,2013-03-03 09:34:00,
2013-03-03 04:35:00,44.2,23.0,29.84,West,270,0.0,0.0,44,0.00,,,0.00,WUHU216HW,2013-03-03 09:35:00,
2013-03-03 04:36:00,28.9,20.7,29.61,NW,315,0.0,0.0,72,0.00,,,0.00,WUHU216HW,2013-03-03 09:36:00,
2013-03-03 04:37:00,43.8,23.2,29.84,West,270,0.0,0.0,44,0.00,,,0.00,WUHU216HW,2013-03-03 09:37:00,
2013-03-03 04:38:00,43.8,23.2,29.84,West,270,0.0,0.0,44,0.00,,,0.00,WUHU216HW,2013-03-03 09:38:00,
2013-03-03 04:39:00,43.8,23.2,29.84,West,270,0.0,0.0,44,0.00,,,0.00,WUHU216HW,2013-03-03 09:39:00,
2013-03-03 04:40:00,43.8,23.2,29.84,West,270,0.0,0.0,44,0.00,,,0.00,WUHU216HW,2013-03-03 09:40:00,
2013-03-03 04:41:00,28.9,20.7,29.61,NW,315,0.0,0.0,72,0.00,,,0.00,WUHU216HW,2013-03-03 09:41:00,
2013-03-03 04:43:00,43.8,23.2,29.84,West,270,0.0,0.0,45,0.00,,,0.00,WUHU216HW,2013-03-03 09:43:00,
2013-03-03 04:44:00,43.8,23.2,29.84,West,270,0.0,0.0,45,0.00,,,0.00,WUHU216HW,2013-03-03 09:44:00,
2013-03-03 04:45:00,43.8,23.2,29.84,West,270,0.0,0.0,45,0.00,,,0.00,WUHU216HW,2013-03-03 09:45:00,
2013-03-03 04:46:00,28.7,21.1,29.61,NW,315,0.0,0.0,73,0.00,,,0.00,WUHU216HW,2013-03-03 09:46:00,
2013-03-03 04:47:00,43.7,23.6,29.84,West,270,0.0,0.0,45,0.00,,,0.00,WUHU216HW,2013-03-03 09:47:00,
2013-03-03 04:48:00,43.5,24.0,29.84,West,270,0.0,0.0,46,0.00,,,0.00,WUHU216HW,2013-03-03 09:48:00,
2013-03-03 04:49:00,43.5,24.0,29.84,West,270,0.0,0.0,46,0.00,,,0.00,WUHU216HW,2013-03-03 09:49:00,
2013-03-03 04:50:00,43.3,23.8,29.84,West,270,0.0,0.0,46,0.00,,,0.00,WUHU216HW,2013-03-03 09:50:00,
2013-03-03 04:51:00,43.3,23.8,29.84,West,270,0.0,0.0,46,0.00,,,0.00,WUHU216HW,2013-03-03 09:51:00,
2013-03-03 04:52:00,28.7,21.1,29.61,NW,315,0.0,0.0,72,0.00,,,0.00,WUHU216HW,2013-03-03 09:52:00,
2013-03-03 04:53:00,43.3,23.8,29.84,West,270,0.0,0.0,46,0.00,,,0.00,WUHU216HW,2013-03-03 09:53:00,
2013-03-03 04:54:00,43.3,23.8,29.84,West,270,0.0,0.0,46,0.00,,,0.00,WUHU216HW,2013-03-03 09:54:00,
2013-03-03 04:55:00,43.3,23.8,29.84,West,270,0.0,0.0,46,0.00,,,0.00,WUHU216HW,2013-03-03 09:55:00,
2013-03-03 04:56:00,43.1,23.6,29.84,West,270,0.0,0.0,46,0.00,,,0.00,WUHU216HW,2013-03-03 09:56:00,
2013-03-03 04:57:00,28.7,21.1,29.61,NW,315,0.0,0.0,73,0.00,,,0.00,WUHU216HW,2013-03-03 09:57:00,
2013-03-03 04:58:00,42.9,23.5,29.85,West,270,0.0,0.0,46,0.00,,,0.00,WUHU216HW,2013-03-03 09:58:00,
2013-03-03 04:59:00,42.9,23.5,29.84,West,270,0.0,0.0,46,0.00,,,0.00,WUHU216HW,2013-03-03 09:59:00,
2013-03-03 05:00:00,42.9,23.5,29.85,West,270,0.0,0.0,46,0.00,,,0.00,WUHU216HW,2013-03-03 10:00:00,
2013-03-03 05:01:00,42.9,23.5,29.85,West,270,0.0,0.0,46,0.00,,,0.00,WUHU216HW,2013-03-03 10:01:00,
2013-03-03 05:02:00,28.5,21.0,29.61,NW,315,0.0,0.0,73,0.00,,,0.00,WUHU216HW,2013-03-03 10:02:00,
2013-03-03 05:03:00,42.8,23.9,29.84,West,270,0.0,0.0,47,0.00,,,0.00,WUHU216HW,2013-03-03 10:03:00,
2013-03-03 05:04:00,42.8,23.9,29.84,West,270,0.0,0.0,47,0.00,,,0.00,WUHU216HW,2013-03-03 10:04:00,
2013-03-03 05:05:00,42.8,23.9,29.84,West,270,0.0,0.0,46,0.00,,,0.00,WUHU216HW,2013-03-03 10:05:00,
2013-03-03 05:06:00,42.8,23.9,29.84,West,270,0.0,0.0,46,0.00,,,0.00,WUHU216HW,2013-03-03 10:06:00,
2013-03-03 05:07:00,28.5,21.0,29.62,NW,315,0.0,0.0,72,0.00,,,0.00,WUHU216HW,2013-03-03 10:07:00,
2013-03-03 05:08:00,42.6,23.7,29.84,West,270,0.0,0.0,47,0.00,,,0.00,WUHU216HW,2013-03-03 10:08:00,
2013-03-03 05:09:00,42.6,23.7,29.84,West,270,0.0,0.0,47,0.00,,,0.00,WUHU216HW,2013-03-03 10:09:00,
2013-03-03 05:10:00,42.6,23.7,29.85,West,270,0.0,0.0,47,0.00,,,0.00,WUHU216HW,2013-03-03 10:10:00,
2013-03-03 05:11:00,42.4,23.5,29.85,West,270,0.0,0.0,47,0.00,,,0.00,WUHU216HW,2013-03-03 10:11:00,
2013-03-03 05:12:00,28.4,20.8,29.62,NW,315,0.0,0.0,73,0.00,,,0.00,WUHU216HW,2013-03-03 10:12:00,
2013-03-03 05:13:00,42.4,23.5,29.85,West,270,0.0,0.0,47,0.00,,,0.00,WUHU216HW,2013-03-03 10:13:00,
2013-03-03 05:15:00,42.4,23.5,29.85,West,270,0.0,0.0,48,0.00,,,0.00,WUHU216HW,2013-03-03 10:15:00,
2013-03-03 05:17:00,28.4,20.8,29.62,NW,315,0.0,0.0,74,0.00,,,0.00,WUHU216HW,2013-03-03 10:17:00,
2013-03-03 05:20:00,42.2,24.4,29.85,West,270,0.0,0.0,49,0.00,,,0.00,WUHU216HW,2013-03-03 10:20:00,
2013-03-03 05:21:00,42.2,24.4,29.85,West,270,0.0,0.0,49,0.00,,,0.00,WUHU216HW,2013-03-03 10:21:00,
2013-03-03 05:22:00,28.2,20.9,29.62,NW,315,0.0,0.0,74,0.00,,,0.00,WUHU216HW,2013-03-03 10:22:00,
2013-03-03 05:23:00,42.2,24.4,29.85,West,270,0.0,0.0,50,0.00,,,0.00,WUHU216HW,2013-03-03 10:23:00,
2013-03-03 05:24:00,42.0,24.2,29.85,West,270,0.0,0.0,49,0.00,,,0.00,WUHU216HW,2013-03-03 10:24:00,
2013-03-03 05:25:00,42.0,24.2,29.85,West,270,0.0,0.0,49,0.00,,,0.00,WUHU216HW,2013-03-03 10:25:00,
2013-03-03 05:26:00,41.9,24.0,29.85,West,270,0.0,0.0,49,0.00,,,0.00,WUHU216HW,2013-03-03 10:26:00,
2013-03-03 05:27:00,28.4,21.1,29.62,NW,315,0.0,0.0,74,0.00,,,0.00,WUHU216HW,2013-03-03 10:27:00,
2013-03-03 05:28:00,41.9,24.0,29.85,West,270,0.0,0.0,49,0.00,,,0.00,WUHU216HW,2013-03-03 10:28:00,
2013-03-03 05:29:00,41.9,24.0,29.85,West,270,0.0,0.0,49,0.00,,,0.00,WUHU216HW,2013-03-03 10:29:00,
2013-03-03 05:30:00,41.9,24.0,29.85,West,270,0.0,0.0,49,0.00,,,0.00,WUHU216HW,2013-03-03 10:30:00,
2013-03-03 05:31:00,41.7,23.9,29.85,West,270,0.0,0.0,49,0.00,,,0.00,WUHU216HW,2013-03-03 10:31:00,
2013-03-03 05:32:00,28.4,21.1,29.62,NW,315,0.0,0.0,74,0.00,,,0.00,WUHU216HW,2013-03-03 10:32:00,
2013-03-03 05:33:00,41.5,24.2,29.85,West,270,0.0,0.0,50,0.00,,,0.00,WUHU216HW,2013-03-03 10:33:00,
2013-03-03 05:34:00,41.5,24.2,29.85,West,270,0.0,0.0,50,0.00,,,0.00,WUHU216HW,2013-03-03 10:34:00,
2013-03-03 05:35:00,41.5,24.2,29.85,West,270,0.0,0.0,51,0.00,,,0.00,WUHU216HW,2013-03-03 10:35:00,
2013-03-03 05:36:00,41.5,24.2,29.85,West,270,0.0,0.0,51,0.00,,,0.00,WUHU216HW,2013-03-03 10:36:00,
2013-03-03 05:37:00,28.4,21.1,29.62,NW,315,0.0,0.0,75,0.00,,,0.00,WUHU216HW,2013-03-03 10:37:00,
2013-03-03 05:38:00,41.5,24.2,29.85,West,270,0.0,0.0,51,0.00,,,0.00,WUHU216HW,2013-03-03 10:38:00,
2013-03-03 05:39:00,41.3,24.5,29.85,West,270,0.0,0.0,51,0.00,,,0.00,WUHU216HW,2013-03-03 10:39:00,
2013-03-03 05:40:00,41.3,24.5,29.85,West,270,0.0,0.0,51,0.00,,,0.00,WUHU216HW,2013-03-03 10:40:00,
2013-03-03 05:41:00,41.1,24.3,29.85,West,270,0.0,0.0,51,0.00,,,0.00,WUHU216HW,2013-03-03 10:41:00,
2013-03-03 05:42:00,28.5,21.6,29.62,NW,315,0.0,0.0,75,0.00,,,0.00,WUHU216HW,2013-03-03 10:42:00,
2013-03-03 05:43:00,41.1,24.3,29.85,West,270,0.0,0.0,51,0.00,,,0.00,WUHU216HW,2013-03-03 10:43:00,
2013-03-03 05:44:00,41.1,24.3,29.85,West,270,0.0,0.0,52,0.00,,,0.00,WUHU216HW,2013-03-03 10:44:00,
2013-03-03 05:45:00,41.1,24.3,29.85,West,270,0.0,0.0,52,0.00,,,0.00,WUHU216HW,2013-03-03 10:45:00,
2013-03-03 05:46:00,41.1,24.3,29.85,West,270,0.0,0.0,51,0.00,,,0.00,WUHU216HW,2013-03-03 10:46:00,
2013-03-03 05:47:00,28.5,21.6,29.62,NW,315,0.0,0.0,75,0.00,,,0.00,WUHU216HW,2013-03-03 10:47:00,
2013-03-03 05:48:00,41.0,24.1,29.85,West,270,0.0,0.0,51,0.00,,,0.00,WUHU216HW,2013-03-03 10:48:00,
2013-03-03 05:49:00,41.0,24.1,29.85,West,270,0.0,0.0,51,0.00,,,0.00,WUHU216HW,2013-03-03 10:49:00,
2013-03-03 05:50:00,41.0,24.1,29.85,West,270,0.0,0.0,51,0.00,,,0.00,WUHU216HW,2013-03-03 10:50:00,
2013-03-03 05:51:00,41.0,24.1,29.86,West,270,0.0,0.0,51,0.00,,,0.00,WUHU216HW,2013-03-03 10:51:00,
2013-03-03 05:52:00,28.7,21.8,29.62,NW,315,0.0,0.0,75,0.00,,,0.00,WUHU216HW,2013-03-03 10:52:00,
2013-03-03 05:53:00,40.8,24.0,29.85,West,270,0.0,0.0,51,0.00,,,0.00,WUHU216HW,2013-03-03 10:53:00,
2013-03-03 05:54:00,40.8,24.0,29.85,West,270,0.0,0.0,51,0.00,,,0.00,WUHU216HW,2013-03-03 10:54:00,
2013-03-03 05:55:00,40.8,24.0,29.85,West,270,0.0,0.0,51,0.00,,,0.00,WUHU216HW,2013-03-03 10:55:00,
2013-03-03 05:56:00,40.8,24.0,29.85,West,270,0.0,0.0,51,0.00,,,0.00,WUHU216HW,2013-03-03 10:56:00,
2013-03-03 05:57:00,28.7,21.8,29.62,NW,315,0.0,0.0,75,0.00,,,0.00,WUHU216HW,2013-03-03 10:57:00,
2013-03-03 05:58:00,40.8,24.0,29.86,West,270,0.0,0.0,51,0.00,,,0.00,WUHU216HW,2013-03-03 10:58:00,
2013-03-03 05:59:00,40.8,24.0,29.86,West,270,0.0,0.0,51,0.00,,,0.00,WUHU216HW,2013-03-03 10:59:00,
2013-03-03 06:00:00,40.8,24.0,29.85,West,270,0.0,0.0,51,0.00,,,0.00,WUHU216HW,2013-03-03 11:00:00,
2013-03-03 06:01:00,40.6,23.3,29.85,West,270,0.0,0.0,50,0.00,,,0.00,WUHU216HW,2013-03-03 11:01:00,
2013-03-03 06:02:00,40.6,23.3,29.85,West,270,0.0,0.0,50,0.00,,,0.00,WUHU216HW,2013-03-03 11:02:00,
2013-03-03 06:03:00,28.9,21.9,29.63,NW,315,0.0,0.0,75,0.00,,,0.00,WUHU216HW,2013-03-03 11:03:00,
2013-03-03 06:04:00,40.6,23.3,29.86,West,270,0.0,0.0,51,0.00,,,0.00,WUHU216HW,2013-03-03 11:04:00,
2013-03-03 06:05:00,40.6,23.3,29.86,West,270,0.0,0.0,51,0.00,,,0.00,WUHU216HW,2013-03-03 11:05:00,
2013-03-03 06:06:00,40.6,23.3,29.86,West,270,0.0,0.0,51,0.00,,,0.00,WUHU216HW,2013-03-03 11:06:00,
2013-03-03 06:07:00,40.6,23.3,29.85,West,270,0.0,0.0,51,0.00,,,0.00,WUHU216HW,2013-03-03 11:07:00,
2013-03-03 06:08:00,28.9,21.9,29.62,NW,315,0.0,0.0,75,0.00,,,0.00,WUHU216HW,2013-03-03 11:08:00,
2013-03-03 06:09:00,40.6,23.3,29.86,West,270,0.0,0.0,51,0.00,,,0.00,WUHU216HW,2013-03-03 11:09:00,
2013-03-03 06:10:00,40.6,23.3,29.86,West,270,0.0,0.0,51,0.00,,,0.00,WUHU216HW,2013-03-03 11:10:00,
2013-03-03 06:11:00,40.6,23.3,29.86,West,270,0.0,0.0,51,0.00,,,0.00,WUHU216HW,2013-03-03 11:11:00,
2013-03-03 06:12:00,40.6,23.3,29.86,West,270,0.0,0.0,51,0.00,,,0.00,WUHU216HW,2013-03-03 11:12:00,
2013-03-03 06:13:00,28.9,21.9,29.62,NW,315,0.0,0.0,75,0.00,,,0.00,WUHU216HW,2013-03-03 11:13:00,
2013-03-03 06:14:00,40.6,23.3,29.85,West,270,0.0,0.0,52,0.00,,,0.00,WUHU216HW,2013-03-03 11:14:00,
2013-03-03 06:15:00,40.6,23.3,29.85,West,270,0.0,0.0,52,0.00,,,0.00,WUHU216HW,2013-03-03 11:15:00,
2013-03-03 06:16:00,40.2,23.9,29.85,West,270,0.0,0.0,52,0.00,,,0.00,WUHU216HW,2013-03-03 11:16:00,
2013-03-03 06:17:00,40.2,23.9,29.85,West,270,0.0,0.0,52,0.00,,,0.00,WUHU216HW,2013-03-03 11:17:00,
2013-03-03 06:18:00,29.1,22.1,29.62,NW,315,0.0,0.0,74,0.00,,,0.00,WUHU216HW,2013-03-03 11:18:00,
2013-03-03 06:19:00,40.2,23.9,29.85,West,270,0.0,0.0,52,0.00,,,0.00,WUHU216HW,2013-03-03 11:19:00,
2013-03-03 06:21:00,40.2,23.9,29.86,West,270,0.0,0.0,52,0.00,,,0.00,WUHU216HW,2013-03-03 11:21:00,
2013-03-03 06:22:00,40.1,23.7,29.86,West,270,0.0,0.0,52,0.00,,,0.00,WUHU216HW,2013-03-03 11:22:00,
2013-03-03 06:23:00,29.1,22.1,29.62,NW,315,0.0,0.0,74,0.00,,,0.00,WUHU216HW,2013-03-03 11:23:00,
2013-03-03 06:24:00,40.1,23.7,29.86,West,270,0.0,0.0,52,0.00,,,0.00,WUHU216HW,2013-03-03 11:24:00,
2013-03-03 06:25:00,40.1,23.7,29.86,West,270,0.0,0.0,52,0.00,,,0.00,WUHU216HW,2013-03-03 11:25:00,
2013-03-03 06:26:00,40.1,23.7,29.86,West,270,0.0,0.0,53,0.00,,,0.00,WUHU216HW,2013-03-03 11:26:00,
2013-03-03 06:27:00,40.1,23.7,29.86,West,270,0.0,0.0,53,0.00,,,0.00,WUHU216HW,2013-03-03 11:27:00,
2013-03-03 06:28:00,29.3,22.0,29.62,NW,315,0.0,0.0,74,0.00,,,0.00,WUHU216HW,2013-03-03 11:28:00,
2013-03-03 06:29:00,39.9,24.0,29.86,West,270,0.0,0.0,53,0.00,,,0.00,WUHU216HW,2013-03-03 11:29:00,
2013-03-03 06:30:00,39.9,24.0,29.87,West,270,0.0,0.0,53,0.00,,,0.00,WUHU216HW,2013-03-03 11:30:00,
2013-03-03 06:31:00,39.9,24.0,29.86,West,270,0.0,0.0,52,0.00,,,0.00,WUHU216HW,2013-03-03 11:31:00,
2013-03-03 06:32:00,39.9,24.0,29.86,West,270,0.0,0.0,52,0.00,,,0.00,WUHU216HW,2013-03-03 11:32:00,
2013-03-03 06:33:00,29.4,21.8,29.62,NW,315,0.0,0.0,72,0.00,,,0.00,WUHU216HW,2013-03-03 11:33:00,
2013-03-03 06:34:00,39.7,23.9,29.86,West,270,0.0,0.0,53,0.00,,,0.00,WUHU216HW,2013-03-03 11:34:00,
2013-03-03 06:35:00,39.7,23.9,29.86,West,270,0.0,0.0,53,0.00,,,0.00,WUHU216HW,2013-03-03 11:35:00,
2013-03-03 06:36:00,39.7,23.9,29.86,West,270,0.0,0.0,53,0.00,,,0.00,WUHU216HW,2013-03-03 11:36:00,
2013-03-03 06:37:00,39.7,23.9,29.86,West,270,0.0,0.0,52,0.00,,,0.00,WUHU216HW,2013-03-03 11:37:00,
2013-03-03 06:38:00,29.4,21.8,29.62,NW,315,0.0,0.0,72,0.00,,,0.00,WUHU216HW,2013-03-03 11:38:00,
2013-03-03 06:39:00,39.5,22.8,29.86,West,270,0.0,0.0,51,0.00,,,0.00,WUHU216HW,2013-03-03 11:39:00,
2013-03-03 06:40:00,39.5,22.8,29.86,West,270,0.0,0.0,51,0.00,,,0.00,WUHU216HW,2013-03-03 11:40:00,
2013-03-03 06:41:00,39.5,22.8,29.86,West,270,0.0,0.0,51,0.00,,,0.00,WUHU216HW,2013-03-03 11:41:00,
2013-03-03 06:42:00,39.5,22.8,29.86,West,270,0.0,0.0,51,0.00,,,0.00,WUHU216HW,2013-03-03 11:42:00,
2013-03-03 06:43:00,29.4,21.8,29.62,NNW,338,0.0,0.0,71,0.00,,,0.00,WUHU216HW,2013-03-03 11:43:00,
2013-03-03 06:44:00,39.5,22.8,29.86,West,270,0.0,0.0,52,0.00,,,0.00,WUHU216HW,2013-03-03 11:44:00,
2013-03-03 06:45:00,39.5,22.8,29.86,West,270,0.0,0.0,52,0.00,,,0.00,WUHU216HW,2013-03-03 11:45:00,
2013-03-03 06:46:00,39.5,22.8,29.86,West,270,0.0,0.0,52,0.00,,,0.00,WUHU216HW,2013-03-03 11:46:00,
2013-03-03 06:47:00,39.5,22.8,29.86,West,270,0.0,0.0,52,0.00,,,0.00,WUHU216HW,2013-03-03 11:47:00,
2013-03-03 06:48:00,29.8,21.5,29.63,NNW,338,0.0,0.0,71,0.00,,,0.00,WUHU216HW,2013-03-03 11:48:00,
2013-03-03 06:49:00,39.5,22.8,29.86,West,270,0.0,0.0,52,0.00,,,0.00,WUHU216HW,2013-03-03 11:49:00,
2013-03-03 06:50:00,39.5,22.8,29.86,West,270,0.0,0.0,52,0.00,,,0.00,WUHU216HW,2013-03-03 11:50:00,
2013-03-03 06:51:00,39.5,22.8,29.86,West,270,0.0,0.0,52,0.00,,,0.00,WUHU216HW,2013-03-03 11:51:00,
2013-03-03 06:52:00,39.5,22.8,29.86,West,270,0.0,0.0,52,0.00,,,0.00,WUHU216HW,2013-03-03 11:52:00,
2013-03-03 06:53:00,29.8,21.2,29.63,NNW,338,0.0,0.0,70,0.00,,,0.00,WUHU216HW,2013-03-03 11:53:00,
2013-03-03 06:54:00,39.5,22.8,29.86,West,270,0.0,0.0,52,0.00,,,0.00,WUHU216HW,2013-03-03 11:54:00,
2013-03-03 06:55:00,39.3,23.1,29.86,West,270,0.0,0.0,52,0.00,,,0.00,WUHU216HW,2013-03-03 11:55:00,
2013-03-03 06:56:00,39.3,23.1,29.86,West,270,0.0,0.0,52,0.00,,,0.00,WUHU216HW,2013-03-03 11:56:00,
2013-03-03 06:57:00,39.3,23.1,29.86,West,270,0.0,0.0,53,0.00,,,0.00,WUHU216HW,2013-03-03 11:57:00,
2013-03-03 06:58:00,30.0,21.4,29.63,NNW,338,0.0,0.0,70,0.00,,,0.00,WUHU216HW,2013-03-03 11:58:00,
2013-03-03 06:59:00,39.3,23.1,29.86,West,270,0.0,0.0,53,0.00,,,0.00,WUHU216HW,2013-03-03 11:59:00,
2013-03-03 07:00:00,39.3,23.1,29.86,West,270,0.0,0.0,53,0.00,,,0.00,WUHU216HW,2013-03-03 12:00:00,
2013-03-03 07:01:00,39.3,23.1,29.86,West,270,0.0,0.0,53,0.00,,,0.00,WUHU216HW,2013-03-03 12:01:00,
2013-03-03 07:02:00,39.3,23.1,29.86,West,270,0.0,0.0,53,0.00,,,0.00,WUHU216HW,2013-03-03 12:02:00,
2013-03-03 07:03:00,30.0,21.4,29.63,NNW,338,0.0,0.0,70,0.00,,,0.00,WUHU216HW,2013-03-03 12:03:00,
2013-03-03 07:04:00,39.2,23.3,29.86,West,270,0.0,0.0,53,0.00,,,0.00,WUHU216HW,2013-03-03 12:04:00,
2013-03-03 07:05:00,39.0,23.6,29.86,West,270,0.0,0.0,54,0.00,,,0.00,WUHU216HW,2013-03-03 12:05:00,
2013-03-03 07:06:00,39.0,23.6,29.86,West,270,0.0,0.0,54,0.00,,,0.00,WUHU216HW,2013-03-03 12:06:00,
2013-03-03 07:07:00,39.0,23.6,29.86,West,270,0.0,0.0,54,0.00,,,0.00,WUHU216HW,2013-03-03 12:07:00,
2013-03-03 07:08:00,39.0,23.6,29.86,West,270,0.0,0.0,54,0.00,,,0.00,WUHU216HW,2013-03-03 12:08:00,
2013-03-03 07:09:00,30.3,21.7,29.63,NNW,338,0.0,0.0,70,0.00,,,0.00,WUHU216HW,2013-03-03 12:09:00,
2013-03-03 07:10:00,39.0,23.6,29.86,West,270,0.0,0.0,54,0.00,,,0.00,WUHU216HW,2013-03-03 12:10:00,
2013-03-03 07:11:00,39.0,23.6,29.86,West,270,0.0,0.0,54,0.00,,,0.00,WUHU216HW,2013-03-03 12:11:00,
2013-03-03 07:12:00,38.8,23.9,29.86,West,270,0.0,0.0,55,0.00,,,0.00,WUHU216HW,2013-03-03 12:12:00,
2013-03-03 07:13:00,38.8,23.9,29.86,West,270,0.0,0.0,55,0.00,,,0.00,WUHU216HW,2013-03-03 12:13:00,
2013-03-03 07:14:00,30.5,22.2,29.63,NNW,338,0.0,0.0,70,0.00,,,0.00,WUHU216HW,2013-03-03 12:14:00,
2013-03-03 07:15:00,38.8,23.9,29.86,West,270,0.0,0.0,56,0.00,,,0.00,WUHU216HW,2013-03-03 12:15:00,
2013-03-03 07:16:00,38.8,23.9,29.86,West,270,0.0,0.0,57,0.00,,,0.00,WUHU216HW,2013-03-03 12:16:00,
2013-03-03 07:17:00,38.8,23.9,29.86,West,270,0.0,0.0,57,0.00,,,0.00,WUHU216HW,2013-03-03 12:17:00,
2013-03-03 07:18:00,38.8,23.9,29.87,West,270,0.0,0.0,57,0.00,,,0.00,WUHU216HW,2013-03-03 12:18:00,
2013-03-03 07:19:00,30.7,21.7,29.63,WNW,293,0.0,0.0,69,0.00,,,0.00,WUHU216HW,2013-03-03 12:19:00,
2013-03-03 07:20:00,38.8,23.9,29.86,West,270,0.0,0.0,58,0.00,,,0.00,WUHU216HW,2013-03-03 12:20:00,
2013-03-03 07:21:00,38.8,23.9,29.87,West,270,0.0,0.0,58,0.00,,,0.00,WUHU216HW,2013-03-03 12:21:00,
2013-03-03 07:22:00,38.8,23.9,29.87,West,270,0.0,0.0,58,0.00,,,0.00,WUHU216HW,2013-03-03 12:22:00,
2013-03-03 07:23:00,38.4,24.4,29.86,West,270,0.0,0.0,57,0.00,,,0.00,WUHU216HW,2013-03-03 12:23:00,
2013-03-03 07:24:00,30.9,21.9,29.64,WNW,293,0.0,0.0,69,0.00,,,0.00,WUHU216HW,2013-03-03 12:24:00,
2013-03-03 07:25:00,38.3,24.7,29.87,West,270,0.0,0.0,58,0.00,,,0.00,WUHU216HW,2013-03-03 12:25:00,
2013-03-03 07:26:00,38.3,24.7,29.87,West,270,0.0,0.0,58,0.00,,,0.00,WUHU216HW,2013-03-03 12:26:00,
2013-03-03 07:27:00,38.1,24.5,29.87,West,270,0.0,0.0,58,0.00,,,0.00,WUHU216HW,2013-03-03 12:27:00,
2013-03-03 07:28:00,38.1,24.5,29.87,West,270,0.0,0.0,58,0.00,,,0.00,WUHU216HW,2013-03-03 12:28:00,
2013-03-03 07:29:00,31.2,21.9,29.64,WNW,293,0.0,0.0,68,0.00,,,0.00,WUHU216HW,2013-03-03 12:29:00,
2013-03-03 07:30:00,38.1,24.5,29.87,West,270,0.0,0.0,58,0.00,,,0.00,WUHU216HW,2013-03-03 12:30:00,
2013-03-03 07:31:00,38.1,24.5,29.87,West,270,0.0,0.0,58,0.00,,,0.00,WUHU216HW,2013-03-03 12:31:00,
2013-03-03 07:32:00,38.1,24.5,29.87,West,270,0.0,0.0,58,0.00,,,0.00,WUHU216HW,2013-03-03 12:32:00,
2013-03-03 07:33:00,37.9,23.9,29.87,West,270,0.0,0.0,57,0.00,,,0.00,WUHU216HW,2013-03-03 12:33:00,
2013-03-03 07:34:00,31.4,21.7,29.64,WNW,293,0.0,0.0,67,0.00,,,0.00,WUHU216HW,2013-03-03 12:34:00,
2013-03-03 07:35:00,37.9,23.9,29.87,West,270,0.0,0.0,57,0.00,,,0.00,WUHU216HW,2013-03-03 12:35:00,
2013-03-03 07:36:00,37.7,23.3,29.87,West,270,0.0,0.0,56,0.00,,,0.00,WUHU216HW,2013-03-03 12:36:00,
2013-03-03 07:37:00,37.7,23.3,29.87,West,270,0.0,0.0,56,0.00,,,0.00,WUHU216HW,2013-03-03 12:37:00,
2013-03-03 07:38:00,37.7,23.3,29.87,West,270,0.0,0.0,57,0.00,,,0.00,WUHU216HW,2013-03-03 12:38:00,
2013-03-03 07:39:00,31.8,21.7,29.63,WNW,293,0.0,0.0,66,0.00,,,0.00,WUHU216HW,2013-03-03 12:39:00,
2013-03-03 07:40:00,37.7,23.3,29.87,West,270,0.0,0.0,57,0.00,,,0.00,WUHU216HW,2013-03-03 12:40:00,
2013-03-03 07:41:00,37.7,23.3,29.87,West,270,0.0,0.0,57,0.00,,,0.00,WUHU216HW,2013-03-03 12:41:00,
2013-03-03 07:42:00,37.5,24.1,29.87,West,270,0.0,0.0,58,0.00,,,0.00,WUHU216HW,2013-03-03 12:42:00,
2013-03-03 07:43:00,37.5,24.1,29.87,West,270,0.0,0.0,58,0.00,,,0.00,WUHU216HW,2013-03-03 12:43:00,
2013-03-03 07:44:00,32.0,21.9,29.64,WNW,293,0.0,0.0,66,0.00,,,0.00,WUHU216HW,2013-03-03 12:44:00,
2013-03-03 07:45:00,37.5,24.1,29.87,West,270,0.0,0.0,58,0.00,,,0.00,WUHU216HW,2013-03-03 12:45:00,
2013-03-03 07:46:00,37.5,24.1,29.87,West,270,0.0,0.0,58,0.00,,,0.00,WUHU216HW,2013-03-03 12:46:00,
2013-03-03 07:47:00,37.5,24.1,29.87,West,270,0.0,0.0,58,0.00,,,0.00,WUHU216HW,2013-03-03 12:47:00,
2013-03-03 07:48:00,37.5,24.1,29.87,West,270,0.0,0.0,58,0.00,,,0.00,WUHU216HW,2013-03-03 12:48:00,
2013-03-03 07:49:00,32.3,22.2,29.64,WNW,293,0.0,0.0,66,0.00,,,0.00,WUHU216HW,2013-03-03 12:49:00,
2013-03-03 07:50:00,37.2,24.2,29.87,West,270,0.0,0.0,59,0.00,,,0.00,WUHU216HW,2013-03-03 12:50:00,
2013-03-03 07:51:00,37.2,24.2,29.87,West,270,0.0,0.0,59,0.00,,,0.00,WUHU216HW,2013-03-03 12:51:00,
2013-03-03 07:52:00,37.2,24.2,29.87,West,270,0.0,0.0,61,0.00,,,0.00,WUHU216HW,2013-03-03 12:52:00,
2013-03-03 07:53:00,37.2,24.2,29.87,West,270,0.0,0.0,61,0.00,,,0.00,WUHU216HW,2013-03-03 12:53:00,
2013-03-03 07:54:00,32.7,21.8,29.64,West,270,0.0,0.0,64,0.00,,,0.00,WUHU216HW,2013-03-03 12:54:00,
2013-03-03 07:55:00,37.0,25.2,29.88,West,270,0.0,0.0,62,0.00,,,0.00,WUHU216HW,2013-03-03 12:55:00,
2013-03-03 07:56:00,37.0,25.2,29.88,West,270,0.0,0.0,62,0.00,,,0.00,WUHU216HW,2013-03-03 12:56:00,
2013-03-03 07:57:00,37.0,25.2,29.88,West,270,0.0,0.0,62,0.00,,,0.00,WUHU216HW,2013-03-03 12:57:00,
2013-03-03 07:58:00,37.0,25.2,29.88,West,270,0.0,0.0,62,0.00,,,0.00,WUHU216HW,2013-03-03 12:58:00,
2013-03-03 07:59:00,32.9,22.0,29.64,West,270,0.0,0.0,64,0.00,,,0.00,WUHU216HW,2013-03-03 12:59:00,
2013-03-03 08:00:00,36.6,24.8,29.88,West,270,0.0,0.0,62,0.00,,,0.00,WUHU216HW,2013-03-03 13:00:00,
2013-03-03 08:01:00,36.6,24.8,29.88,West,270,0.0,0.0,62,0.00,,,0.00,WUHU216HW,2013-03-03 13:01:00,
2013-03-03 08:02:00,36.6,24.8,29.88,West,270,0.0,0.0,62,0.00,,,0.00,WUHU216HW,2013-03-03 13:02:00,
2013-03-03 08:03:00,36.6,24.8,29.88,West,270,0.0,0.0,62,0.00,,,0.00,WUHU216HW,2013-03-03 13:03:00,
2013-03-03 08:04:00,33.0,21.8,29.64,West,270,0.0,0.0,63,0.00,,,0.00,WUHU216HW,2013-03-03 13:04:00,
2013-03-03 08:05:00,36.6,24.8,29.88,West,270,0.0,0.0,62,0.00,,,0.00,WUHU216HW,2013-03-03 13:05:00,
2013-03-03 08:06:00,36.6,24.8,29.88,West,270,0.0,0.0,63,0.00,,,0.00,WUHU216HW,2013-03-03 13:06:00,
2013-03-03 08:07:00,36.6,24.8,29.88,West,270,0.0,0.0,63,0.00,,,0.00,WUHU216HW,2013-03-03 13:07:00,
2013-03-03 08:08:00,36.6,24.8,29.88,West,270,0.0,0.0,64,0.00,,,0.00,WUHU216HW,2013-03-03 13:08:00,
2013-03-03 08:09:00,33.4,21.7,29.64,West,270,0.0,0.0,62,0.00,,,0.00,WUHU216HW,2013-03-03 13:09:00,
2013-03-03 08:10:00,36.6,24.8,29.88,West,270,0.0,0.0,64,0.00,,,0.00,WUHU216HW,2013-03-03 13:10:00,
2013-03-03 08:11:00,36.6,24.8,29.88,West,270,0.0,0.0,64,0.00,,,0.00,WUHU216HW,2013-03-03 13:11:00,
2013-03-03 08:12:00,36.6,24.8,29.88,West,270,0.0,0.0,63,0.00,,,0.00,WUHU216HW,2013-03-03 13:12:00,
2013-03-03 08:13:00,36.6,24.8,29.88,West,270,0.0,0.0,63,0.00,,,0.00,WUHU216HW,2013-03-03 13:13:00,
2013-03-03 08:14:00,33.9,22.2,29.65,West,270,0.0,0.0,62,0.00,,,0.00,WUHU216HW,2013-03-03 13:14:00,
2013-03-03 08:15:00,36.5,25.0,29.88,West,270,0.0,0.0,63,0.00,,,0.00,WUHU216HW,2013-03-03 13:15:00,
2013-03-03 08:16:00,36.5,25.0,29.88,West,270,0.0,0.0,63,0.00,,,0.00,WUHU216HW,2013-03-03 13:16:00,
2013-03-03 08:17:00,36.5,25.0,29.88,West,270,0.0,0.0,63,0.00,,,0.00,WUHU216HW,2013-03-03 13:17:00,
2013-03-03 08:18:00,36.3,24.9,29.88,West,270,0.0,0.0,63,0.00,,,0.00,WUHU216HW,2013-03-03 13:18:00,
2013-03-03 08:19:00,34.5,22.4,29.65,West,270,0.0,0.0,61,0.00,,,0.00,WUHU216HW,2013-03-03 13:19:00,
2013-03-03 08:20:00,36.3,24.9,29.88,West,270,0.0,0.0,63,0.00,,,0.00,WUHU216HW,2013-03-03 13:20:00,
2013-03-03 08:21:00,36.3,24.9,29.88,West,270,0.0,0.0,63,0.00,,,0.00,WUHU216HW,2013-03-03 13:21:00,
2013-03-03 08:22:00,36.3,24.9,29.88,West,270,0.0,0.0,63,0.00,,,0.00,WUHU216HW,2013-03-03 13:22:00,
2013-03-03 08:23:00,36.3,24.9,29.88,West,270,0.0,0.0,63,0.00,,,0.00,WUHU216HW,2013-03-03 13:23:00,
2013-03-03 08:24:00,34.7,22.2,29.65,West,270,0.0,0.0,60,0.00,,,0.00,WUHU216HW,2013-03-03 13:24:00,
2013-03-03 08:25:00,36.3,24.9,29.88,West,270,0.0,0.0,62,0.00,,,0.00,WUHU216HW,2013-03-03 13:25:00,
2013-03-03 08:26:00,36.3,24.9,29.88,West,270,0.0,0.0,62,0.00,,,0.00,WUHU216HW,2013-03-03 13:26:00,
2013-03-03 08:27:00,36.1,24.3,29.88,West,270,0.0,0.0,62,0.00,,,0.00,WUHU216HW,2013-03-03 13:27:00,
2013-03-03 08:28:00,36.1,24.3,29.88,West,270,0.0,0.0,62,0.00,,,0.00,WUHU216HW,2013-03-03 13:28:00,
2013-03-03 08:29:00,35.2,22.8,29.65,West,270,0.0,0.0,60,0.00,,,0.00,WUHU216HW,2013-03-03 13:29:00,
2013-03-03 08:30:00,36.1,24.3,29.88,West,270,0.0,0.0,62,0.00,,,0.00,WUHU216HW,2013-03-03 13:30:00,
2013-03-03 08:31:00,36.1,24.3,29.88,West,270,0.0,0.0,62,0.00,,,0.00,WUHU216HW,2013-03-03 13:31:00,
2013-03-03 08:32:00,36.1,24.3,29.88,West,270,0.0,0.0,62,0.00,,,0.00,WUHU216HW,2013-03-03 13:32:00,
2013-03-03 08:33:00,36.1,24.3,29.88,West,270,0.0,0.0,62,0.00,,,0.00,WUHU216HW,2013-03-03 13:33:00,
2013-03-03 08:34:00,35.4,22.5,29.65,West,270,0.0,0.0,59,0.00,,,0.00,WUHU216HW,2013-03-03 13:34:00,
2013-03-03 08:35:00,36.1,24.3,29.88,West,270,0.0,0.0,63,0.00,,,0.00,WUHU216HW,2013-03-03 13:35:00,
2013-03-03 08:36:00,36.1,24.3,29.88,West,270,0.0,0.0,63,0.00,,,0.00,WUHU216HW,2013-03-03 13:36:00,
2013-03-03 08:37:00,36.1,24.3,29.88,West,270,0.0,0.0,63,0.00,,,0.00,WUHU216HW,2013-03-03 13:37:00,
2013-03-03 08:38:00,35.9,24.5,29.88,West,270,0.0,0.0,63,0.00,,,0.00,WUHU216HW,2013-03-03 13:38:00,
2013-03-03 08:39:00,35.9,21.7,29.65,West,270,0.0,0.0,57,0.00,,,0.00,WUHU216HW,2013-03-03 13:39:00,
2013-03-03 08:40:00,35.9,24.5,29.88,West,270,0.0,0.0,62,0.00,,,0.00,WUHU216HW,2013-03-03 13:40:00,
2013-03-03 08:41:00,35.9,24.5,29.88,West,270,0.0,0.0,62,0.00,,,0.00,WUHU216HW,2013-03-03 13:41:00,
2013-03-03 08:42:00,35.9,24.5,29.88,West,270,0.0,0.0,62,0.00,,,0.00,WUHU216HW,2013-03-03 13:42:00,
2013-03-03 08:43:00,35.9,24.5,29.88,West,270,0.0,0.0,62,0.00,,,0.00,WUHU216HW,2013-03-03 13:43:00,
2013-03-03 08:44:00,36.3,22.1,29.64,WNW,293,2.0,2.0,56,0.00,,,0.00,WUHU216HW,2013-03-03 13:44:00,
2013-03-03 08:45:00,35.9,24.5,29.88,West,270,0.0,0.0,62,0.00,,,0.00,WUHU216HW,2013-03-03 13:45:00,
2013-03-03 08:46:00,35.7,24.4,29.88,West,270,0.0,0.0,63,0.00,,,0.00,WUHU216HW,2013-03-03 13:46:00,
2013-03-03 08:47:00,35.7,24.4,29.88,West,270,0.0,0.0,63,0.00,,,0.00,WUHU216HW,2013-03-03 13:47:00,
2013-03-03 08:48:00,35.7,24.4,29.88,West,270,0.0,0.0,63,0.00,,,0.00,WUHU216HW,2013-03-03 13:48:00,
2013-03-03 08:49:00,36.6,22.8,29.65,West,270,0.0,2.0,57,0.00,,,0.00,WUHU216HW,2013-03-03 13:49:00,
2013-03-03 08:50:00,35.7,24.4,29.88,West,270,0.0,0.0,63,0.00,,,0.00,WUHU216HW,2013-03-03 13:50:00,
2013-03-03 08:51:00,35.7,24.4,29.88,West,270,0.0,0.0,63,0.00,,,0.00,WUHU216HW,2013-03-03 13:51:00,
2013-03-03 08:52:00,35.7,24.4,29.88,West,270,0.0,0.0,63,0.00,,,0.00,WUHU216HW,2013-03-03 13:52:00,
2013-03-03 08:53:00,35.7,24.4,29.88,West,270,0.0,0.0,63,0.00,,,0.00,WUHU216HW,2013-03-03 13:53:00,
2013-03-03 08:54:00,35.7,24.4,29.88,West,270,0.0,0.0,63,0.00,,,0.00,WUHU216HW,2013-03-03 13:54:00,
2013-03-03 08:55:00,37.0,22.3,29.65,West,270,0.0,2.0,55,0.00,,,0.00,WUHU216HW,2013-03-03 13:55:00,
2013-03-03 08:56:00,35.7,24.4,29.88,West,270,0.0,0.0,63,0.00,,,0.00,WUHU216HW,2013-03-03 13:56:00,
2013-03-03 08:57:00,35.7,24.4,29.88,West,270,0.0,0.0,62,0.00,,,0.00,WUHU216HW,2013-03-03 13:57:00,
2013-03-03 08:58:00,35.7,24.4,29.88,West,270,0.0,0.0,62,0.00,,,0.00,WUHU216HW,2013-03-03 13:58:00,
2013-03-03 08:59:00,35.7,24.4,29.88,West,270,0.0,0.0,62,0.00,,,0.00,WUHU216HW,2013-03-03 13:59:00,
2013-03-03 09:00:00,37.2,22.4,29.65,WNW,293,0.0,3.5,54,0.00,,,0.00,WUHU216HW,2013-03-03 14:00:00,
2013-03-03 09:01:00,35.7,24.4,29.88,West,270,0.0,0.0,62,0.00,,,0.00,WUHU216HW,2013-03-03 14:01:00,
2013-03-03 09:02:00,35.7,24.4,29.88,West,270,0.0,0.0,62,0.00,,,0.00,WUHU216HW,2013-03-03 14:02:00,
2013-03-03 09:03:00,35.7,24.4,29.88,West,270,0.0,0.0,62,0.00,,,0.00,WUHU216HW,2013-03-03 14:03:00,
2013-03-03 09:04:00,35.9,24.2,29.88,West,270,0.0,0.0,62,0.00,,,0.00,WUHU216HW,2013-03-03 14:04:00,
2013-03-03 09:05:00,37.2,22.4,29.65,West,270,0.6,3.5,54,0.00,,,0.00,WUHU216HW,2013-03-03 14:05:00,
2013-03-03 09:06:00,35.7,24.0,29.89,West,270,0.0,0.0,62,0.00,,,0.00,WUHU216HW,2013-03-03 14:06:00,
2013-03-03 09:07:00,35.7,24.0,29.88,West,270,0.0,0.0,62,0.00,,,0.00,WUHU216HW,2013-03-03 14:07:00,
2013-03-03 09:08:00,35.7,24.0,29.88,West,270,0.0,0.0,61,0.00,,,0.00,WUHU216HW,2013-03-03 14:08:00,
2013-03-03 09:09:00,35.7,24.0,29.88,West,270,0.0,0.0,61,0.00,,,0.00,WUHU216HW,2013-03-03 14:09:00,
2013-03-03 09:10:00,37.4,22.2,29.65,West,270,0.0,0.6,54,0.00,,,0.00,WUHU216HW,2013-03-03 14:10:00,
2013-03-03 09:12:00,35.7,24.0,29.88,West,270,0.0,0.0,61,0.00,,,0.00,WUHU216HW,2013-03-03 14:12:00,
2013-03-03 09:13:00,35.7,24.0,29.88,West,270,0.0,0.0,61,0.00,,,0.00,WUHU216HW,2013-03-03 14:13:00,
2013-03-03 09:14:00,35.7,24.0,29.88,West,270,0.0,0.0,61,0.00,,,0.00,WUHU216HW,2013-03-03 14:14:00,
2013-03-03 09:15:00,37.5,22.3,29.64,WSW,248,0.0,0.6,53,0.00,,,0.00,WUHU216HW,2013-03-03 14:15:00,
2013-03-03 09:16:00,35.7,24.0,29.88,West,270,0.0,0.0,61,0.00,,,0.00,WUHU216HW,2013-03-03 14:16:00,
2013-03-03 09:17:00,35.7,24.0,29.88,West,270,0.0,0.0,61,0.00,,,0.00,WUHU216HW,2013-03-03 14:17:00,
2013-03-03 09:18:00,35.7,24.0,29.88,West,270,0.0,0.0,61,0.00,,,0.00,WUHU216HW,2013-03-03 14:18:00,
2013-03-03 09:19:00,35.7,24.0,29.88,West,270,0.0,0.0,61,0.00,,,0.00,WUHU216HW,2013-03-03 14:19:00,
2013-03-03 09:20:00,37.9,22.2,29.64,NNW,338,0.0,0.0,53,0.00,,,0.00,WUHU216HW,2013-03-03 14:20:00,
2013-03-03 09:21:00,35.7,24.0,29.88,West,270,0.0,0.0,61,0.00,,,0.00,WUHU216HW,2013-03-03 14:21:00,
2013-03-03 09:24:00,35.7,24.0,29.88,West,270,0.0,0.0,61,0.00,,,0.00,WUHU216HW,2013-03-03 14:24:00,
2013-03-03 09:25:00,38.4,22.7,29.64,West,270,0.0,0.0,53,0.00,,,0.00,WUHU216HW,2013-03-03 14:25:00,
2013-03-03 09:26:00,35.7,24.0,29.88,West,270,0.0,0.0,61,0.00,,,0.00,WUHU216HW,2013-03-03 14:26:00,
2013-03-03 09:27:00,35.7,24.0,29.88,West,270,0.0,0.0,61,0.00,,,0.00,WUHU216HW,2013-03-03 14:27:00,
2013-03-03 09:28:00,35.7,24.0,29.88,West,270,0.0,0.0,61,0.00,,,0.00,WUHU216HW,2013-03-03 14:28:00,
2013-03-03 09:29:00,35.7,24.0,29.88,West,270,0.0,0.0,61,0.00,,,0.00,WUHU216HW,2013-03-03 14:29:00,
2013-03-03 09:30:00,38.8,23.0,29.64,West,270,0.0,0.0,53,0.00,,,0.00,WUHU216HW,2013-03-03 14:30:00,
2013-03-03 09:31:00,35.7,24.0,29.88,West,270,0.0,0.0,61,0.00,,,0.00,WUHU216HW,2013-03-03 14:31:00,
2013-03-03 09:33:00,35.7,24.0,29.88,West,270,0.0,0.0,61,0.00,,,0.00,WUHU216HW,2013-03-03 14:33:00,
2013-03-03 09:34:00,35.7,24.0,29.88,West,270,0.0,0.0,61,0.00,,,0.00,WUHU216HW,2013-03-03 14:34:00,
2013-03-03 09:35:00,38.4,22.3,29.64,West,270,0.0,0.0,52,0.00,,,0.00,WUHU216HW,2013-03-03 14:35:00,
2013-03-03 09:36:00,35.7,24.0,29.88,West,270,0.0,0.0,60,0.00,,,0.00,WUHU216HW,2013-03-03 14:36:00,
2013-03-03 09:37:00,35.7,24.0,29.88,West,270,0.0,0.0,60,0.00,,,0.00,WUHU216HW,2013-03-03 14:37:00,
2013-03-03 09:38:00,35.7,24.0,29.88,West,270,0.0,0.0,60,0.00,,,0.00,WUHU216HW,2013-03-03 14:38:00,
2013-03-03 09:39:00,35.7,24.0,29.88,West,270,0.0,0.0,60,0.00,,,0.00,WUHU216HW,2013-03-03 14:39:00,
2013-03-03 09:40:00,39.0,22.8,29.64,SE,135,0.0,0.0,52,0.00,,,0.00,WUHU216HW,2013-03-03 14:40:00,
2013-03-03 09:41:00,35.7,24.0,29.88,West,270,0.0,0.0,60,0.00,,,0.00,WUHU216HW,2013-03-03 14:41:00,
2013-03-03 09:42:00,35.7,24.0,29.88,West,270,0.0,0.0,60,0.00,,,0.00,WUHU216HW,2013-03-03 14:42:00,
2013-03-03 09:43:00,35.7,24.0,29.88,West,270,0.0,0.0,60,0.00,,,0.00,WUHU216HW,2013-03-03 14:43:00,
2013-03-03 09:44:00,35.7,24.0,29.88,West,270,0.0,0.0,60,0.00,,,0.00,WUHU216HW,2013-03-03 14:44:00,
2013-03-03 09:45:00,39.3,23.1,29.64,West,270,0.0,0.0,52,0.00,,,0.00,WUHU216HW,2013-03-03 14:45:00,
2013-03-03 09:46:00,35.7,24.0,29.88,West,270,0.0,0.0,60,0.00,,,0.00,WUHU216HW,2013-03-03 14:46:00,
2013-03-03 09:47:00,35.7,24.0,29.88,West,270,0.0,0.0,60,0.00,,,0.00,WUHU216HW,2013-03-03 14:47:00,
2013-03-03 09:48:00,35.7,24.0,29.88,West,270,0.0,0.0,60,0.00,,,0.00,WUHU216HW,2013-03-03 14:48:00,
2013-03-03 09:49:00,35.7,24.0,29.88,West,270,0.0,0.0,60,0.00,,,0.00,WUHU216HW,2013-03-03 14:49:00,
2013-03-03 09:50:00,39.9,23.1,29.64,West,270,0.0,0.0,51,0.00,,,0.00,WUHU216HW,2013-03-03 14:50:00,
2013-03-03 09:51:00,35.7,24.0,29.88,West,270,0.0,0.0,59,0.00,,,0.00,WUHU216HW,2013-03-03 14:51:00,
2013-03-03 09:52:00,35.7,24.0,29.88,West,270,0.0,0.0,59,0.00,,,0.00,WUHU216HW,2013-03-03 14:52:00,
2013-03-03 09:53:00,35.7,24.0,29.88,West,270,0.0,0.0,59,0.00,,,0.00,WUHU216HW,2013-03-03 14:53:00,
2013-03-03 09:54:00,35.7,24.0,29.88,West,270,0.0,0.0,59,0.00,,,0.00,WUHU216HW,2013-03-03 14:54:00,
2013-03-03 09:55:00,39.5,22.4,29.64,WNW,293,0.0,0.0,51,0.00,,,0.00,WUHU216HW,2013-03-03 14:55:00,
2013-03-03 09:56:00,35.7,24.0,29.88,West,270,0.0,0.0,59,0.00,,,0.00,WUHU216HW,2013-03-03 14:56:00,
2013-03-03 09:57:00,35.7,24.0,29.88,West,270,0.0,0.0,59,0.00,,,0.00,WUHU216HW,2013-03-03 14:57:00,
2013-03-03 09:58:00,35.7,24.0,29.88,West,270,0.0,0.0,59,0.00,,,0.00,WUHU216HW,2013-03-03 14:58:00,
2013-03-03 09:59:00,35.7,24.0,29.88,West,270,0.0,0.0,59,0.00,,,0.00,WUHU216HW,2013-03-03 14:59:00,
2013-03-03 10:00:00,40.1,23.7,29.64,WNW,293,0.0,0.0,52,0.00,,,0.00,WUHU216HW,2013-03-03 15:00:00,
2013-03-03 10:01:00,35.7,24.0,29.88,West,270,0.0,0.0,59,0.00,,,0.00,WUHU216HW,2013-03-03 15:01:00,
2013-03-03 10:02:00,35.6,22.7,29.88,West,270,0.0,0.0,59,0.00,,,0.00,WUHU216HW,2013-03-03 15:02:00,
2013-03-03 10:03:00,35.6,22.7,29.88,West,270,0.0,0.0,59,0.00,,,0.00,WUHU216HW,2013-03-03 15:03:00,
2013-03-03 10:04:00,35.6,22.7,29.88,West,270,0.0,0.0,59,0.00,,,0.00,WUHU216HW,2013-03-03 15:04:00,
2013-03-03 10:05:00,40.6,23.3,29.63,WNW,293,0.0,0.0,50,0.00,,,0.00,WUHU216HW,2013-03-03 15:05:00,
2013-03-03 10:06:00,35.6,22.7,29.88,West,270,0.0,0.0,59,0.00,,,0.00,WUHU216HW,2013-03-03 15:06:00,
2013-03-03 10:07:00,35.6,22.7,29.87,West,270,0.0,0.0,59,0.00,,,0.00,WUHU216HW,2013-03-03 15:07:00,
2013-03-03 10:08:00,35.6,22.7,29.88,West,270,0.0,0.0,59,0.00,,,0.00,WUHU216HW,2013-03-03 15:08:00,
2013-03-03 10:09:00,35.6,22.7,29.88,West,270,0.0,0.0,59,0.00,,,0.00,WUHU216HW,2013-03-03 15:09:00,
2013-03-03 10:10:00,40.8,23.5,29.63,West,270,0.0,0.0,49,0.00,,,0.00,WUHU216HW,2013-03-03 15:10:00,
2013-03-03 10:11:00,35.6,22.7,29.88,West,270,0.0,0.0,59,0.00,,,0.00,WUHU216HW,2013-03-03 15:11:00,
2013-03-03 10:12:00,35.6,22.7,29.88,West,270,0.0,0.0,59,0.00,,,0.00,WUHU216HW,2013-03-03 15:12:00,
2013-03-03 10:13:00,35.4,22.5,29.88,West,270,0.0,0.0,59,0.00,,,0.00,WUHU216HW,2013-03-03 15:13:00,
2013-03-03 10:14:00,35.4,22.5,29.88,West,270,0.0,0.0,60,0.00,,,0.00,WUHU216HW,2013-03-03 15:14:00,
2013-03-03 10:15:00,40.8,23.5,29.64,West,270,0.0,0.0,50,0.00,,,0.00,WUHU216HW,2013-03-03 15:15:00,
2013-03-03 10:16:00,35.4,22.5,29.88,West,270,0.0,0.0,60,0.00,,,0.00,WUHU216HW,2013-03-03 15:16:00,
2013-03-03 10:17:00,35.4,22.5,29.88,West,270,0.0,0.0,59,0.00,,,0.00,WUHU216HW,2013-03-03 15:17:00,
2013-03-03 10:18:00,35.4,22.5,29.88,West,270,0.0,0.0,60,0.00,,,0.00,WUHU216HW,2013-03-03 15:18:00,
2013-03-03 10:19:00,35.4,22.5,29.88,West,270,0.0,0.0,60,0.00,,,0.00,WUHU216HW,2013-03-03 15:19:00,
2013-03-03 10:20:00,42.0,23.7,29.63,WSW,248,0.0,0.0,48,0.00,,,0.00,WUHU216HW,2013-03-03 15:20:00,
2013-03-03 10:21:00,35.4,22.5,29.88,West,270,0.0,0.0,60,0.00,,,0.00,WUHU216HW,2013-03-03 15:21:00,
2013-03-03 10:22:00,35.4,22.5,29.88,West,270,0.0,0.0,60,0.00,,,0.00,WUHU216HW,2013-03-03 15:22:00,
2013-03-03 10:23:00,35.4,22.5,29.88,West,270,0.0,0.0,60,0.00,,,0.00,WUHU216HW,2013-03-03 15:23:00,
2013-03-03 10:24:00,35.4,22.5,29.88,West,270,0.0,0.0,60,0.00,,,0.00,WUHU216HW,2013-03-03 15:24:00,
2013-03-03 10:25:00,43.1,23.6,29.63,WNW,293,0.0,0.0,46,0.00,,,0.00,WUHU216HW,2013-03-03 15:25:00,
2013-03-03 10:26:00,35.2,22.8,29.88,West,270,0.0,0.0,60,0.00,,,0.00,WUHU216HW,2013-03-03 15:26:00,
2013-03-03 10:27:00,35.2,22.8,29.87,West,270,0.0,0.0,60,0.00,,,0.00,WUHU216HW,2013-03-03 15:27:00,
2013-03-03 10:28:00,35.2,22.8,29.87,West,270,0.0,0.0,60,0.00,,,0.00,WUHU216HW,2013-03-03 15:28:00,
2013-03-03 10:29:00,35.2,22.8,29.87,West,270,0.0,0.0,60,0.00,,,0.00,WUHU216HW,2013-03-03 15:29:00,
2013-03-03 10:30:00,43.3,24.9,29.63,West,270,0.0,0.0,48,0.00,,,0.00,WUHU216HW,2013-03-03 15:30:00,
2013-03-03 10:31:00,35.2,22.8,29.87,West,270,0.0,0.0,60,0.00,,,0.00,WUHU216HW,2013-03-03 15:31:00,
2013-03-03 10:32:00,35.2,22.8,29.87,West,270,0.0,0.0,60,0.00,,,0.00,WUHU216HW,2013-03-03 15:32:00,
2013-03-03 10:33:00,35.2,22.8,29.87,West,270,0.0,0.0,60,0.00,,,0.00,WUHU216HW,2013-03-03 15:33:00,
2013-03-03 10:34:00,35.2,22.8,29.87,West,270,0.0,0.0,60,0.00,,,0.00,WUHU216HW,2013-03-03 15:34:00,
2013-03-03 10:35:00,43.7,25.2,29.63,WNW,293,0.0,0.0,47,0.00,,,0.00,WUHU216HW,2013-03-03 15:35:00,
2013-03-03 10:36:00,35.0,22.6,29.87,West,270,0.0,0.0,60,0.00,,,0.00,WUHU216HW,2013-03-03 15:36:00,
2013-03-03 10:37:00,35.0,22.6,29.87,West,270,0.0,0.0,60,0.00,,,0.00,WUHU216HW,2013-03-03 15:37:00,
2013-03-03 10:38:00,34.8,22.4,29.87,West,270,0.0,0.0,60,0.00,,,0.00,WUHU216HW,2013-03-03 15:38:00,
2013-03-03 10:39:00,34.8,22.4,29.87,West,270,0.0,0.0,60,0.00,,,0.00,WUHU216HW,2013-03-03 15:39:00,
2013-03-03 10:40:00,42.9,24.6,29.63,WNW,293,0.0,0.0,48,0.00,,,0.00,WUHU216HW,2013-03-03 15:40:00,
2013-03-03 10:41:00,34.8,22.4,29.87,West,270,0.0,0.0,60,0.00,,,0.00,WUHU216HW,2013-03-03 15:41:00,
2013-03-03 10:42:00,34.8,22.4,29.87,West,270,0.0,0.0,60,0.00,,,0.00,WUHU216HW,2013-03-03 15:42:00,
2013-03-03 10:43:00,34.8,22.4,29.87,West,270,0.0,0.0,60,0.00,,,0.00,WUHU216HW,2013-03-03 15:43:00,
2013-03-03 10:44:00,34.8,22.4,29.87,West,270,0.0,0.0,60,0.00,,,0.00,WUHU216HW,2013-03-03 15:44:00,
2013-03-03 10:45:00,43.3,24.9,29.63,WNW,293,0.0,0.0,48,0.00,,,0.00,WUHU216HW,2013-03-03 15:45:00,
2013-03-03 10:46:00,34.8,22.4,29.87,West,270,0.0,0.0,61,0.00,,,0.00,WUHU216HW,2013-03-03 15:46:00,
2013-03-03 10:47:00,34.7,23.0,29.87,West,270,0.0,0.0,62,0.00,,,0.00,WUHU216HW,2013-03-03 15:47:00,
2013-03-03 10:49:00,34.5,23.1,29.87,West,270,0.0,0.0,63,0.00,,,0.00,WUHU216HW,2013-03-03 15:49:00,
2013-03-03 10:50:00,43.5,24.5,29.63,NNW,338,0.0,0.0,47,0.00,,,0.00,WUHU216HW,2013-03-03 15:50:00,
2013-03-03 10:51:00,34.5,23.1,29.87,West,270,0.0,0.0,62,0.00,,,0.00,WUHU216HW,2013-03-03 15:51:00,
2013-03-03 10:52:00,34.5,23.1,29.87,West,270,0.0,0.0,62,0.00,,,0.00,WUHU216HW,2013-03-03 15:52:00,
2013-03-03 10:53:00,34.5,23.1,29.87,West,270,0.0,0.0,62,0.00,,,0.00,WUHU216HW,2013-03-03 15:53:00,
2013-03-03 10:54:00,34.5,23.1,29.87,West,270,0.0,0.0,62,0.00,,,0.00,WUHU216HW,2013-03-03 15:54:00,
2013-03-03 10:55:00,43.1,24.2,29.63,WNW,293,0.0,0.0,47,0.00,,,0.00,WUHU216HW,2013-03-03 15:55:00,
2013-03-03 10:56:00,34.5,23.1,29.87,West,270,0.0,0.0,62,0.00,,,0.00,WUHU216HW,2013-03-03 15:56:00,
2013-03-03 10:57:00,34.5,23.1,29.87,West,270,0.0,0.0,63,0.00,,,0.00,WUHU216HW,2013-03-03 15:57:00,
2013-03-03 10:58:00,34.5,23.1,29.87,West,270,0.0,0.0,63,0.00,,,0.00,WUHU216HW,2013-03-03 15:58:00,
2013-03-03 10:59:00,34.5,23.1,29.87,West,270,0.0,0.0,63,0.00,,,0.00,WUHU216HW,2013-03-03 15:59:00,
2013-03-03 11:00:00,44.2,25.1,29.62,West,270,0.0,0.0,47,0.00,,,0.00,WUHU216HW,2013-03-03 16:00:00,
2013-03-03 11:01:00,34.5,23.1,29.87,West,270,0.0,0.0,62,0.00,,,0.00,WUHU216HW,2013-03-03 16:01:00,
2013-03-03 11:02:00,34.5,23.1,29.87,West,270,0.0,0.0,62,0.00,,,0.00,WUHU216HW,2013-03-03 16:02:00,
2013-03-03 11:03:00,34.5,23.1,29.87,West,270,0.0,0.0,62,0.00,,,0.00,WUHU216HW,2013-03-03 16:03:00,
2013-03-03 11:04:00,34.5,23.1,29.87,West,270,0.0,0.0,62,0.00,,,0.00,WUHU216HW,2013-03-03 16:04:00,
2013-03-03 11:05:00,44.2,25.1,29.62,NW,315,0.8,0.8,46,0.00,,,0.00,WUHU216HW,2013-03-03 16:05:00,
2013-03-03 11:06:00,34.5,23.1,29.86,West,270,0.0,0.0,62,0.00,,,0.00,WUHU216HW,2013-03-03 16:06:00,
2013-03-03 11:07:00,34.5,23.1,29.86,West,270,0.0,0.0,62,0.00,,,0.00,WUHU216HW,2013-03-03 16:07:00,
2013-03-03 11:09:00,34.3,22.6,29.86,West,270,0.0,0.0,62,0.00,,,0.00,WUHU216HW,2013-03-03 16:09:00,
2013-03-03 11:10:00,44.2,25.1,29.62,WNW,293,0.0,0.8,46,0.00,,,0.00,WUHU216HW,2013-03-03 16:10:00,
2013-03-03 11:13:00,34.3,22.6,29.86,West,270,0.0,0.0,63,0.00,,,0.00,WUHU216HW,2013-03-03 16:13:00,
2013-03-03 11:14:00,34.3,22.6,29.86,West,270,0.0,0.0,63,0.00,,,0.00,WUHU216HW,2013-03-03 16:14:00,
2013-03-03 11:15:00,44.9,24.7,29.62,WNW,293,0.0,0.0,45,0.00,,,0.00,WUHU216HW,2013-03-03 16:15:00,
2013-03-03 11:17:00,34.3,22.6,29.86,West,270,0.0,0.0,64,0.00,,,0.00,WUHU216HW,2013-03-03 16:17:00,
2013-03-03 11:18:00,34.3,22.6,29.86,West,270,0.0,0.0,64,0.00,,,0.00,WUHU216HW,2013-03-03 16:18:00,
2013-03-03 11:21:00,45.3,24.0,29.62,NNW,338,0.0,0.0,44,0.00,,,0.00,WUHU216HW,2013-03-03 16:21:00,
2013-03-03 11:25:00,33.9,23.7,29.86,West,270,0.0,0.0,66,0.00,,,0.00,WUHU216HW,2013-03-03 16:25:00,
2013-03-03 11:26:00,46.9,25.4,29.62,WNW,293,4.0,4.0,43,0.00,,,0.00,WUHU216HW,2013-03-03 16:26:00,
2013-03-03 11:27:00,33.9,23.7,29.86,West,270,0.0,0.0,66,0.00,,,0.00,WUHU216HW,2013-03-03 16:27:00,
2013-03-03 11:28:00,33.9,23.7,29.86,West,270,0.0,0.0,66,0.00,,,0.00,WUHU216HW,2013-03-03 16:28:00,
2013-03-03 11:29:00,33.9,23.7,29.86,West,270,0.0,0.0,66,0.00,,,0.00,WUHU216HW,2013-03-03 16:29:00,
2013-03-03 11:30:00,33.9,23.7,29.85,West,270,0.0,0.0,65,0.00,,,0.00,WUHU216HW,2013-03-03 16:30:00,
2013-03-03 11:31:00,47.4,25.9,29.62,ENE,68,0.0,4.0,43,0.00,,,0.00,WUHU216HW,2013-03-03 16:31:00,
2013-03-03 11:32:00,33.9,23.7,29.85,West,270,0.0,0.0,65,0.00,,,0.00,WUHU216HW,2013-03-03 16:32:00,
2013-03-03 11:33:00,33.9,23.7,29.85,West,270,0.0,0.0,65,0.00,,,0.00,WUHU216HW,2013-03-03 16:33:00,
2013-03-03 11:34:00,33.9,23.7,29.85,West,270,0.0,0.0,66,0.00,,,0.00,WUHU216HW,2013-03-03 16:34:00,
2013-03-03 11:35:00,33.9,23.7,29.85,West,270,0.0,0.0,66,0.00,,,0.00,WUHU216HW,2013-03-03 16:35:00,
2013-03-03 11:36:00,46.2,24.2,29.62,WNW,293,0.0,4.0,42,0.00,,,0.00,WUHU216HW,2013-03-03 16:36:00,
2013-03-03 11:37:00,33.8,23.5,29.85,West,270,0.0,0.0,66,0.00,,,0.00,WUHU216HW,2013-03-03 16:37:00,
2013-03-03 11:38:00,33.8,23.5,29.85,West,270,0.0,0.0,66,0.00,,,0.00,WUHU216HW,2013-03-03 16:38:00,
2013-03-03 11:39:00,33.6,23.0,29.85,West,270,0.0,0.0,65,0.00,,,0.00,WUHU216HW,2013-03-03 16:39:00,
2013-03-03 11:40:00,33.6,23.0,29.85,West,270,0.0,0.0,65,0.00,,,0.00,WUHU216HW,2013-03-03 16:40:00,
2013-03-03 11:41:00,47.3,25.2,29.61,WSW,248,0.0,1.3,42,0.00,,,0.00,WUHU216HW,2013-03-03 16:41:00,
2013-03-03 11:42:00,33.6,23.0,29.85,West,270,0.0,0.0,65,0.00,,,0.00,WUHU216HW,2013-03-03 16:42:00,
2013-03-03 11:43:00,33.6,23.0,29.85,West,270,0.0,0.0,66,0.00,,,0.00,WUHU216HW,2013-03-03 16:43:00,
2013-03-03 11:44:00,33.6,23.0,29.85,West,270,0.0,0.0,66,0.00,,,0.00,WUHU216HW,2013-03-03 16:44:00,
2013-03-03 11:45:00,33.6,23.0,29.85,West,270,0.0,0.0,66,0.00,,,0.00,WUHU216HW,2013-03-03 16:45:00,
2013-03-03 11:46:00,47.4,24.8,29.62,West,270,5.1,5.1,41,0.00,,,0.00,WUHU216HW,2013-03-03 16:46:00,
2013-03-03 11:47:00,33.6,23.0,29.85,West,270,0.0,0.0,66,0.00,,,0.00,WUHU216HW,2013-03-03 16:47:00,
2013-03-03 11:48:00,33.6,23.0,29.85,West,270,0.0,0.0,66,0.00,,,0.00,WUHU216HW,2013-03-03 16:48:00,
2013-03-03 11:49:00,33.6,23.0,29.85,West,270,0.0,0.0,66,0.00,,,0.00,WUHU216HW,2013-03-03 16:49:00,
2013-03-03 11:50:00,33.6,23.0,29.85,West,270,0.0,0.0,66,0.00,,,0.00,WUHU216HW,2013-03-03 16:50:00,
2013-03-03 11:51:00,48.5,25.8,29.62,WNW,293,0.0,5.1,41,0.00,,,0.00,WUHU216HW,2013-03-03 16:51:00,
2013-03-03 11:52:00,33.4,23.2,29.85,West,270,0.0,0.0,66,0.00,,,0.00,WUHU216HW,2013-03-03 16:52:00,
2013-03-03 11:53:00,33.4,23.2,29.85,West,270,0.0,0.0,66,0.00,,,0.00,WUHU216HW,2013-03-03 16:53:00,
2013-03-03 11:54:00,33.4,23.2,29.85,West,270,0.0,0.0,66,0.00,,,0.00,WUHU216HW,2013-03-03 16:54:00,
2013-03-03 11:55:00,33.4,23.2,29.85,West,270,0.0,0.0,66,0.00,,,0.00,WUHU216HW,2013-03-03 16:55:00,
2013-03-03 11:56:00,48.3,25.1,29.61,WNW,293,0.0,5.1,40,0.00,,,0.00,WUHU216HW,2013-03-03 16:56:00,
2013-03-03 11:57:00,33.4,23.2,29.85,West,270,0.0,0.0,66,0.00,,,0.00,WUHU216HW,2013-03-03 16:57:00,
2013-03-03 11:58:00,33.4,23.2,29.85,West,270,0.0,0.0,66,0.00,,,0.00,WUHU216HW,2013-03-03 16:58:00,
2013-03-03 11:59:00,33.4,23.2,29.85,West,270,0.0,0.0,66,0.00,,,0.00,WUHU216HW,2013-03-03 16:59:00,
2013-03-03 12:00:00,33.4,23.2,29.85,West,270,0.0,0.0,66,0.00,,,0.00,WUHU216HW,2013-03-03 17:00:00,
2013-03-03 12:01:00,48.5,24.6,29.61,WNW,293,0.0,0.0,39,0.00,,,0.00,WUHU216HW,2013-03-03 17:01:00,
2013-03-03 12:02:00,33.0,22.8,29.85,West,270,0.0,0.0,66,0.00,,,0.00,WUHU216HW,2013-03-03 17:02:00,
2013-03-03 12:03:00,33.0,22.8,29.85,West,270,0.0,0.0,66,0.00,,,0.00,WUHU216HW,2013-03-03 17:03:00,
2013-03-03 12:04:00,33.0,22.8,29.85,West,270,0.0,0.0,66,0.00,,,0.00,WUHU216HW,2013-03-03 17:04:00,
2013-03-03 12:05:00,33.0,22.8,29.85,West,270,0.0,0.0,66,0.00,,,0.00,WUHU216HW,2013-03-03 17:05:00,
2013-03-03 12:06:00,48.2,26.6,29.61,WSW,248,0.0,3.8,43,0.00,,,0.00,WUHU216HW,2013-03-03 17:06:00,
2013-03-03 12:07:00,33.0,22.8,29.85,West,270,0.0,0.0,67,0.00,,,0.00,WUHU216HW,2013-03-03 17:07:00,
2013-03-03 12:08:00,33.0,22.8,29.85,West,270,0.0,0.0,67,0.00,,,0.00,WUHU216HW,2013-03-03 17:08:00,
2013-03-03 12:09:00,33.0,22.8,29.85,West,270,0.0,0.0,67,0.00,,,0.00,WUHU216HW,2013-03-03 17:09:00,
2013-03-03 12:10:00,33.0,22.8,29.85,West,270,0.0,0.0,67,0.00,,,0.00,WUHU216HW,2013-03-03 17:10:00,
2013-03-03 12:11:00,48.9,27.2,29.61,NW,315,0.0,3.8,41,0.00,,,0.00,WUHU216HW,2013-03-03 17:11:00,
2013-03-03 12:12:00,33.0,22.8,29.86,West,270,0.0,0.0,67,0.00,,,0.00,WUHU216HW,2013-03-03 17:12:00,
2013-03-03 12:13:00,32.9,23.0,29.86,West,270,0.0,0.0,67,0.00,,,0.00,WUHU216HW,2013-03-03 17:13:00,
2013-03-03 12:14:00,32.9,23.0,29.86,West,270,0.0,0.0,67,0.00,,,0.00,WUHU216HW,2013-03-03 17:14:00,
2013-03-03 12:15:00,32.9,23.0,29.86,West,270,0.0,0.0,67,0.00,,,0.00,WUHU216HW,2013-03-03 17:15:00,
2013-03-03 12:16:00,32.9,23.0,29.86,West,270,0.0,0.0,67,0.00,,,0.00,WUHU216HW,2013-03-03 17:16:00,
2013-03-03 12:17:00,47.8,24.6,29.61,WSW,248,1.7,4.4,40,0.00,,,0.00,WUHU216HW,2013-03-03 17:17:00,
2013-03-03 12:18:00,32.7,22.9,29.86,West,270,0.0,0.0,67,0.00,,,0.00,WUHU216HW,2013-03-03 17:18:00,
2013-03-03 12:19:00,32.7,22.9,29.86,West,270,0.0,0.0,67,0.00,,,0.00,WUHU216HW,2013-03-03 17:19:00,
2013-03-03 12:20:00,32.7,22.9,29.86,West,270,0.0,0.0,67,0.00,,,0.00,WUHU216HW,2013-03-03 17:20:00,
2013-03-03 12:21:00,32.7,22.9,29.86,West,270,0.0,0.0,67,0.00,,,0.00,WUHU216HW,2013-03-03 17:21:00,
2013-03-03 12:22:00,47.3,24.7,29.61,ENE,68,0.0,4.4,41,0.00,,,0.00,WUHU216HW,2013-03-03 17:22:00,
2013-03-03 12:23:00,32.7,22.9,29.86,West,270,0.0,0.0,68,0.00,,,0.00,WUHU216HW,2013-03-03 17:23:00,
2013-03-03 12:24:00,32.7,22.9,29.86,West,270,0.0,0.0,68,0.00,,,0.00,WUHU216HW,2013-03-03 17:24:00,
2013-03-03 12:25:00,32.7,22.9,29.86,West,270,0.0,0.0,68,0.00,,,0.00,WUHU216HW,2013-03-03 17:25:00,
2013-03-03 12:26:00,32.7,22.9,29.86,West,270,0.0,0.0,68,0.00,,,0.00,WUHU216HW,2013-03-03 17:26:00,
2013-03-03 12:27:00,46.9,24.3,29.61,NW,315,4.6,4.6,41,0.00,,,0.00,WUHU216HW,2013-03-03 17:27:00,
2013-03-03 12:28:00,32.7,22.9,29.86,West,270,0.0,0.0,68,0.00,,,0.00,WUHU216HW,2013-03-03 17:28:00,
2013-03-03 12:29:00,32.7,22.9,29.86,West,270,0.0,0.0,68,0.00,,,0.00,WUHU216HW,2013-03-03 17:29:00,
2013-03-03 12:30:00,32.7,22.9,29.86,West,270,0.0,0.0,68,0.00,,,0.00,WUHU216HW,2013-03-03 17:30:00,
2013-03-03 12:31:00,32.7,22.9,29.86,West,270,0.0,0.0,68,0.00,,,0.00,WUHU216HW,2013-03-03 17:31:00,
2013-03-03 12:32:00,47.8,25.7,29.61,West,270,0.0,4.6,42,0.00,,,0.00,WUHU216HW,2013-03-03 17:32:00,
2013-03-03 12:33:00,32.7,22.9,29.86,West,270,0.0,0.0,68,0.00,,,0.00,WUHU216HW,2013-03-03 17:33:00,
2013-03-03 12:34:00,32.7,22.9,29.86,West,270,0.0,0.0,68,0.00,,,0.00,WUHU216HW,2013-03-03 17:34:00,
2013-03-03 12:35:00,32.5,23.4,29.86,West,270,0.0,0.0,69,0.00,,,0.00,WUHU216HW,2013-03-03 17:35:00,
2013-03-03 12:36:00,32.5,23.4,29.86,West,270,0.0,0.0,69,0.00,,,0.00,WUHU216HW,2013-03-03 17:36:00,
2013-03-03 12:37:00,48.0,26.4,29.60,West,270,0.0,4.6,42,0.00,,,0.00,WUHU216HW,2013-03-03 17:37:00,
2013-03-03 12:38:00,32.5,23.4,29.86,West,270,0.0,0.0,68,0.00,,,0.00,WUHU216HW,2013-03-03 17:38:00,
2013-03-03 12:39:00,32.5,23.4,29.86,West,270,0.0,0.0,68,0.00,,,0.00,WUHU216HW,2013-03-03 17:39:00,
2013-03-03 12:40:00,32.5,23.4,29.86,West,270,0.0,0.0,68,0.00,,,0.00,WUHU216HW,2013-03-03 17:40:00,
2013-03-03 12:41:00,32.5,23.4,29.86,West,270,0.0,0.0,68,0.00,,,0.00,WUHU216HW,2013-03-03 17:41:00,
2013-03-03 12:42:00,48.3,26.7,29.59,WSW,248,0.0,0.0,43,0.00,,,0.00,WUHU216HW,2013-03-03 17:42:00,
2013-03-03 12:43:00,32.5,23.4,29.86,West,270,0.0,0.0,69,0.00,,,0.00,WUHU216HW,2013-03-03 17:43:00,
2013-03-03 12:44:00,32.5,23.4,29.86,West,270,0.0,0.0,69,0.00,,,0.00,WUHU216HW,2013-03-03 17:44:00,
2013-03-03 12:45:00,32.5,23.4,29.86,West,270,0.0,0.0,69,0.00,,,0.00,WUHU216HW,2013-03-03 17:45:00,
2013-03-03 12:46:00,32.5,23.4,29.86,West,270,0.0,0.0,69,0.00,,,0.00,WUHU216HW,2013-03-03 17:46:00,
2013-03-03 12:47:00,49.1,27.4,29.59,WNW,293,0.0,0.0,43,0.00,,,0.00,WUHU216HW,2013-03-03 17:47:00,
2013-03-03 12:48:00,32.5,23.4,29.87,West,270,0.0,0.0,69,0.00,,,0.00,WUHU216HW,2013-03-03 17:48:00,
2013-03-03 12:49:00,32.5,23.4,29.87,West,270,0.0,0.0,69,0.00,,,0.00,WUHU216HW,2013-03-03 17:49:00,
2013-03-03 12:50:00,32.5,23.4,29.87,West,270,0.0,0.0,69,0.00,,,0.00,WUHU216HW,2013-03-03 17:50:00,
2013-03-03 12:52:00,48.9,25.6,29.59,WNW,293,4.6,6.0,40,0.00,,,0.00,WUHU216HW,2013-03-03 17:52:00,
2013-03-03 12:53:00,32.3,23.3,29.87,West,270,0.0,0.0,69,0.00,,,0.00,WUHU216HW,2013-03-03 17:53:00,
2013-03-03 12:54:00,32.3,23.3,29.87,West,270,0.0,0.0,69,0.00,,,0.00,WUHU216HW,2013-03-03 17:54:00,
2013-03-03 12:55:00,32.3,23.3,29.86,West,270,0.0,0.0,69,0.00,,,0.00,WUHU216HW,2013-03-03 17:55:00,
2013-03-03 12:56:00,32.3,23.3,29.87,West,270,0.0,0.0,70,0.00,,,0.00,WUHU216HW,2013-03-03 17:56:00,
2013-03-03 12:57:00,48.7,25.4,29.59,West,270,0.0,6.0,41,0.00,,,0.00,WUHU216HW,2013-03-03 17:57:00,
2013-03-03 12:59:00,32.3,23.3,29.86,West,270,0.0,0.0,70,0.00,,,0.00,WUHU216HW,2013-03-03 17:59:00,
2013-03-03 13:00:00,32.1,23.5,29.87,West,270,0.0,0.0,70,0.00,,,0.00,WUHU216HW,2013-03-03 18:00:00,
2013-03-03 13:01:00,32.1,23.5,29.87,West,270,0.0,0.0,70,0.00,,,0.00,WUHU216HW,2013-03-03 18:01:00,
2013-03-03 13:02:00,50.1,28.4,29.58,West,270,0.0,1.5,43,0.00,,,0.00,WUHU216HW,2013-03-03 18:02:00,
2013-03-03 13:03:00,32.1,23.5,29.87,West,270,0.0,0.0,70,0.00,,,0.00,WUHU216HW,2013-03-03 18:03:00,
2013-03-03 13:04:00,32.1,23.5,29.87,West,270,0.0,0.0,70,0.00,,,0.00,WUHU216HW,2013-03-03 18:04:00,
2013-03-03 13:05:00,32.1,23.5,29.87,West,270,0.0,0.0,70,0.00,,,0.00,WUHU216HW,2013-03-03 18:05:00,
2013-03-03 13:06:00,32.1,23.5,29.87,West,270,0.0,0.0,70,0.00,,,0.00,WUHU216HW,2013-03-03 18:06:00,
2013-03-03 13:07:00,50.1,25.3,29.58,West,270,0.0,0.0,38,0.00,,,0.00,WUHU216HW,2013-03-03 18:07:00,
2013-03-03 13:08:00,32.1,23.5,29.87,West,270,0.0,0.0,69,0.00,,,0.00,WUHU216HW,2013-03-03 18:08:00,
2013-03-03 13:09:00,32.0,23.0,29.87,West,270,0.0,0.0,69,0.00,,,0.00,WUHU216HW,2013-03-03 18:09:00,
2013-03-03 13:10:00,32.0,23.0,29.87,West,270,0.0,0.0,69,0.00,,,0.00,WUHU216HW,2013-03-03 18:10:00,
2013-03-03 13:11:00,31.8,22.8,29.87,West,270,0.0,0.0,69,0.00,,,0.00,WUHU216HW,2013-03-03 18:11:00,
2013-03-03 13:12:00,50.1,27.3,29.58,WNW,293,0.0,4.0,41,0.00,,,0.00,WUHU216HW,2013-03-03 18:12:00,
2013-03-03 13:13:00,31.8,22.8,29.88,West,270,0.0,0.0,69,0.00,,,0.00,WUHU216HW,2013-03-03 18:13:00,
2013-03-03 13:14:00,31.8,22.8,29.88,West,270,0.0,0.0,69,0.00,,,0.00,WUHU216HW,2013-03-03 18:14:00,
2013-03-03 13:15:00,31.8,22.8,29.88,West,270,0.0,0.0,69,0.00,,,0.00,WUHU216HW,2013-03-03 18:15:00,
2013-03-03 13:16:00,31.8,22.8,29.88,West,270,0.0,0.0,69,0.00,,,0.00,WUHU216HW,2013-03-03 18:16:00,
2013-03-03 13:17:00,51.4,28.4,29.58,NNE,23,0.0,4.0,41,0.00,,,0.00,WUHU216HW,2013-03-03 18:17:00,
2013-03-03 13:18:00,31.8,22.8,29.88,West,270,0.0,0.0,69,0.00,,,0.00,WUHU216HW,2013-03-03 18:18:00,
2013-03-03 13:19:00,31.8,22.8,29.88,West,270,0.0,0.0,69,0.00,,,0.00,WUHU216HW,2013-03-03 18:19:00,
2013-03-03 13:20:00,31.8,22.8,29.88,West,270,0.0,0.0,69,0.00,,,0.00,WUHU216HW,2013-03-03 18:20:00,
2013-03-03 13:21:00,31.8,22.8,29.88,West,270,0.0,0.0,69,0.00,,,0.00,WUHU216HW,2013-03-03 18:21:00,
2013-03-03 13:22:00,50.5,25.7,29.58,WNW,293,0.0,0.0,38,0.00,,,0.00,WUHU216HW,2013-03-03 18:22:00,
2013-03-03 13:23:00,31.8,22.8,29.88,West,270,0.0,0.0,70,0.00,,,0.00,WUHU216HW,2013-03-03 18:23:00,
2013-03-03 13:24:00,31.8,22.8,29.88,West,270,0.0,0.0,69,0.00,,,0.00,WUHU216HW,2013-03-03 18:24:00,
2013-03-03 13:25:00,31.8,22.8,29.88,West,270,0.0,0.0,69,0.00,,,0.00,WUHU216HW,2013-03-03 18:25:00,
2013-03-03 13:26:00,31.6,22.6,29.88,West,270,0.0,0.0,69,0.00,,,0.00,WUHU216HW,2013-03-03 18:26:00,
2013-03-03 13:27:00,51.0,28.1,29.57,West,270,0.0,0.0,38,0.00,,,0.00,WUHU216HW,2013-03-03 18:27:00,
2013-03-03 13:28:00,31.6,22.6,29.87,West,270,0.0,0.0,69,0.00,,,0.00,WUHU216HW,2013-03-03 18:28:00,
2013-03-03 13:29:00,31.6,22.6,29.87,West,270,0.0,0.0,70,0.00,,,0.00,WUHU216HW,2013-03-03 18:29:00,
2013-03-03 13:30:00,31.6,22.6,29.87,West,270,0.0,0.0,70,0.00,,,0.00,WUHU216HW,2013-03-03 18:30:00,
2013-03-03 13:31:00,31.6,22.6,29.87,West,270,0.0,0.0,70,0.00,,,0.00,WUHU216HW,2013-03-03 18:31:00,
2013-03-03 13:32:00,50.7,28.3,29.57,WNW,293,0.0,0.0,42,0.00,,,0.00,WUHU216HW,2013-03-03 18:32:00,
2013-03-03 13:33:00,31.6,22.6,29.87,West,270,0.0,0.0,71,0.00,,,0.00,WUHU216HW,2013-03-03 18:33:00,
2013-03-03 13:34:00,31.6,22.6,29.87,West,270,0.0,0.0,71,0.00,,,0.00,WUHU216HW,2013-03-03 18:34:00,
2013-03-03 13:35:00,31.6,22.6,29.87,West,270,0.0,0.0,71,0.00,,,0.00,WUHU216HW,2013-03-03 18:35:00,
2013-03-03 13:36:00,31.6,22.6,29.88,West,270,0.0,0.0,71,0.00,,,0.00,WUHU216HW,2013-03-03 18:36:00,
2013-03-03 13:37:00,50.7,28.3,29.57,NW,315,0.0,0.0,40,0.00,,,0.00,WUHU216HW,2013-03-03 18:37:00,
2013-03-03 13:38:00,31.6,22.6,29.87,West,270,0.0,0.0,72,0.00,,,0.00,WUHU216HW,2013-03-03 18:38:00,
2013-03-03 13:39:00,31.4,23.4,29.87,West,270,0.0,0.0,72,0.00,,,0.00,WUHU216HW,2013-03-03 18:39:00,
2013-03-03 13:40:00,31.4,23.4,29.88,West,270,0.0,0.0,72,0.00,,,0.00,WUHU216HW,2013-03-03 18:40:00,
2013-03-03 13:41:00,31.4,23.4,29.88,West,270,0.0,0.0,72,0.00,,,0.00,WUHU216HW,2013-03-03 18:41:00,
2013-03-03 13:42:00,51.0,27.5,29.56,East,90,0.0,0.0,37,0.00,,,0.00,WUHU216HW,2013-03-03 18:42:00,
2013-03-03 13:43:00,31.4,23.4,29.87,West,270,0.0,0.0,72,0.00,,,0.00,WUHU216HW,2013-03-03 18:43:00,
2013-03-03 13:47:00,50.1,26.0,29.57,WNW,293,0.0,0.0,39,0.00,,,0.00,WUHU216HW,2013-03-03 18:47:00,
2013-03-03 13:52:00,49.6,24.9,29.56,West,270,0.0,0.0,42,0.00,,,0.00,WUHU216HW,2013-03-03 18:52:00,
2013-03-03 13:57:00,49.8,26.9,29.56,West,270,1.1,1.1,41,0.00,,,0.00,WUHU216HW,2013-03-03 18:57:00,
2013-03-03 14:01:00,31.4,23.4,29.87,West,270,0.0,0.0,74,0.00,,,0.00,WUHU216HW,2013-03-03 19:01:00,
2013-03-03 14:02:00,49.1,25.7,29.56,West,270,0.0,4.9,40,0.00,,,0.00,WUHU216HW,2013-03-03 19:02:00,
2013-03-03 14:03:00,31.4,23.4,29.88,West,270,0.0,0.0,74,0.00,,,0.00,WUHU216HW,2013-03-03 19:03:00,
2013-03-03 14:04:00,31.4,23.4,29.88,West,270,0.0,0.0,75,0.00,,,0.00,WUHU216HW,2013-03-03 19:04:00,
2013-03-03 14:07:00,31.4,23.4,29.88,West,270,0.0,0.0,75,0.00,,,0.00,WUHU216HW,2013-03-03 19:07:00,
2013-03-03 14:08:00,49.1,25.7,29.56,NNW,338,0.0,4.9,40,0.00,,,0.00,WUHU216HW,2013-03-03 19:08:00,
2013-03-03 14:09:00,31.4,23.4,29.88,West,270,0.0,0.0,75,0.00,,,0.00,WUHU216HW,2013-03-03 19:09:00,
2013-03-03 14:10:00,31.4,23.4,29.88,West,270,0.0,0.0,75,0.00,,,0.00,WUHU216HW,2013-03-03 19:10:00,
2013-03-03 14:11:00,31.4,23.4,29.88,West,270,0.0,0.0,75,0.00,,,0.00,WUHU216HW,2013-03-03 19:11:00,
2013-03-03 14:12:00,31.4,23.4,29.88,West,270,0.0,0.0,75,0.00,,,0.00,WUHU216HW,2013-03-03 19:12:00,
2013-03-03 14:13:00,49.1,25.7,29.56,WSW,248,0.0,0.0,40,0.00,,,0.00,WUHU216HW,2013-03-03 19:13:00,
2013-03-03 14:14:00,31.4,23.4,29.88,West,270,0.0,0.0,75,0.00,,,0.00,WUHU216HW,2013-03-03 19:14:00,
2013-03-03 14:15:00,31.4,23.4,29.88,West,270,0.0,0.0,75,0.00,,,0.00,WUHU216HW,2013-03-03 19:15:00,
2013-03-03 14:16:00,31.4,23.4,29.88,West,270,0.0,0.0,75,0.00,,,0.00,WUHU216HW,2013-03-03 19:16:00,
2013-03-03 14:17:00,31.4,23.4,29.88,West,270,0.0,0.0,75,0.00,,,0.00,WUHU216HW,2013-03-03 19:17:00,
2013-03-03 14:18:00,48.9,26.1,29.56,West,270,0.0,0.0,41,0.00,,,0.00,WUHU216HW,2013-03-03 19:18:00,
2013-03-03 14:19:00,31.4,23.4,29.88,West,270,0.0,0.0,75,0.00,,,0.00,WUHU216HW,2013-03-03 19:19:00,
2013-03-03 14:20:00,31.4,23.4,29.88,West,270,0.0,0.0,75,0.00,,,0.00,WUHU216HW,2013-03-03 19:20:00,
2013-03-03 14:21:00,31.4,23.4,29.88,West,270,0.0,0.0,75,0.00,,,0.00,WUHU216HW,2013-03-03 19:21:00,
2013-03-03 14:22:00,31.4,23.4,29.88,West,270,0.0,0.0,75,0.00,,,0.00,WUHU216HW,2013-03-03 19:22:00,
2013-03-03 14:23:00,49.1,26.3,29.55,West,270,0.0,0.0,39,0.00,,,0.00,WUHU216HW,2013-03-03 19:23:00,
2013-03-03 14:24:00,31.4,23.4,29.88,West,270,0.0,0.0,75,0.00,,,0.00,WUHU216HW,2013-03-03 19:24:00,
2013-03-03 14:25:00,31.4,23.4,29.88,West,270,0.0,0.0,75,0.00,,,0.00,WUHU216HW,2013-03-03 19:25:00,
2013-03-03 14:26:00,31.4,23.4,29.87,West,270,0.0,0.0,75,0.00,,,0.00,WUHU216HW,2013-03-03 19:26:00,
2013-03-03 14:28:00,49.2,27.0,29.55,SE,135,0.0,6.2,39,0.00,,,0.00,WUHU216HW,2013-03-03 19:28:00,
2013-03-03 14:31:00,31.2,24.2,29.87,West,270,0.0,0.0,75,0.00,,,0.00,WUHU216HW,2013-03-03 19:31:00,
2013-03-03 14:33:00,49.6,25.5,29.55,WNW,293,0.0,6.2,39,0.00,,,0.00,WUHU216HW,2013-03-03 19:33:00,
2013-03-03 14:34:00,31.2,24.2,29.87,West,270,0.0,0.0,75,0.00,,,0.00,WUHU216HW,2013-03-03 19:34:00,
2013-03-03 14:35:00,31.2,24.2,29.87,West,270,0.0,0.0,75,0.00,,,0.00,WUHU216HW,2013-03-03 19:35:00,
2013-03-03 14:36:00,31.2,24.2,29.87,West,270,0.0,0.0,75,0.00,,,0.00,WUHU216HW,2013-03-03 19:36:00,
2013-03-03 14:37:00,31.2,24.2,29.87,West,270,0.0,0.0,75,0.00,,,0.00,WUHU216HW,2013-03-03 19:37:00,
2013-03-03 14:38:00,49.8,26.4,29.55,WNW,293,0.0,0.0,39,0.00,,,0.00,WUHU216HW,2013-03-03 19:38:00,
2013-03-03 14:39:00,31.2,24.2,29.87,West,270,0.0,0.0,75,0.00,,,0.00,WUHU216HW,2013-03-03 19:39:00,
2013-03-03 14:40:00,31.2,24.2,29.87,West,270,0.0,0.0,75,0.00,,,0.00,WUHU216HW,2013-03-03 19:40:00,
2013-03-03 14:41:00,31.2,24.2,29.87,West,270,0.0,0.0,75,0.00,,,0.00,WUHU216HW,2013-03-03 19:41:00,
2013-03-03 14:42:00,31.1,24.0,29.88,West,270,0.0,0.0,75,0.00,,,0.00,WUHU216HW,2013-03-03 19:42:00,
2013-03-03 14:43:00,49.8,25.7,29.55,West,270,0.0,0.0,39,0.00,,,0.00,WUHU216HW,2013-03-03 19:43:00,
2013-03-03 14:44:00,31.1,24.0,29.88,West,270,0.0,0.0,74,0.00,,,0.00,WUHU216HW,2013-03-03 19:44:00,
2013-03-03 14:45:00,31.1,24.0,29.88,West,270,0.0,0.0,74,0.00,,,0.00,WUHU216HW,2013-03-03 19:45:00,
2013-03-03 14:46:00,31.1,24.0,29.88,West,270,0.0,0.0,74,0.00,,,0.00,WUHU216HW,2013-03-03 19:46:00,
2013-03-03 14:47:00,31.1,24.0,29.88,West,270,0.0,0.0,74,0.00,,,0.00,WUHU216HW,2013-03-03 19:47:00,
2013-03-03 14:48:00,50.5,28.2,29.55,NW,315,0.0,0.0,42,0.00,,,0.00,WUHU216HW,2013-03-03 19:48:00,
2013-03-03 14:49:00,31.1,24.0,29.88,West,270,0.0,0.0,74,0.00,,,0.00,WUHU216HW,2013-03-03 19:49:00,
2013-03-03 14:50:00,31.1,24.0,29.88,West,270,0.0,0.0,74,0.00,,,0.00,WUHU216HW,2013-03-03 19:50:00,
2013-03-03 14:51:00,31.1,24.0,29.88,West,270,0.0,0.0,74,0.00,,,0.00,WUHU216HW,2013-03-03 19:51:00,
2013-03-03 14:52:00,31.1,24.0,29.88,West,270,0.0,0.0,74,0.00,,,0.00,WUHU216HW,2013-03-03 19:52:00,
2013-03-03 14:53:00,51.0,26.8,29.55,WSW,248,0.0,0.0,39,0.00,,,0.00,WUHU216HW,2013-03-03 19:53:00,
2013-03-03 14:54:00,30.9,23.5,29.88,West,270,0.0,0.0,74,0.00,,,0.00,WUHU216HW,2013-03-03 19:54:00,
2013-03-03 14:55:00,31.1,23.7,29.88,West,270,0.0,0.0,74,0.00,,,0.00,WUHU216HW,2013-03-03 19:55:00,
2013-03-03 14:56:00,31.1,23.7,29.88,West,270,0.0,0.0,74,0.00,,,0.00,WUHU216HW,2013-03-03 19:56:00,
2013-03-03 14:57:00,30.9,23.5,29.88,West,270,0.0,0.0,74,0.00,,,0.00,WUHU216HW,2013-03-03 19:57:00,
2013-03-03 14:58:00,51.4,25.8,29.55,WSW,248,0.0,0.0,38,0.00,,,0.00,WUHU216HW,2013-03-03 19:58:00,
2013-03-03 14:59:00,31.1,23.7,29.88,West,270,0.0,0.0,74,0.00,,,0.00,WUHU216HW,2013-03-03 19:59:00,
2013-03-03 15:00:00,31.1,23.7,29.88,West,270,0.0,0.0,74,0.00,,,0.00,WUHU216HW,2013-03-03 20:00:00,
2013-03-03 15:02:00,31.1,23.7,29.88,West,270,0.0,0.0,74,0.00,,,0.00,WUHU216HW,2013-03-03 20:02:00,
2013-03-03 15:03:00,51.4,25.8,29.55,WNW,293,0.0,0.0,39,0.00,,,0.00,WUHU216HW,2013-03-03 20:03:00,
2013-03-03 15:04:00,31.2,23.9,29.88,West,270,0.0,0.0,74,0.00,,,0.00,WUHU216HW,2013-03-03 20:04:00,
2013-03-03 15:05:00,31.2,23.9,29.88,West,270,0.0,0.0,74,0.00,,,0.00,WUHU216HW,2013-03-03 20:05:00,
2013-03-03 15:06:00,31.2,23.9,29.88,West,270,0.0,0.0,74,0.00,,,0.00,WUHU216HW,2013-03-03 20:06:00,
2013-03-03 15:09:00,51.0,25.5,29.55,WNW,293,0.0,0.0,37,0.00,,,0.00,WUHU216HW,2013-03-03 20:09:00,
2013-03-03 15:11:00,31.2,23.9,29.88,West,270,0.0,0.0,74,0.00,,,0.00,WUHU216HW,2013-03-03 20:11:00,
2013-03-03 15:12:00,31.2,23.9,29.88,West,270,0.0,0.0,74,0.00,,,0.00,WUHU216HW,2013-03-03 20:12:00,
2013-03-03 15:13:00,31.2,23.9,29.88,West,270,0.0,0.0,74,0.00,,,0.00,WUHU216HW,2013-03-03 20:13:00,
2013-03-03 15:14:00,51.6,28.6,29.55,WNW,293,0.0,0.0,41,0.00,,,0.00,WUHU216HW,2013-03-03 20:14:00,
2013-03-03 15:16:00,31.4,24.1,29.88,West,270,0.0,0.0,74,0.00,,,0.00,WUHU216HW,2013-03-03 20:16:00,
2013-03-03 15:17:00,31.4,24.1,29.88,West,270,0.0,0.0,74,0.00,,,0.00,WUHU216HW,2013-03-03 20:17:00,
2013-03-03 15:18:00,31.4,24.1,29.88,West,270,0.0,0.0,74,0.00,,,0.00,WUHU216HW,2013-03-03 20:18:00,
2013-03-03 15:19:00,51.9,26.3,29.55,West,270,2.9,5.8,37,0.00,,,0.00,WUHU216HW,2013-03-03 20:19:00,
2013-03-03 15:20:00,31.6,24.2,29.88,West,270,0.0,0.0,74,0.00,,,0.00,WUHU216HW,2013-03-03 20:20:00,
2013-03-03 15:21:00,31.6,24.2,29.88,West,270,0.0,0.0,74,0.00,,,0.00,WUHU216HW,2013-03-03 20:21:00,
2013-03-03 15:23:00,31.6,24.2,29.87,West,270,0.0,0.0,74,0.00,,,0.00,WUHU216HW,2013-03-03 20:23:00,
2013-03-03 15:24:00,51.0,25.5,29.55,WNW,293,0.0,7.8,37,0.00,,,0.00,WUHU216HW,2013-03-03 20:24:00,
2013-03-03 15:27:00,31.8,23.8,29.88,West,270,0.0,0.0,72,0.00,,,0.00,WUHU216HW,2013-03-03 20:27:00,
2013-03-03 15:28:00,31.8,23.8,29.87,West,270,0.0,0.0,72,0.00,,,0.00,WUHU216HW,2013-03-03 20:28:00,
2013-03-03 15:29:00,50.7,25.8,29.55,WNW,293,5.8,7.8,38,0.00,,,0.00,WUHU216HW,2013-03-03 20:29:00,
2013-03-03 15:30:00,32.1,23.8,29.87,West,270,0.0,0.0,71,0.00,,,0.00,WUHU216HW,2013-03-03 20:30:00,
2013-03-03 15:31:00,32.3,24.0,29.87,West,270,0.0,0.0,71,0.00,,,0.00,WUHU216HW,2013-03-03 20:31:00,
2013-03-03 15:32:00,32.3,24.0,29.87,West,270,0.0,0.0,71,0.00,,,0.00,WUHU216HW,2013-03-03 20:32:00,
2013-03-03 15:33:00,32.3,24.0,29.87,West,270,0.0,0.0,71,0.00,,,0.00,WUHU216HW,2013-03-03 20:33:00,
2013-03-03 15:34:00,50.5,25.0,29.55,WNW,293,0.0,5.8,37,0.00,,,0.00,WUHU216HW,2013-03-03 20:34:00,
2013-03-03 15:35:00,32.5,23.4,29.87,West,270,0.0,0.0,69,0.00,,,0.00,WUHU216HW,2013-03-03 20:35:00,
2013-03-03 15:36:00,32.9,23.4,29.88,West,270,0.0,0.0,68,0.00,,,0.00,WUHU216HW,2013-03-03 20:36:00,
2013-03-03 15:37:00,32.9,23.4,29.88,West,270,0.0,0.0,68,0.00,,,0.00,WUHU216HW,2013-03-03 20:37:00,
2013-03-03 15:38:00,33.0,23.6,29.87,West,270,0.0,0.0,68,0.00,,,0.00,WUHU216HW,2013-03-03 20:38:00,
2013-03-03 15:39:00,50.1,24.7,29.55,West,270,0.0,5.8,39,0.00,,,0.00,WUHU216HW,2013-03-03 20:39:00,
2013-03-03 15:40:00,33.4,23.9,29.88,West,270,0.0,0.0,68,0.00,,,0.00,WUHU216HW,2013-03-03 20:40:00,
2013-03-03 15:41:00,33.4,23.9,29.88,West,270,0.0,0.0,68,0.00,,,0.00,WUHU216HW,2013-03-03 20:41:00,
2013-03-03 15:42:00,33.4,23.9,29.88,West,270,0.0,0.0,68,0.00,,,0.00,WUHU216HW,2013-03-03 20:42:00,
2013-03-03 15:43:00,33.4,23.9,29.88,West,270,0.0,0.0,68,0.00,,,0.00,WUHU216HW,2013-03-03 20:43:00,
2013-03-03 15:44:00,50.1,26.0,29.55,SSW,203,2.2,2.2,39,0.00,,,0.00,WUHU216HW,2013-03-03 20:44:00,
2013-03-03 15:45:00,33.6,24.1,29.88,West,270,0.0,0.0,68,0.00,,,0.00,WUHU216HW,2013-03-03 20:45:00,
2013-03-03 15:46:00,33.6,24.1,29.88,West,270,0.0,0.0,68,0.00,,,0.00,WUHU216HW,2013-03-03 20:46:00,
2013-03-03 15:47:00,33.9,24.0,29.88,West,270,0.0,0.0,67,0.00,,,0.00,WUHU216HW,2013-03-03 20:47:00,
2013-03-03 15:48:00,33.9,24.0,29.88,West,270,0.0,0.0,67,0.00,,,0.00,WUHU216HW,2013-03-03 20:48:00,
2013-03-03 15:49:00,50.1,26.0,29.55,WNW,293,0.0,4.9,39,0.00,,,0.00,WUHU216HW,2013-03-03 20:49:00,
2013-03-03 15:50:00,34.3,24.0,29.88,West,270,0.0,0.0,66,0.00,,,0.00,WUHU216HW,2013-03-03 20:50:00,
2013-03-03 15:51:00,34.5,24.2,29.88,West,270,0.0,0.0,66,0.00,,,0.00,WUHU216HW,2013-03-03 20:51:00,
2013-03-03 15:52:00,34.5,24.2,29.88,West,270,0.0,0.0,66,0.00,,,0.00,WUHU216HW,2013-03-03 20:52:00,
2013-03-03 15:53:00,34.5,24.2,29.89,West,270,0.0,0.0,66,0.00,,,0.00,WUHU216HW,2013-03-03 20:53:00,
2013-03-03 15:54:00,50.5,27.0,29.55,NW,315,0.0,4.9,40,0.00,,,0.00,WUHU216HW,2013-03-03 20:54:00,
2013-03-03 15:55:00,34.7,24.0,29.89,West,270,0.0,0.0,65,0.00,,,0.00,WUHU216HW,2013-03-03 20:55:00,
2013-03-03 15:56:00,34.7,24.0,29.89,West,270,0.0,0.0,65,0.00,,,0.00,WUHU216HW,2013-03-03 20:56:00,
2013-03-03 15:57:00,34.8,24.2,29.89,West,270,0.0,0.0,65,0.00,,,0.00,WUHU216HW,2013-03-03 20:57:00,
2013-03-03 15:58:00,34.8,24.2,29.89,West,270,0.0,0.0,65,0.00,,,0.00,WUHU216HW,2013-03-03 20:58:00,
2013-03-03 15:59:00,50.7,27.2,29.55,West,270,0.0,0.0,38,0.00,,,0.00,WUHU216HW,2013-03-03 20:59:00,
2013-03-03 16:00:00,35.0,24.0,29.89,West,270,0.0,0.0,64,0.00,,,0.00,WUHU216HW,2013-03-03 21:00:00,
2013-03-03 16:01:00,35.0,24.0,29.89,West,270,0.0,0.0,64,0.00,,,0.00,WUHU216HW,2013-03-03 21:01:00,
2013-03-03 16:02:00,35.2,24.2,29.89,West,270,0.0,0.0,64,0.00,,,0.00,WUHU216HW,2013-03-03 21:02:00,
2013-03-03 16:03:00,35.4,24.4,29.89,West,270,0.0,0.0,64,0.00,,,0.00,WUHU216HW,2013-03-03 21:03:00,
2013-03-03 16:04:00,50.5,25.7,29.55,West,270,0.0,0.0,38,0.00,,,0.00,WUHU216HW,2013-03-03 21:04:00,
2013-03-03 16:05:00,35.4,24.4,29.89,West,270,0.0,0.0,64,0.00,,,0.00,WUHU216HW,2013-03-03 21:05:00,
2013-03-03 16:06:00,35.7,24.4,29.89,West,270,0.0,0.0,63,0.00,,,0.00,WUHU216HW,2013-03-03 21:06:00,
2013-03-03 16:07:00,36.1,24.3,29.89,West,270,0.0,0.0,62,0.00,,,0.00,WUHU216HW,2013-03-03 21:07:00,
2013-03-03 16:08:00,36.1,24.3,29.89,West,270,0.0,0.0,62,0.00,,,0.00,WUHU216HW,2013-03-03 21:08:00,
2013-03-03 16:09:00,50.3,26.2,29.56,West,270,0.0,0.0,39,0.00,,,0.00,WUHU216HW,2013-03-03 21:09:00,
2013-03-03 16:10:00,36.1,24.3,29.89,West,270,0.0,0.0,62,0.00,,,0.00,WUHU216HW,2013-03-03 21:10:00,
2013-03-03 16:11:00,36.1,24.3,29.89,West,270,0.0,0.0,62,0.00,,,0.00,WUHU216HW,2013-03-03 21:11:00,
2013-03-03 16:12:00,36.3,24.1,29.89,West,270,0.0,0.0,61,0.00,,,0.00,WUHU216HW,2013-03-03 21:12:00,
2013-03-03 16:13:00,36.3,24.1,29.89,West,270,0.0,0.0,61,0.00,,,0.00,WUHU216HW,2013-03-03 21:13:00,
2013-03-03 16:14:00,49.6,24.9,29.55,West,270,0.0,0.0,38,0.00,,,0.00,WUHU216HW,2013-03-03 21:14:00,
2013-03-03 16:15:00,36.6,24.5,29.89,West,270,0.0,0.0,61,0.00,,,0.00,WUHU216HW,2013-03-03 21:15:00,
2013-03-03 16:16:00,36.6,24.5,29.89,West,270,0.0,0.0,61,0.00,,,0.00,WUHU216HW,2013-03-03 21:16:00,
2013-03-03 16:17:00,37.0,24.8,29.89,West,270,0.0,0.0,61,0.00,,,0.00,WUHU216HW,2013-03-03 21:17:00,
2013-03-03 16:19:00,37.2,24.2,29.89,West,270,0.0,0.0,59,0.00,,,0.00,WUHU216HW,2013-03-03 21:19:00,
2013-03-03 16:20:00,49.1,25.1,29.56,West,270,0.0,0.0,39,0.00,,,0.00,WUHU216HW,2013-03-03 21:20:00,
2013-03-03 16:21:00,37.5,24.1,29.89,West,270,0.0,0.0,58,0.00,,,0.00,WUHU216HW,2013-03-03 21:21:00,
2013-03-03 16:22:00,37.5,24.1,29.89,West,270,0.0,0.0,58,0.00,,,0.00,WUHU216HW,2013-03-03 21:22:00,
2013-03-03 16:23:00,37.7,24.2,29.89,West,270,0.0,0.0,58,0.00,,,0.00,WUHU216HW,2013-03-03 21:23:00,
2013-03-03 16:24:00,37.7,24.2,29.89,West,270,0.0,0.0,58,0.00,,,0.00,WUHU216HW,2013-03-03 21:24:00,
2013-03-03 16:25:00,48.0,24.8,29.56,West,270,0.0,0.0,40,0.00,,,0.00,WUHU216HW,2013-03-03 21:25:00,
2013-03-03 16:26:00,38.1,24.1,29.89,West,270,0.0,0.0,57,0.00,,,0.00,WUHU216HW,2013-03-03 21:26:00,
2013-03-03 16:27:00,38.3,24.7,29.89,West,270,0.0,0.0,58,0.00,,,0.00,WUHU216HW,2013-03-03 21:27:00,
2013-03-03 16:28:00,38.3,24.7,29.89,West,270,0.0,0.0,58,0.00,,,0.00,WUHU216HW,2013-03-03 21:28:00,
2013-03-03 16:29:00,38.3,24.7,29.89,West,270,0.0,0.0,58,0.00,,,0.00,WUHU216HW,2013-03-03 21:29:00,
2013-03-03 16:30:00,47.4,24.8,29.56,West,270,0.0,0.0,41,0.00,,,0.00,WUHU216HW,2013-03-03 21:30:00,
2013-03-03 16:31:00,38.6,24.6,29.89,West,270,0.0,0.0,57,0.00,,,0.00,WUHU216HW,2013-03-03 21:31:00,
2013-03-03 16:32:00,38.8,24.3,29.88,West,270,0.0,0.0,56,0.00,,,0.00,WUHU216HW,2013-03-03 21:32:00,
2013-03-03 16:33:00,38.8,24.3,29.88,West,270,0.0,0.0,56,0.00,,,0.00,WUHU216HW,2013-03-03 21:33:00,
2013-03-03 16:34:00,38.8,24.3,29.88,West,270,0.0,0.0,56,0.00,,,0.00,WUHU216HW,2013-03-03 21:34:00,
2013-03-03 16:35:00,47.1,24.5,29.56,West,270,0.0,0.0,40,0.00,,,0.00,WUHU216HW,2013-03-03 21:35:00,
2013-03-03 16:36:00,39.2,24.6,29.88,West,270,0.0,0.0,56,0.00,,,0.00,WUHU216HW,2013-03-03 21:36:00,
2013-03-03 16:37:00,39.2,24.6,29.88,West,270,0.0,0.0,56,0.00,,,0.00,WUHU216HW,2013-03-03 21:37:00,
2013-03-03 16:38:00,39.3,24.8,29.88,West,270,0.0,0.0,56,0.00,,,0.00,WUHU216HW,2013-03-03 21:38:00,
2013-03-03 16:39:00,39.3,24.8,29.88,West,270,0.0,0.0,56,0.00,,,0.00,WUHU216HW,2013-03-03 21:39:00,
2013-03-03 16:40:00,46.9,24.3,29.56,WNW,293,0.0,0.0,41,0.00,,,0.00,WUHU216HW,2013-03-03 21:40:00,
2013-03-03 16:41:00,39.5,24.6,29.88,West,270,0.0,0.0,55,0.00,,,0.00,WUHU216HW,2013-03-03 21:41:00,
2013-03-03 16:42:00,39.7,25.2,29.89,West,270,0.0,0.0,56,0.00,,,0.00,WUHU216HW,2013-03-03 21:42:00,
2013-03-03 16:43:00,39.7,25.2,29.89,West,270,0.0,0.0,56,0.00,,,0.00,WUHU216HW,2013-03-03 21:43:00,
2013-03-03 16:44:00,39.7,25.2,29.89,West,270,0.0,0.0,56,0.00,,,0.00,WUHU216HW,2013-03-03 21:44:00,
2013-03-03 16:45:00,46.9,24.9,29.56,West,270,0.0,0.0,42,0.00,,,0.00,WUHU216HW,2013-03-03 21:45:00,
2013-03-03 16:46:00,39.9,24.9,29.89,West,270,0.0,0.0,55,0.00,,,0.00,WUHU216HW,2013-03-03 21:46:00,
2013-03-03 16:47:00,40.2,25.2,29.90,West,270,0.0,0.0,55,0.00,,,0.00,WUHU216HW,2013-03-03 21:47:00,
2013-03-03 16:48:00,40.2,25.2,29.90,West,270,0.0,0.0,55,0.00,,,0.00,WUHU216HW,2013-03-03 21:48:00,
2013-03-03 16:49:00,40.6,25.6,29.90,West,270,0.0,0.0,55,0.00,,,0.00,WUHU216HW,2013-03-03 21:49:00,
2013-03-03 16:50:00,47.1,25.0,29.56,West,270,0.0,0.0,41,0.00,,,0.00,WUHU216HW,2013-03-03 21:50:00,
2013-03-03 16:51:00,40.8,25.8,29.89,NW,315,0.0,0.0,55,0.00,,,0.00,WUHU216HW,2013-03-03 21:51:00,
2013-03-03 16:52:00,40.8,25.8,29.89,NW,315,0.0,0.0,55,0.00,,,0.00,WUHU216HW,2013-03-03 21:52:00,
2013-03-03 16:53:00,41.1,25.6,29.89,WNW,293,0.0,0.0,54,0.00,,,0.00,WUHU216HW,2013-03-03 21:53:00,
2013-03-03 16:54:00,41.1,25.6,29.90,WNW,293,0.0,0.0,54,0.00,,,0.00,WUHU216HW,2013-03-03 21:54:00,
2013-03-03 16:55:00,46.5,24.0,29.56,WNW,293,0.0,0.0,41,0.00,,,0.00,WUHU216HW,2013-03-03 21:55:00,
2013-03-03 16:56:00,41.3,25.8,29.90,WNW,293,0.0,0.0,54,0.00,,,0.00,WUHU216HW,2013-03-03 21:56:00,
2013-03-03 16:57:00,41.7,25.7,29.90,WNW,293,0.0,0.0,53,0.00,,,0.00,WUHU216HW,2013-03-03 21:57:00,
2013-03-03 16:58:00,41.7,25.7,29.90,WNW,293,0.0,0.0,53,0.00,,,0.00,WUHU216HW,2013-03-03 21:58:00,
2013-03-03 16:59:00,41.7,25.7,29.90,WNW,293,0.0,0.0,53,0.00,,,0.00,WUHU216HW,2013-03-03 21:59:00,
2013-03-03 17:00:00,46.2,24.2,29.56,West,270,0.0,0.0,42,0.00,,,0.00,WUHU216HW,2013-03-03 22:00:00,
2013-03-03 17:01:00,41.7,25.7,29.90,WNW,293,0.0,0.0,53,0.00,,,0.00,WUHU216HW,2013-03-03 22:01:00,
2013-03-03 17:02:00,42.0,26.5,29.89,WNW,293,0.0,0.0,54,0.00,,,0.00,WUHU216HW,2013-03-03 22:02:00,
2013-03-03 17:03:00,42.0,26.5,29.90,WNW,293,0.0,0.0,54,0.00,,,0.00,WUHU216HW,2013-03-03 22:03:00,
2013-03-03 17:04:00,42.4,26.9,29.90,WNW,293,0.0,0.0,54,0.00,,,0.00,WUHU216HW,2013-03-03 22:04:00,
2013-03-03 17:05:00,45.5,24.1,29.56,West,270,0.0,0.0,43,0.00,,,0.00,WUHU216HW,2013-03-03 22:05:00,
2013-03-03 17:06:00,42.6,26.6,29.89,WNW,293,0.0,0.0,53,0.00,,,0.00,WUHU216HW,2013-03-03 22:06:00,
2013-03-03 17:07:00,42.6,26.6,29.89,WNW,293,0.0,0.0,53,0.00,,,0.00,WUHU216HW,2013-03-03 22:07:00,
2013-03-03 17:08:00,42.9,26.5,29.89,WSW,248,0.0,0.0,52,0.00,,,0.00,WUHU216HW,2013-03-03 22:08:00,
2013-03-03 17:09:00,42.9,26.5,29.89,WSW,248,0.0,0.0,52,0.00,,,0.00,WUHU216HW,2013-03-03 22:09:00,
2013-03-03 17:10:00,45.3,24.0,29.56,WSW,248,0.0,0.0,43,0.00,,,0.00,WUHU216HW,2013-03-03 22:10:00,
2013-03-03 17:11:00,42.9,26.5,29.89,WSW,248,0.0,0.0,51,0.00,,,0.00,WUHU216HW,2013-03-03 22:11:00,
2013-03-03 17:12:00,43.3,26.4,29.89,WSW,248,0.0,0.0,51,0.00,,,0.00,WUHU216HW,2013-03-03 22:12:00,
2013-03-03 17:13:00,43.3,26.4,29.89,WSW,248,0.0,0.0,51,0.00,,,0.00,WUHU216HW,2013-03-03 22:13:00,
2013-03-03 17:14:00,43.3,26.4,29.89,WSW,248,0.0,0.0,51,0.00,,,0.00,WUHU216HW,2013-03-03 22:14:00,
2013-03-03 17:15:00,45.1,23.8,29.56,WSW,248,0.0,0.0,44,0.00,,,0.00,WUHU216HW,2013-03-03 22:15:00,
2013-03-03 17:16:00,43.3,26.4,29.89,WSW,248,0.0,0.0,51,0.00,,,0.00,WUHU216HW,2013-03-03 22:16:00,
2013-03-03 17:17:00,43.3,26.4,29.89,WSW,248,0.0,0.0,52,0.00,,,0.00,WUHU216HW,2013-03-03 22:17:00,
2013-03-03 17:18:00,43.3,26.4,29.89,WSW,248,0.0,0.0,52,0.00,,,0.00,WUHU216HW,2013-03-03 22:18:00,
2013-03-03 17:19:00,43.7,26.7,29.89,WSW,248,0.0,0.0,51,0.00,,,0.00,WUHU216HW,2013-03-03 22:19:00,
2013-03-03 17:20:00,44.7,24.0,29.56,West,270,0.0,0.0,44,0.00,,,0.00,WUHU216HW,2013-03-03 22:20:00,
2013-03-03 17:21:00,43.8,26.9,29.89,WSW,248,0.0,0.0,51,0.00,,,0.00,WUHU216HW,2013-03-03 22:21:00,
2013-03-03 17:22:00,43.8,26.9,29.89,WSW,248,0.0,0.0,51,0.00,,,0.00,WUHU216HW,2013-03-03 22:22:00,
2013-03-03 17:23:00,44.2,26.8,29.89,WSW,248,0.0,0.0,50,0.00,,,0.00,WUHU216HW,2013-03-03 22:23:00,
2013-03-03 17:24:00,44.2,26.8,29.89,WSW,248,0.0,0.0,50,0.00,,,0.00,WUHU216HW,2013-03-03 22:24:00,
2013-03-03 17:25:00,44.4,23.7,29.56,WSW,248,0.0,0.0,44,0.00,,,0.00,WUHU216HW,2013-03-03 22:25:00,
2013-03-03 17:26:00,44.4,27.4,29.89,WSW,248,0.0,0.0,51,0.00,,,0.00,WUHU216HW,2013-03-03 22:26:00,
2013-03-03 17:27:00,44.4,27.4,29.89,WSW,248,0.0,0.0,51,0.00,,,0.00,WUHU216HW,2013-03-03 22:27:00,
2013-03-03 17:28:00,44.6,27.1,29.89,SSW,203,0.0,0.0,50,0.00,,,0.00,WUHU216HW,2013-03-03 22:28:00,
2013-03-03 17:29:00,44.6,27.1,29.89,SSW,203,0.0,0.0,50,0.00,,,0.00,WUHU216HW,2013-03-03 22:29:00,
2013-03-03 17:30:00,43.8,23.7,29.56,West,270,0.0,0.0,45,0.00,,,0.00,WUHU216HW,2013-03-03 22:30:00,
2013-03-03 17:31:00,44.7,26.7,29.89,SSW,203,0.0,0.0,49,0.00,,,0.00,WUHU216HW,2013-03-03 22:31:00,
2013-03-03 17:33:00,45.1,27.6,29.89,SSW,203,0.0,0.0,50,0.00,,,0.00,WUHU216HW,2013-03-03 22:33:00,
2013-03-03 17:34:00,45.3,27.2,29.88,SSW,203,0.0,0.0,49,0.00,,,0.00,WUHU216HW,2013-03-03 22:34:00,
2013-03-03 17:35:00,43.8,23.7,29.57,West,270,0.0,0.0,46,0.00,,,0.00,WUHU216HW,2013-03-03 22:35:00,
2013-03-03 17:36:00,45.6,27.0,29.89,West,270,0.0,0.0,48,0.00,,,0.00,WUHU216HW,2013-03-03 22:36:00,
2013-03-03 17:37:00,45.6,27.0,29.89,West,270,0.0,0.0,48,0.00,,,0.00,WUHU216HW,2013-03-03 22:37:00,
2013-03-03 17:38:00,45.8,26.6,29.88,West,270,0.0,0.0,47,0.00,,,0.00,WUHU216HW,2013-03-03 22:38:00,
2013-03-03 17:39:00,45.8,26.6,29.88,West,270,0.0,0.0,47,0.00,,,0.00,WUHU216HW,2013-03-03 22:39:00,
2013-03-03 17:40:00,43.7,24.7,29.57,WSW,248,0.0,0.0,47,0.00,,,0.00,WUHU216HW,2013-03-03 22:40:00,
2013-03-03 17:41:00,45.8,26.6,29.88,WNW,293,0.0,0.0,47,0.00,,,0.00,WUHU216HW,2013-03-03 22:41:00,
2013-03-03 17:42:00,45.8,26.6,29.88,WNW,293,0.0,0.0,47,0.00,,,0.00,WUHU216HW,2013-03-03 22:42:00,
2013-03-03 17:43:00,46.0,26.2,29.88,SSW,203,0.0,0.0,46,0.00,,,0.00,WUHU216HW,2013-03-03 22:43:00,
2013-03-03 17:44:00,46.0,26.2,29.88,SSW,203,0.0,0.0,46,0.00,,,0.00,WUHU216HW,2013-03-03 22:44:00,
2013-03-03 17:45:00,43.5,24.5,29.58,WSW,248,0.0,0.0,47,0.00,,,0.00,WUHU216HW,2013-03-03 22:45:00,
2013-03-03 17:46:00,46.2,25.3,29.88,ESE,113,0.0,0.0,44,0.00,,,0.00,WUHU216HW,2013-03-03 22:46:00,
2013-03-03 17:47:00,46.2,25.3,29.88,ESE,113,0.0,0.0,44,0.00,,,0.00,WUHU216HW,2013-03-03 22:47:00,
2013-03-03 17:48:00,46.2,25.3,29.88,ESE,113,0.0,0.0,44,0.00,,,0.00,WUHU216HW,2013-03-03 22:48:00,
2013-03-03 17:49:00,46.2,25.3,29.88,WNW,293,0.0,0.0,45,0.00,,,0.00,WUHU216HW,2013-03-03 22:49:00,
2013-03-03 17:50:00,43.5,24.5,29.58,WSW,248,0.0,0.0,47,0.00,,,0.00,WUHU216HW,2013-03-03 22:50:00,
2013-03-03 17:51:00,46.4,25.5,29.87,NW,315,0.0,0.0,44,0.00,,,0.00,WUHU216HW,2013-03-03 22:51:00,
2013-03-03 17:52:00,46.4,25.5,29.87,NW,315,0.0,0.0,44,0.00,,,0.00,WUHU216HW,2013-03-03 22:52:00,
2013-03-03 17:53:00,46.4,25.5,29.87,NW,315,0.0,0.0,44,0.00,,,0.00,WUHU216HW,2013-03-03 22:53:00,
2013-03-03 17:54:00,46.7,25.8,29.87,ESE,113,0.0,0.0,44,0.00,,,0.00,WUHU216HW,2013-03-03 22:54:00,
2013-03-03 17:55:00,46.7,25.8,29.87,East,90,0.0,0.0,42,0.00,,,0.00,WUHU216HW,2013-03-03 22:55:00,
2013-03-03 17:56:00,42.9,24.0,29.58,NW,315,0.0,0.0,47,0.00,,,0.00,WUHU216HW,2013-03-03 22:56:00,
2013-03-03 17:57:00,46.7,25.8,29.87,East,90,0.0,0.0,42,0.00,,,0.00,WUHU216HW,2013-03-03 22:57:00,
2013-03-03 17:58:00,46.9,24.9,29.87,SE,135,0.0,0.0,42,0.00,,,0.00,WUHU216HW,2013-03-03 22:58:00,
2013-03-03 17:59:00,46.9,24.9,29.87,SE,135,0.0,0.0,42,0.00,,,0.00,WUHU216HW,2013-03-03 22:59:00,
2013-03-03 18:00:00,47.1,25.6,29.87,SE,135,0.0,0.0,43,0.00,,,0.00,WUHU216HW,2013-03-03 23:00:00,
2013-03-03 18:01:00,42.8,24.4,29.58,West,270,0.0,0.0,48,0.00,,,0.00,WUHU216HW,2013-03-03 23:01:00,
2013-03-03 18:02:00,47.3,24.7,29.87,SSE,158,0.0,0.0,41,0.00,,,0.00,WUHU216HW,2013-03-03 23:02:00,
2013-03-03 18:03:00,47.3,24.7,29.87,SSE,158,0.0,0.0,41,0.00,,,0.00,WUHU216HW,2013-03-03 23:03:00,
2013-03-03 18:04:00,47.4,24.3,29.87,SE,135,0.0,0.0,40,0.00,,,0.00,WUHU216HW,2013-03-03 23:04:00,
2013-03-03 18:05:00,47.4,24.3,29.87,SE,135,0.0,0.0,40,0.00,,,0.00,WUHU216HW,2013-03-03 23:05:00,
2013-03-03 18:06:00,42.6,24.2,29.59,West,270,0.0,0.0,48,0.00,,,0.00,WUHU216HW,2013-03-03 23:06:00,
2013-03-03 18:07:00,47.8,25.1,29.87,WNW,293,0.0,0.0,41,0.00,,,0.00,WUHU216HW,2013-03-03 23:07:00,
2013-03-03 18:08:00,47.8,25.1,29.87,WNW,293,0.0,0.0,41,0.00,,,0.00,WUHU216HW,2013-03-03 23:08:00,
2013-03-03 18:09:00,47.8,25.1,29.87,WNW,293,0.0,0.0,41,0.00,,,0.00,WUHU216HW,2013-03-03 23:09:00,
2013-03-03 18:10:00,47.8,25.1,29.86,WNW,293,0.0,0.0,41,0.00,,,0.00,WUHU216HW,2013-03-03 23:10:00,
2013-03-03 18:11:00,42.2,24.4,29.59,West,270,0.0,0.0,49,0.00,,,0.00,WUHU216HW,2013-03-03 23:11:00,
2013-03-03 18:12:00,48.3,26.2,29.86,WNW,293,4.0,4.0,42,0.00,,,0.00,WUHU216HW,2013-03-03 23:12:00,
2013-03-03 18:13:00,48.5,25.8,29.86,WNW,293,0.0,4.0,41,0.00,,,0.00,WUHU216HW,2013-03-03 23:13:00,
2013-03-03 18:14:00,48.5,25.8,29.86,WNW,293,0.0,4.0,41,0.00,,,0.00,WUHU216HW,2013-03-03 23:14:00,
2013-03-03 18:15:00,48.7,26.0,29.86,WNW,293,0.0,4.0,41,0.00,,,0.00,WUHU216HW,2013-03-03 23:15:00,
2013-03-03 18:16:00,41.9,23.5,29.59,WNW,293,0.0,0.0,48,0.00,,,0.00,WUHU216HW,2013-03-03 23:16:00,
2013-03-03 18:17:00,48.9,26.1,29.86,West,270,0.0,4.0,41,0.00,,,0.00,WUHU216HW,2013-03-03 23:17:00,
2013-03-03 18:18:00,48.9,26.1,29.86,West,270,0.0,4.0,41,0.00,,,0.00,WUHU216HW,2013-03-03 23:18:00,
2013-03-03 18:19:00,49.2,27.0,29.87,West,270,0.0,4.0,42,0.00,,,0.00,WUHU216HW,2013-03-03 23:19:00,
2013-03-03 18:20:00,49.2,27.0,29.86,West,270,0.0,4.0,42,0.00,,,0.00,WUHU216HW,2013-03-03 23:20:00,
2013-03-03 18:21:00,41.7,23.3,29.59,NNW,338,0.0,0.0,49,0.00,,,0.00,WUHU216HW,2013-03-03 23:21:00,
2013-03-03 18:22:00,49.6,26.2,29.86,WNW,293,0.0,4.0,40,0.00,,,0.00,WUHU216HW,2013-03-03 23:22:00,
2013-03-03 18:23:00,49.6,26.2,29.87,WNW,293,0.0,0.0,40,0.00,,,0.00,WUHU216HW,2013-03-03 23:23:00,
2013-03-03 18:24:00,49.8,25.7,29.87,West,270,0.0,0.0,39,0.00,,,0.00,WUHU216HW,2013-03-03 23:24:00,
2013-03-03 18:25:00,49.8,25.7,29.87,West,270,0.0,0.0,39,0.00,,,0.00,WUHU216HW,2013-03-03 23:25:00,
2013-03-03 18:26:00,41.1,23.3,29.59,WNW,293,0.0,0.0,49,0.00,,,0.00,WUHU216HW,2013-03-03 23:26:00,
2013-03-03 18:27:00,50.0,25.2,29.86,SSW,203,0.0,0.0,38,0.00,,,0.00,WUHU216HW,2013-03-03 23:27:00,
2013-03-03 18:28:00,50.1,25.3,29.86,SW,225,0.0,0.0,38,0.00,,,0.00,WUHU216HW,2013-03-03 23:28:00,
2013-03-03 18:29:00,50.1,25.3,29.86,SW,225,0.0,0.0,38,0.00,,,0.00,WUHU216HW,2013-03-03 23:29:00,
2013-03-03 18:30:00,50.5,27.0,29.86,WNW,293,0.0,0.0,40,0.00,,,0.00,WUHU216HW,2013-03-03 23:30:00,
2013-03-03 18:31:00,41.1,23.3,29.60,WNW,293,0.0,0.0,49,0.00,,,0.00,WUHU216HW,2013-03-03 23:31:00,
2013-03-03 18:32:00,50.9,26.0,29.86,SW,225,0.0,0.0,38,0.00,,,0.00,WUHU216HW,2013-03-03 23:32:00,
2013-03-03 18:33:00,50.9,26.0,29.86,SW,225,0.0,0.0,38,0.00,,,0.00,WUHU216HW,2013-03-03 23:33:00,
2013-03-03 18:34:00,51.0,26.8,29.86,SW,225,0.0,0.0,39,0.00,,,0.00,WUHU216HW,2013-03-03 23:34:00,
2013-03-03 18:35:00,51.0,26.8,29.86,SW,225,0.0,0.0,39,0.00,,,0.00,WUHU216HW,2013-03-03 23:35:00,
2013-03-03 18:36:00,40.8,23.0,29.59,WNW,293,0.0,0.0,49,0.00,,,0.00,WUHU216HW,2013-03-03 23:36:00,
2013-03-03 18:37:00,51.4,26.5,29.86,West,270,0.0,0.0,38,0.00,,,0.00,WUHU216HW,2013-03-03 23:37:00,
2013-03-03 18:38:00,51.4,26.5,29.86,West,270,0.0,0.0,38,0.00,,,0.00,WUHU216HW,2013-03-03 23:38:00,
2013-03-03 18:39:00,51.9,27.7,29.86,WNW,293,0.0,0.0,39,0.00,,,0.00,WUHU216HW,2013-03-03 23:39:00,
2013-03-03 18:40:00,51.9,27.7,29.86,WNW,293,0.0,0.0,39,0.00,,,0.00,WUHU216HW,2013-03-03 23:40:00,
2013-03-03 18:41:00,40.6,22.8,29.60,WNW,293,0.0,0.0,49,0.00,,,0.00,WUHU216HW,2013-03-03 23:41:00,
2013-03-03 18:42:00,52.1,26.4,29.86,WSW,248,0.0,0.0,37,0.00,,,0.00,WUHU216HW,2013-03-03 23:42:00,
2013-03-03 18:43:00,52.1,26.4,29.85,SW,225,0.0,0.0,38,0.00,,,0.00,WUHU216HW,2013-03-03 23:43:00,
2013-03-03 18:44:00,52.1,26.4,29.85,SW,225,0.0,0.0,38,0.00,,,0.00,WUHU216HW,2013-03-03 23:44:00,
2013-03-03 18:45:00,52.3,27.3,29.85,SW,225,0.0,0.0,38,0.00,,,0.00,WUHU216HW,2013-03-03 23:45:00,
2013-03-03 18:46:00,40.2,23.0,29.60,WNW,293,0.0,0.0,50,0.00,,,0.00,WUHU216HW,2013-03-03 23:46:00,
2013-03-03 18:47:00,52.7,28.3,29.85,WSW,248,0.0,0.0,39,0.00,,,0.00,WUHU216HW,2013-03-03 23:47:00,
2013-03-03 18:48:00,52.7,28.3,29.85,WSW,248,0.0,0.0,39,0.00,,,0.00,WUHU216HW,2013-03-03 23:48:00,
2013-03-03 18:49:00,52.7,28.3,29.85,WSW,248,0.0,0.0,39,0.00,,,0.00,WUHU216HW,2013-03-03 23:49:00,
2013-03-03 18:50:00,52.8,26.4,29.85,SSE,158,0.0,0.0,36,0.00,,,0.00,WUHU216HW,2013-03-03 23:50:00,
2013-03-03 18:51:00,40.1,22.9,29.61,WNW,293,0.0,0.0,50,0.00,,,0.00,WUHU216HW,2013-03-03 23:51:00,
2013-03-03 18:52:00,52.3,27.3,29.85,West,270,0.0,0.0,38,0.00,,,0.00,WUHU216HW,2013-03-03 23:52:00,
2013-03-03 18:53:00,52.3,27.3,29.85,West,270,0.0,0.0,38,0.00,,,0.00,WUHU216HW,2013-03-03 23:53:00,
2013-03-03 18:54:00,52.5,26.1,29.85,SSW,203,0.0,0.0,36,0.00,,,0.00,WUHU216HW,2013-03-03 23:54:00,
2013-03-03 18:55:00,52.5,26.1,29.85,SSW,203,0.0,0.0,36,0.00,,,0.00,WUHU216HW,2013-03-03 23:55:00,
2013-03-03 18:56:00,39.9,22.7,29.61,WNW,293,0.0,0.0,50,0.00,,,0.00,WUHU216HW,2013-03-03 23:56:00,
2013-03-03 18:57:00,52.3,25.9,29.85,SSE,158,3.1,6.2,36,0.00,,,0.00,WUHU216HW,2013-03-03 23:57:00,
2013-03-03 18:58:00,52.3,25.9,29.84,SSE,158,0.0,6.2,38,0.00,,,0.00,WUHU216HW,2013-03-03 23:58:00,
2013-03-03 18:59:00,52.3,25.9,29.85,SSE,158,0.0,6.2,38,0.00,,,0.00,WUHU216HW,2013-03-03 23:59:00,
2013-03-03 19:00:00,52.3,25.9,29.84,ENE,68,0.0,6.2,39,0.00,,,0.00,WUHU216HW,2013-03-04 00:00:00,
2013-03-03 19:01:00,39.5,22.4,29.62,WNW,293,0.0,0.0,50,0.00,,,0.00,WUHU216HW,2013-03-04 00:01:00,
2013-03-03 19:02:00,52.5,26.1,29.84,SE,135,0.0,6.2,36,0.00,,,0.00,WUHU216HW,2013-03-04 00:02:00,
2013-03-03 19:03:00,52.5,26.1,29.84,SE,135,0.0,6.2,36,0.00,,,0.00,WUHU216HW,2013-03-04 00:03:00,
2013-03-03 19:04:00,52.7,27.6,29.84,West,270,0.0,6.2,38,0.00,,,0.00,WUHU216HW,2013-03-04 00:04:00,
2013-03-03 19:05:00,52.7,27.6,29.84,West,270,0.0,6.2,38,0.00,,,0.00,WUHU216HW,2013-03-04 00:05:00,
2013-03-03 19:06:00,39.3,22.6,29.62,WNW,293,0.0,0.0,51,0.00,,,0.00,WUHU216HW,2013-03-04 00:06:00,
2013-03-03 19:07:00,53.2,27.4,29.84,South,180,0.0,0.0,37,0.00,,,0.00,WUHU216HW,2013-03-04 00:07:00,
2013-03-03 19:08:00,53.6,27.7,29.84,WNW,293,2.0,2.0,37,0.00,,,0.00,WUHU216HW,2013-03-04 00:08:00,
2013-03-03 19:09:00,53.6,27.7,29.84,WNW,293,2.0,2.0,37,0.00,,,0.00,WUHU216HW,2013-03-04 00:09:00,
2013-03-03 19:10:00,53.6,27.7,29.84,WNW,293,2.0,2.0,37,0.00,,,0.00,WUHU216HW,2013-03-04 00:10:00,
2013-03-03 19:11:00,39.2,22.1,29.62,WNW,293,0.0,0.0,50,0.00,,,0.00,WUHU216HW,2013-03-04 00:11:00,
2013-03-03 19:12:00,54.1,28.9,29.83,NNW,338,0.0,2.0,38,0.00,,,0.00,WUHU216HW,2013-03-04 00:12:00,
2013-03-03 19:13:00,54.1,28.9,29.83,NNW,338,0.0,2.0,38,0.00,,,0.00,WUHU216HW,2013-03-04 00:13:00,
2013-03-03 19:14:00,54.1,28.9,29.83,NNW,338,0.0,2.0,38,0.00,,,0.00,WUHU216HW,2013-03-04 00:14:00,
2013-03-03 19:15:00,54.5,29.2,29.83,WSW,248,0.0,2.0,38,0.00,,,0.00,WUHU216HW,2013-03-04 00:15:00,
2013-03-03 19:16:00,38.8,21.7,29.62,WNW,293,0.0,0.0,51,0.00,,,0.00,WUHU216HW,2013-03-04 00:16:00,
2013-03-03 19:17:00,55.0,29.0,29.83,WSW,248,0.0,2.0,37,0.00,,,0.00,WUHU216HW,2013-03-04 00:17:00,
2013-03-03 19:18:00,55.0,29.0,29.83,WSW,248,0.0,2.0,37,0.00,,,0.00,WUHU216HW,2013-03-04 00:18:00,
2013-03-03 19:19:00,54.6,28.0,29.83,SSE,158,0.0,2.0,36,0.00,,,0.00,WUHU216HW,2013-03-04 00:19:00,
2013-03-03 19:20:00,54.6,28.0,29.83,SSE,158,0.0,0.0,36,0.00,,,0.00,WUHU216HW,2013-03-04 00:20:00,
2013-03-03 19:21:00,38.6,22.0,29.63,West,270,0.0,0.0,51,0.00,,,0.00,WUHU216HW,2013-03-04 00:21:00,
2013-03-03 19:22:00,54.3,28.4,29.82,SSE,158,0.0,0.0,37,0.00,,,0.00,WUHU216HW,2013-03-04 00:22:00,
2013-03-03 19:23:00,54.5,29.2,29.82,ENE,68,0.0,0.0,38,0.00,,,0.00,WUHU216HW,2013-03-04 00:23:00,
2013-03-03 19:24:00,54.5,29.2,29.82,ENE,68,0.0,0.0,38,0.00,,,0.00,WUHU216HW,2013-03-04 00:24:00,
2013-03-03 19:25:00,55.0,29.7,29.82,SSE,158,0.0,0.0,38,0.00,,,0.00,WUHU216HW,2013-03-04 00:25:00,
2013-03-03 19:26:00,38.4,21.8,29.63,WNW,293,0.0,0.0,51,0.00,,,0.00,WUHU216HW,2013-03-04 00:26:00,
2013-03-03 19:27:00,55.0,29.7,29.82,SSE,158,0.0,0.0,38,0.00,,,0.00,WUHU216HW,2013-03-04 00:27:00,
2013-03-03 19:28:00,55.5,29.5,29.82,ESE,113,0.0,0.0,37,0.00,,,0.00,WUHU216HW,2013-03-04 00:28:00,
2013-03-03 19:29:00,55.5,29.5,29.82,ESE,113,0.0,0.0,37,0.00,,,0.00,WUHU216HW,2013-03-04 00:29:00,
2013-03-03 19:30:00,55.7,29.6,29.82,West,270,2.0,2.0,37,0.00,,,0.00,WUHU216HW,2013-03-04 00:30:00,
2013-03-03 19:31:00,38.1,21.5,29.63,WNW,293,0.0,0.0,51,0.00,,,0.00,WUHU216HW,2013-03-04 00:31:00,
2013-03-03 19:33:00,55.9,29.8,29.82,SW,225,0.0,2.0,37,0.00,,,0.00,WUHU216HW,2013-03-04 00:33:00,
2013-03-03 19:34:00,56.1,30.0,29.82,WSW,248,2.9,2.9,37,0.00,,,0.00,WUHU216HW,2013-03-04 00:34:00,
2013-03-03 19:35:00,56.1,30.0,29.81,WSW,248,2.9,2.9,37,0.00,,,0.00,WUHU216HW,2013-03-04 00:35:00,
2013-03-03 19:36:00,37.9,21.4,29.63,WNW,293,0.0,0.0,51,0.00,,,0.00,WUHU216HW,2013-03-04 00:36:00,
2013-03-03 19:37:00,56.3,29.4,29.82,WSW,248,0.0,2.9,36,0.00,,,0.00,WUHU216HW,2013-03-04 00:37:00,
2013-03-03 19:38:00,56.3,29.4,29.81,SW,225,0.8,2.9,36,0.00,,,0.00,WUHU216HW,2013-03-04 00:38:00,
2013-03-03 19:39:00,56.3,29.4,29.81,SW,225,0.8,2.9,36,0.00,,,0.00,WUHU216HW,2013-03-04 00:39:00,
2013-03-03 19:40:00,56.3,29.4,29.81,SW,225,0.8,2.9,36,0.00,,,0.00,WUHU216HW,2013-03-04 00:40:00,
2013-03-03 19:41:00,37.9,21.4,29.64,NW,315,0.0,0.0,51,0.00,,,0.00,WUHU216HW,2013-03-04 00:41:00,
2013-03-03 19:42:00,55.9,29.8,29.81,ESE,113,0.0,2.9,37,0.00,,,0.00,WUHU216HW,2013-03-04 00:42:00,
2013-03-03 19:43:00,55.9,29.8,29.82,WNW,293,0.8,6.2,37,0.00,,,0.00,WUHU216HW,2013-03-04 00:43:00,
2013-03-03 19:44:00,55.9,29.8,29.82,WNW,293,0.8,6.2,37,0.00,,,0.00,WUHU216HW,2013-03-04 00:44:00,
2013-03-03 19:45:00,55.9,29.8,29.81,SSE,158,0.0,6.2,36,0.00,,,0.00,WUHU216HW,2013-03-04 00:45:00,
2013-03-03 19:46:00,37.5,21.5,29.64,WNW,293,0.0,0.0,52,0.00,,,0.00,WUHU216HW,2013-03-04 00:46:00,
2013-03-03 19:47:00,55.9,29.8,29.81,ESE,113,0.0,6.2,37,0.00,,,0.00,WUHU216HW,2013-03-04 00:47:00,
2013-03-03 19:48:00,55.9,29.8,29.81,ESE,113,0.0,6.2,37,0.00,,,0.00,WUHU216HW,2013-03-04 00:48:00,
2013-03-03 19:49:00,56.3,30.8,29.81,NE,45,2.4,6.2,38,0.00,,,0.00,WUHU216HW,2013-03-04 00:49:00,
2013-03-03 19:50:00,56.3,30.8,29.81,NE,45,2.4,6.2,38,0.00,,,0.00,WUHU216HW,2013-03-04 00:50:00,
2013-03-03 19:51:00,56.3,30.8,29.81,NE,45,2.4,6.2,38,0.00,,,0.00,WUHU216HW,2013-03-04 00:51:00,
2013-03-03 19:52:00,37.5,21.5,29.64,West,270,0.0,0.0,52,0.00,,,0.00,WUHU216HW,2013-03-04 00:52:00,
2013-03-03 19:53:00,57.0,30.8,29.81,WSW,248,3.8,3.8,37,0.00,,,0.00,WUHU216HW,2013-03-04 00:53:00,
2013-03-03 19:54:00,57.0,30.8,29.81,South,180,3.1,3.8,37,0.00,,,0.00,WUHU216HW,2013-03-04 00:54:00,
2013-03-03 19:55:00,57.0,30.8,29.81,South,180,3.1,3.8,37,0.00,,,0.00,WUHU216HW,2013-03-04 00:55:00,
2013-03-03 19:56:00,57.3,31.1,29.81,SW,225,4.4,4.4,37,0.00,,,0.00,WUHU216HW,2013-03-04 00:56:00,
2013-03-03 19:57:00,37.4,21.3,29.64,WNW,293,4.6,4.6,52,0.00,,,0.00,WUHU216HW,2013-03-04 00:57:00,
2013-03-03 19:58:00,57.5,31.3,29.81,NW,315,0.0,4.4,37,0.00,,,0.00,WUHU216HW,2013-03-04 00:58:00,
2013-03-03 19:59:00,57.5,31.3,29.80,NW,315,0.0,4.4,37,0.00,,,0.00,WUHU216HW,2013-03-04 00:59:00,
2013-03-03 20:00:00,57.5,31.3,29.80,NW,315,0.0,4.4,37,0.00,,,0.00,WUHU216HW,2013-03-04 01:00:00,
2013-03-03 20:01:00,57.3,31.8,29.81,WNW,293,4.2,4.4,38,0.00,,,0.00,WUHU216HW,2013-03-04 01:01:00,
2013-03-03 20:02:00,37.0,20.5,29.65,WNW,293,0.0,4.6,51,0.00,,,0.00,WUHU216HW,2013-03-04 01:02:00,
2013-03-03 20:03:00,57.5,32.7,29.80,SW,225,0.0,4.4,39,0.00,,,0.00,WUHU216HW,2013-03-04 01:03:00,
2013-03-03 20:04:00,57.5,32.7,29.81,SW,225,0.0,4.4,39,0.00,,,0.00,WUHU216HW,2013-03-04 01:04:00,
2013-03-03 20:05:00,57.9,31.6,29.81,WSW,248,0.0,4.4,37,0.00,,,0.00,WUHU216HW,2013-03-04 01:05:00,
2013-03-03 20:06:00,57.9,31.6,29.80,WSW,248,0.0,4.4,37,0.00,,,0.00,WUHU216HW,2013-03-04 01:06:00,
2013-03-03 20:07:00,37.0,20.5,29.64,WNW,293,0.0,0.0,52,0.00,,,0.00,WUHU216HW,2013-03-04 01:07:00,
2013-03-03 20:08:00,58.2,31.9,29.80,SSE,158,0.0,4.2,37,0.00,,,0.00,WUHU216HW,2013-03-04 01:08:00,
2013-03-03 20:09:00,58.6,32.9,29.80,WSW,248,0.0,4.2,38,0.00,,,0.00,WUHU216HW,2013-03-04 01:09:00,
2013-03-03 20:10:00,58.6,32.9,29.80,WSW,248,0.0,4.2,38,0.00,,,0.00,WUHU216HW,2013-03-04 01:10:00,
2013-03-03 20:11:00,58.6,31.5,29.80,SSW,203,4.9,4.9,36,0.00,,,0.00,WUHU216HW,2013-03-04 01:11:00,
2013-03-03 20:12:00,36.6,20.6,29.64,WNW,293,0.0,0.0,52,0.00,,,0.00,WUHU216HW,2013-03-04 01:12:00,
2013-03-03 20:13:00,58.6,31.5,29.80,SSW,203,4.9,4.9,36,0.00,,,0.00,WUHU216HW,2013-03-04 01:13:00,
2013-03-03 20:14:00,58.2,31.2,29.80,SE,135,0.0,4.9,36,0.00,,,0.00,WUHU216HW,2013-03-04 01:14:00,
2013-03-03 20:15:00,58.1,31.0,29.80,SW,225,0.0,4.9,36,0.00,,,0.00,WUHU216HW,2013-03-04 01:15:00,
2013-03-03 20:16:00,58.1,31.0,29.80,SW,225,0.0,4.9,36,0.00,,,0.00,WUHU216HW,2013-03-04 01:16:00,
2013-03-03 20:17:00,36.5,20.5,29.65,WNW,293,0.0,0.0,52,0.00,,,0.00,WUHU216HW,2013-03-04 01:17:00,
2013-03-03 20:18:00,58.2,31.9,29.80,WNW,293,4.6,4.9,37,0.00,,,0.00,WUHU216HW,2013-03-04 01:18:00,
2013-03-03 20:19:00,58.2,31.9,29.79,WNW,293,4.6,4.9,37,0.00,,,0.00,WUHU216HW,2013-03-04 01:19:00,
2013-03-03 20:20:00,58.8,31.0,29.79,WSW,248,3.5,4.9,35,0.00,,,0.00,WUHU216HW,2013-03-04 01:20:00,
2013-03-03 20:21:00,58.8,31.0,29.79,WSW,248,3.5,4.9,35,0.00,,,0.00,WUHU216HW,2013-03-04 01:21:00,
2013-03-03 20:22:00,36.3,20.3,29.65,WNW,293,0.0,0.0,52,0.00,,,0.00,WUHU216HW,2013-03-04 01:22:00,
2013-03-03 20:23:00,59.0,31.8,29.79,SW,225,4.2,4.6,36,0.00,,,0.00,WUHU216HW,2013-03-04 01:23:00,
2013-03-03 20:24:00,58.8,31.0,29.79,SE,135,3.8,4.6,35,0.00,,,0.00,WUHU216HW,2013-03-04 01:24:00,
2013-03-03 20:25:00,58.8,31.0,29.79,SE,135,3.8,4.6,35,0.00,,,0.00,WUHU216HW,2013-03-04 01:25:00,
2013-03-03 20:26:00,58.6,31.5,29.79,SSW,203,0.0,4.6,36,0.00,,,0.00,WUHU216HW,2013-03-04 01:26:00,
2013-03-03 20:27:00,36.1,20.2,29.65,WNW,293,0.0,0.0,52,0.00,,,0.00,WUHU216HW,2013-03-04 01:27:00,
2013-03-03 20:28:00,59.0,31.1,29.80,WSW,248,0.0,4.6,35,0.00,,,0.00,WUHU216HW,2013-03-04 01:28:00,
2013-03-03 20:29:00,59.0,31.1,29.80,WSW,248,0.0,4.6,35,0.00,,,0.00,WUHU216HW,2013-03-04 01:29:00,
2013-03-03 20:30:00,59.0,31.1,29.80,WSW,248,0.0,4.2,35,0.00,,,0.00,WUHU216HW,2013-03-04 01:30:00,
2013-03-03 20:31:00,59.0,31.1,29.79,North,0,0.0,4.2,35,0.00,,,0.00,WUHU216HW,2013-03-04 01:31:00,
2013-03-03 20:32:00,36.1,20.2,29.65,NW,315,0.0,0.0,52,0.00,,,0.00,WUHU216HW,2013-03-04 01:32:00,
2013-03-03 20:33:00,59.0,31.1,29.79,SSW,203,0.0,4.2,35,0.00,,,0.00,WUHU216HW,2013-03-04 01:33:00,
2013-03-03 20:34:00,59.0,31.1,29.79,SSW,203,0.0,3.8,35,0.00,,,0.00,WUHU216HW,2013-03-04 01:34:00,
2013-03-03 20:35:00,59.5,31.6,29.79,WSW,248,0.0,3.8,35,0.00,,,0.00,WUHU216HW,2013-03-04 01:35:00,
2013-03-03 20:37:00,35.9,20.4,29.65,WSW,248,0.0,0.0,53,0.00,,,0.00,WUHU216HW,2013-03-04 01:37:00,
2013-03-03 20:38:00,60.0,32.1,29.79,WNW,293,5.3,5.3,35,0.00,,,0.00,WUHU216HW,2013-03-04 01:38:00,
2013-03-03 20:39:00,60.4,33.1,29.79,West,270,0.0,5.3,36,0.00,,,0.00,WUHU216HW,2013-03-04 01:39:00,
2013-03-03 20:40:00,60.4,33.1,29.79,West,270,0.0,5.3,36,0.00,,,0.00,WUHU216HW,2013-03-04 01:40:00,
2013-03-03 20:41:00,60.6,31.8,29.79,ESE,113,0.0,5.3,34,0.00,,,0.00,WUHU216HW,2013-03-04 01:41:00,
2013-03-03 20:42:00,35.9,20.4,29.65,WSW,248,0.0,0.0,53,0.00,,,0.00,WUHU216HW,2013-03-04 01:42:00,
2013-03-03 20:43:00,60.0,31.3,29.79,WNW,293,0.0,5.3,34,0.00,,,0.00,WUHU216HW,2013-03-04 01:43:00,
2013-03-03 20:44:00,60.0,31.3,29.78,WNW,293,0.0,5.3,34,0.00,,,0.00,WUHU216HW,2013-03-04 01:44:00,
2013-03-03 20:45:00,60.0,31.3,29.78,WNW,293,0.0,5.3,34,0.00,,,0.00,WUHU216HW,2013-03-04 01:45:00,
2013-03-03 20:47:00,35.7,20.3,29.65,West,270,0.0,0.0,53,0.00,,,0.00,WUHU216HW,2013-03-04 01:47:00,
2013-03-03 20:50:00,59.0,31.1,29.78,NW,315,3.1,4.9,35,0.00,,,0.00,WUHU216HW,2013-03-04 01:50:00,
2013-03-03 20:51:00,59.3,32.2,29.78,SE,135,0.0,4.9,36,0.00,,,0.00,WUHU216HW,2013-03-04 01:51:00,
2013-03-03 20:52:00,35.7,20.3,29.66,West,270,0.0,0.0,53,0.00,,,0.00,WUHU216HW,2013-03-04 01:52:00,
2013-03-03 20:53:00,59.7,31.8,29.77,West,270,0.0,4.9,35,0.00,,,0.00,WUHU216HW,2013-03-04 01:53:00,
2013-03-03 20:55:00,59.7,31.8,29.77,West,270,0.0,4.9,35,0.00,,,0.00,WUHU216HW,2013-03-04 01:55:00,
2013-03-03 20:56:00,60.4,32.4,29.77,WSW,248,5.5,7.3,35,0.00,,,0.00,WUHU216HW,2013-03-04 01:56:00,
2013-03-03 20:57:00,35.4,19.9,29.66,West,270,0.0,0.0,54,0.00,,,0.00,WUHU216HW,2013-03-04 01:57:00,
2013-03-03 20:58:00,60.2,32.2,29.78,SW,225,2.4,7.3,35,0.00,,,0.00,WUHU216HW,2013-03-04 01:58:00,
2013-03-03 20:59:00,60.2,32.2,29.77,SW,225,2.4,7.3,35,0.00,,,0.00,WUHU216HW,2013-03-04 01:59:00,
2013-03-03 21:01:00,60.6,34.0,29.77,SW,225,0.0,7.3,37,0.00,,,0.00,WUHU216HW,2013-03-04 02:01:00,
2013-03-03 21:02:00,35.4,19.9,29.66,NW,315,0.0,0.0,53,0.00,,,0.00,WUHU216HW,2013-03-04 02:02:00,
2013-03-03 21:03:00,61.3,33.2,29.78,West,270,0.0,7.3,35,0.00,,,0.00,WUHU216HW,2013-03-04 02:03:00,
2013-03-03 21:04:00,61.5,34.0,29.78,WNW,293,0.0,7.3,36,0.00,,,0.00,WUHU216HW,2013-03-04 02:04:00,
2013-03-03 21:05:00,61.5,34.0,29.77,WNW,293,0.0,7.3,36,0.00,,,0.00,WUHU216HW,2013-03-04 02:05:00,
2013-03-03 21:06:00,62.2,34.7,29.77,West,270,0.0,5.5,36,0.00,,,0.00,WUHU216HW,2013-03-04 02:06:00,
2013-03-03 21:07:00,35.2,19.7,29.66,WSW,248,0.0,0.0,53,0.00,,,0.00,WUHU216HW,2013-03-04 02:07:00,
2013-03-03 21:08:00,62.4,34.1,29.77,SE,135,0.0,2.4,35,0.00,,,0.00,WUHU216HW,2013-03-04 02:08:00,
2013-03-03 21:09:00,62.4,34.1,29.77,SE,135,0.0,0.0,35,0.00,,,0.00,WUHU216HW,2013-03-04 02:09:00,
2013-03-03 21:10:00,62.7,35.2,29.77,WNW,293,0.0,0.0,36,0.00,,,0.00,WUHU216HW,2013-03-04 02:10:00,
2013-03-03 21:11:00,62.7,35.2,29.77,WNW,293,0.0,0.0,36,0.00,,,0.00,WUHU216HW,2013-03-04 02:11:00,
2013-03-03 21:12:00,35.2,19.7,29.66,NW,315,0.0,0.0,53,0.00,,,0.00,WUHU216HW,2013-03-04 02:12:00,
2013-03-03 21:13:00,62.7,35.2,29.77,West,270,0.0,0.0,37,0.00,,,0.00,WUHU216HW,2013-03-04 02:13:00,
2013-03-03 21:14:00,62.7,35.2,29.77,West,270,0.0,0.0,37,0.00,,,0.00,WUHU216HW,2013-03-04 02:14:00,
2013-03-03 21:15:00,63.3,35.7,29.76,SW,225,0.0,0.0,36,0.00,,,0.00,WUHU216HW,2013-03-04 02:15:00,
2013-03-03 21:16:00,63.3,35.7,29.76,SW,225,0.0,0.0,36,0.00,,,0.00,WUHU216HW,2013-03-04 02:16:00,
2013-03-03 21:17:00,63.3,35.7,29.76,SSW,203,0.0,0.0,34,0.00,,,0.00,WUHU216HW,2013-03-04 02:17:00,
2013-03-03 21:18:00,35.0,19.6,29.66,North,0,0.0,0.0,53,0.00,,,0.00,WUHU216HW,2013-03-04 02:18:00,
2013-03-03 21:19:00,63.1,34.8,29.77,NW,315,0.8,0.8,35,0.00,,,0.00,WUHU216HW,2013-03-04 02:19:00,
2013-03-03 21:20:00,63.1,34.8,29.77,NW,315,0.8,0.8,35,0.00,,,0.00,WUHU216HW,2013-03-04 02:20:00,
2013-03-03 21:21:00,62.9,34.6,29.77,South,180,4.2,4.2,35,0.00,,,0.00,WUHU216HW,2013-03-04 02:21:00,
2013-03-03 21:22:00,62.9,34.6,29.77,South,180,4.2,4.2,35,0.00,,,0.00,WUHU216HW,2013-03-04 02:22:00,
2013-03-03 21:23:00,34.8,19.8,29.67,West,270,0.0,0.0,54,0.00,,,0.00,WUHU216HW,2013-03-04 02:23:00,
2013-03-03 21:24:00,62.7,34.5,29.76,SW,225,0.0,4.2,35,0.00,,,0.00,WUHU216HW,2013-03-04 02:24:00,
2013-03-03 21:25:00,62.9,34.6,29.76,SW,225,0.0,4.2,35,0.00,,,0.00,WUHU216HW,2013-03-04 02:25:00,
2013-03-03 21:26:00,62.9,34.6,29.76,SW,225,0.0,4.2,35,0.00,,,0.00,WUHU216HW,2013-03-04 02:26:00,
2013-03-03 21:27:00,62.9,34.6,29.75,SW,225,0.0,4.2,35,0.00,,,0.00,WUHU216HW,2013-03-04 02:27:00,
2013-03-03 21:28:00,34.8,19.8,29.67,WNW,293,0.0,0.0,54,0.00,,,0.00,WUHU216HW,2013-03-04 02:28:00,
2013-03-03 21:29:00,63.3,35.7,29.75,WSW,248,4.4,4.4,36,0.00,,,0.00,WUHU216HW,2013-03-04 02:29:00,
2013-03-03 21:30:00,63.3,34.9,29.75,WSW,248,0.0,4.4,35,0.00,,,0.00,WUHU216HW,2013-03-04 02:30:00,
2013-03-03 21:31:00,63.3,34.9,29.74,WSW,248,0.0,4.4,35,0.00,,,0.00,WUHU216HW,2013-03-04 02:31:00,
2013-03-03 21:32:00,62.9,34.6,29.75,ESE,113,0.0,4.4,35,0.00,,,0.00,WUHU216HW,2013-03-04 02:32:00,
2013-03-03 21:33:00,34.8,19.8,29.67,WNW,293,0.0,0.0,54,0.00,,,0.00,WUHU216HW,2013-03-04 02:33:00,
2013-03-03 21:34:00,62.9,34.6,29.75,SW,225,4.9,4.9,35,0.00,,,0.00,WUHU216HW,2013-03-04 02:34:00,
2013-03-03 21:35:00,62.9,34.6,29.75,SW,225,4.9,4.9,35,0.00,,,0.00,WUHU216HW,2013-03-04 02:35:00,
2013-03-03 21:36:00,62.7,35.2,29.75,SE,135,0.0,4.9,36,0.00,,,0.00,WUHU216HW,2013-03-04 02:36:00,
2013-03-03 21:38:00,34.5,19.5,29.67,WNW,293,0.0,0.0,54,0.00,,,0.00,WUHU216HW,2013-03-04 02:38:00,
2013-03-03 21:39:00,63.1,36.2,29.74,WNW,293,0.0,4.9,37,0.00,,,0.00,WUHU216HW,2013-03-04 02:39:00,
2013-03-03 21:40:00,63.3,34.9,29.74,SE,135,0.0,4.9,35,0.00,,,0.00,WUHU216HW,2013-03-04 02:40:00,
2013-03-03 21:41:00,63.3,34.9,29.73,SE,135,0.0,4.9,35,0.00,,,0.00,WUHU216HW,2013-03-04 02:41:00,
2013-03-03 21:42:00,62.7,34.5,29.73,SE,135,0.0,4.9,35,0.00,,,0.00,WUHU216HW,2013-03-04 02:42:00,
2013-03-03 21:43:00,34.5,19.5,29.67,NW,315,0.0,0.0,54,0.00,,,0.00,WUHU216HW,2013-03-04 02:43:00,
2013-03-03 21:44:00,62.7,34.5,29.74,WSW,248,2.2,4.9,36,0.00,,,0.00,WUHU216HW,2013-03-04 02:44:00,
2013-03-03 21:45:00,62.7,34.5,29.74,WSW,248,2.2,4.9,36,0.00,,,0.00,WUHU216HW,2013-03-04 02:45:00,
2013-03-03 21:47:00,62.7,34.5,29.74,WSW,248,0.0,2.2,36,0.00,,,0.00,WUHU216HW,2013-03-04 02:47:00,
2013-03-03 21:48:00,34.5,19.5,29.67,NW,315,0.0,0.0,54,0.00,,,0.00,WUHU216HW,2013-03-04 02:48:00,
2013-03-03 21:49:00,62.4,34.1,29.73,SSW,203,0.0,2.2,35,0.00,,,0.00,WUHU216HW,2013-03-04 02:49:00,
2013-03-03 21:50:00,62.4,34.1,29.73,SSW,203,0.0,2.2,35,0.00,,,0.00,WUHU216HW,2013-03-04 02:50:00,
2013-03-03 21:51:00,62.4,34.1,29.73,West,270,2.0,2.2,37,0.00,,,0.00,WUHU216HW,2013-03-04 02:51:00,
2013-03-03 21:52:00,62.4,34.1,29.73,West,270,2.0,2.2,37,0.00,,,0.00,WUHU216HW,2013-03-04 02:52:00,
2013-03-03 21:53:00,34.3,19.7,29.67,NW,315,0.0,0.0,55,0.00,,,0.00,WUHU216HW,2013-03-04 02:53:00,
2013-03-03 21:54:00,62.4,34.1,29.73,SSW,203,0.0,2.2,36,0.00,,,0.00,WUHU216HW,2013-03-04 02:54:00,
2013-03-03 21:55:00,62.4,34.1,29.73,SSW,203,0.0,2.2,36,0.00,,,0.00,WUHU216HW,2013-03-04 02:55:00,
2013-03-03 21:56:00,62.7,34.5,29.72,West,270,0.0,2.2,35,0.00,,,0.00,WUHU216HW,2013-03-04 02:56:00,
2013-03-03 21:57:00,62.7,34.5,29.72,West,270,0.0,2.0,35,0.00,,,0.00,WUHU216HW,2013-03-04 02:57:00,
2013-03-03 21:58:00,34.3,19.7,29.67,NW,315,0.0,0.0,55,0.00,,,0.00,WUHU216HW,2013-03-04 02:58:00,
2013-03-03 21:59:00,62.7,34.5,29.72,West,270,1.3,2.0,35,0.00,,,0.00,WUHU216HW,2013-03-04 02:59:00,
2013-03-03 22:00:00,62.2,34.0,29.72,SSE,158,5.1,8.0,35,0.00,,,0.00,WUHU216HW,2013-03-04 03:00:00,
2013-03-03 22:01:00,62.2,34.0,29.72,South,180,3.1,8.0,35,0.00,,,0.00,WUHU216HW,2013-03-04 03:01:00,
2013-03-03 22:02:00,62.2,34.0,29.72,South,180,3.1,8.0,35,0.00,,,0.00,WUHU216HW,2013-03-04 03:02:00,
2013-03-03 22:03:00,34.1,19.5,29.68,NW,315,0.0,0.0,55,0.00,,,0.00,WUHU216HW,2013-03-04 03:03:00,
2013-03-03 22:04:00,61.8,34.4,29.72,NNW,338,0.0,8.0,36,0.00,,,0.00,WUHU216HW,2013-03-04 03:04:00,
2013-03-03 22:05:00,61.8,34.4,29.72,NNW,338,0.0,8.0,36,0.00,,,0.00,WUHU216HW,2013-03-04 03:05:00,
2013-03-03 22:06:00,62.2,34.7,29.72,WSW,248,0.0,8.0,36,0.00,,,0.00,WUHU216HW,2013-03-04 03:06:00,
2013-03-03 22:07:00,62.2,34.7,29.72,WSW,248,0.0,8.0,36,0.00,,,0.00,WUHU216HW,2013-03-04 03:07:00,
2013-03-03 22:08:00,33.9,19.4,29.68,NW,315,0.0,0.0,55,0.00,,,0.00,WUHU216HW,2013-03-04 03:08:00,
2013-03-03 22:09:00,62.4,34.9,29.71,SW,225,0.0,8.0,36,0.00,,,0.00,WUHU216HW,2013-03-04 03:09:00,
2013-03-03 22:10:00,62.7,35.9,29.72,WSW,248,0.0,5.1,37,0.00,,,0.00,WUHU216HW,2013-03-04 03:10:00,
2013-03-03 22:11:00,62.7,35.9,29.72,WSW,248,0.0,3.1,37,0.00,,,0.00,WUHU216HW,2013-03-04 03:11:00,
2013-03-03 22:12:00,62.9,35.3,29.71,WNW,293,0.0,3.1,36,0.00,,,0.00,WUHU216HW,2013-03-04 03:12:00,
2013-03-03 22:13:00,33.9,19.4,29.68,NW,315,0.0,0.0,56,0.00,,,0.00,WUHU216HW,2013-03-04 03:13:00,
2013-03-03 22:14:00,62.7,34.5,29.72,SW,225,1.5,1.5,35,0.00,,,0.00,WUHU216HW,2013-03-04 03:14:00,
2013-03-03 22:15:00,62.7,34.5,29.71,SW,225,1.5,1.5,35,0.00,,,0.00,WUHU216HW,2013-03-04 03:15:00,
2013-03-03 22:16:00,62.7,34.5,29.71,SW,225,1.5,1.5,35,0.00,,,0.00,WUHU216HW,2013-03-04 03:16:00,
2013-03-03 22:17:00,62.7,34.5,29.71,WSW,248,0.0,1.5,35,0.00,,,0.00,WUHU216HW,2013-03-04 03:17:00,
2013-03-03 22:18:00,33.6,19.0,29.68,NW,315,0.0,0.0,55,0.00,,,0.00,WUHU216HW,2013-03-04 03:18:00,
2013-03-03 22:20:00,62.7,34.5,29.71,WSW,248,0.0,1.5,35,0.00,,,0.00,WUHU216HW,2013-03-04 03:20:00,
2013-03-03 22:21:00,62.4,35.6,29.71,West,270,0.0,1.5,37,0.00,,,0.00,WUHU216HW,2013-03-04 03:21:00,
2013-03-03 22:22:00,62.4,35.6,29.70,West,270,0.0,1.5,37,0.00,,,0.00,WUHU216HW,2013-03-04 03:22:00,
2013-03-03 22:23:00,33.6,19.0,29.68,NW,315,0.0,0.0,56,0.00,,,0.00,WUHU216HW,2013-03-04 03:23:00,
2013-03-03 22:24:00,62.4,35.6,29.70,NW,315,1.1,1.5,36,0.00,,,0.00,WUHU216HW,2013-03-04 03:24:00,
2013-03-03 22:25:00,62.6,35.0,29.70,SSE,158,1.1,1.5,36,0.00,,,0.00,WUHU216HW,2013-03-04 03:25:00,
2013-03-03 22:26:00,62.6,35.0,29.71,SSE,158,1.1,1.1,36,0.00,,,0.00,WUHU216HW,2013-03-04 03:26:00,
2013-03-03 22:27:00,62.4,34.1,29.70,South,180,0.0,1.1,35,0.00,,,0.00,WUHU216HW,2013-03-04 03:27:00,
2013-03-03 22:28:00,62.4,34.1,29.70,South,180,0.0,1.1,35,0.00,,,0.00,WUHU216HW,2013-03-04 03:28:00,
2013-03-03 22:29:00,33.4,19.7,29.68,NW,315,0.0,0.0,57,0.00,,,0.00,WUHU216HW,2013-03-04 03:29:00,
2013-03-03 22:30:00,62.4,34.1,29.70,ENE,68,0.0,1.1,35,0.00,,,0.00,WUHU216HW,2013-03-04 03:30:00,
2013-03-03 22:31:00,62.4,34.1,29.70,ENE,68,0.0,1.1,35,0.00,,,0.00,WUHU216HW,2013-03-04 03:31:00,
2013-03-03 22:32:00,62.2,36.1,29.70,SSW,203,0.0,1.1,38,0.00,,,0.00,WUHU216HW,2013-03-04 03:32:00,
2013-03-03 22:33:00,62.2,36.1,29.70,SSW,203,0.0,1.1,38,0.00,,,0.00,WUHU216HW,2013-03-04 03:33:00,
2013-03-03 22:34:00,33.4,19.7,29.68,NW,315,0.0,0.0,56,0.00,,,0.00,WUHU216HW,2013-03-04 03:34:00,
2013-03-03 22:35:00,62.2,36.1,29.70,WNW,293,0.0,1.1,36,0.00,,,0.00,WUHU216HW,2013-03-04 03:35:00,
2013-03-03 22:36:00,62.4,34.9,29.70,WNW,293,0.8,7.6,36,0.00,,,0.00,WUHU216HW,2013-03-04 03:36:00,
2013-03-03 22:37:00,62.4,34.9,29.70,WNW,293,0.8,7.6,36,0.00,,,0.00,WUHU216HW,2013-03-04 03:37:00,
2013-03-03 22:38:00,62.4,34.9,29.70,SSE,158,0.0,7.6,37,0.00,,,0.00,WUHU216HW,2013-03-04 03:38:00,
2013-03-03 22:39:00,33.0,19.8,29.68,NW,315,0.0,0.0,58,0.00,,,0.00,WUHU216HW,2013-03-04 03:39:00,
2013-03-03 22:40:00,62.6,34.3,29.70,West,270,0.0,7.6,35,0.00,,,0.00,WUHU216HW,2013-03-04 03:40:00,
2013-03-03 22:41:00,62.6,34.3,29.69,West,270,0.0,7.6,35,0.00,,,0.00,WUHU216HW,2013-03-04 03:41:00,
2013-03-03 22:44:00,33.0,19.8,29.68,NW,315,0.0,0.0,57,0.00,,,0.00,WUHU216HW,2013-03-04 03:44:00,
2013-03-03 22:49:00,33.0,19.8,29.67,WSW,248,0.0,0.0,57,0.00,,,0.00,WUHU216HW,2013-03-04 03:49:00,
2013-03-03 22:54:00,32.9,19.2,29.67,WNW,293,0.0,0.0,57,0.00,,,0.00,WUHU216HW,2013-03-04 03:54:00,
2013-03-03 22:59:00,32.9,19.2,29.67,WNW,293,0.0,0.0,58,0.00,,,0.00,WUHU216HW,2013-03-04 03:59:00,
2013-03-03 23:01:00,62.4,36.3,29.68,SE,135,0.0,1.7,35,0.00,,,0.00,WUHU216HW,2013-03-04 04:01:00,
2013-03-03 23:02:00,62.7,35.9,29.68,West,270,0.0,1.7,37,0.00,,,0.00,WUHU216HW,2013-03-04 04:02:00,
2013-03-03 23:03:00,62.7,35.9,29.68,West,270,0.0,1.7,37,0.00,,,0.00,WUHU216HW,2013-03-04 04:03:00,
2013-03-03 23:04:00,32.9,19.2,29.67,WNW,293,0.0,0.0,58,0.00,,,0.00,WUHU216HW,2013-03-04 04:04:00,
2013-03-03 23:05:00,63.1,35.5,29.68,ESE,113,1.7,1.7,36,0.00,,,0.00,WUHU216HW,2013-03-04 04:05:00,
2013-03-03 23:06:00,63.1,35.5,29.68,ESE,113,1.7,1.7,36,0.00,,,0.00,WUHU216HW,2013-03-04 04:06:00,
2013-03-03 23:07:00,62.7,34.5,29.67,SSW,203,0.8,9.6,35,0.00,,,0.00,WUHU216HW,2013-03-04 04:07:00,
2013-03-03 23:08:00,62.6,35.0,29.67,SSW,203,0.0,9.6,36,0.00,,,0.00,WUHU216HW,2013-03-04 04:08:00,
2013-03-03 23:09:00,32.7,19.5,29.68,WNW,293,0.0,0.0,58,0.00,,,0.00,WUHU216HW,2013-03-04 04:09:00,
2013-03-03 23:10:00,62.7,35.9,29.67,West,270,0.0,9.6,37,0.00,,,0.00,WUHU216HW,2013-03-04 04:10:00,
2013-03-03 23:11:00,62.7,35.9,29.68,West,270,0.0,9.6,37,0.00,,,0.00,WUHU216HW,2013-03-04 04:11:00,
2013-03-03 23:12:00,63.1,36.2,29.68,WSW,248,2.4,9.6,37,0.00,,,0.00,WUHU216HW,2013-03-04 04:12:00,
2013-03-03 23:13:00,63.1,36.2,29.68,WSW,248,2.4,9.6,37,0.00,,,0.00,WUHU216HW,2013-03-04 04:13:00,
2013-03-03 23:14:00,32.5,19.3,29.68,WNW,293,0.0,0.0,58,0.00,,,0.00,WUHU216HW,2013-03-04 04:14:00,
2013-03-03 23:15:00,62.7,35.2,29.67,WSW,248,0.0,9.6,36,0.00,,,0.00,WUHU216HW,2013-03-04 04:15:00,
2013-03-03 23:16:00,62.4,34.9,29.67,SSW,203,4.6,9.6,36,0.00,,,0.00,WUHU216HW,2013-03-04 04:16:00,
2013-03-03 23:17:00,62.4,34.9,29.67,SSW,203,4.6,4.6,36,0.00,,,0.00,WUHU216HW,2013-03-04 04:17:00,
2013-03-03 23:18:00,62.4,34.9,29.67,SSW,203,0.0,4.6,36,0.00,,,0.00,WUHU216HW,2013-03-04 04:18:00,
2013-03-03 23:19:00,32.5,19.3,29.68,WNW,293,0.0,0.0,58,0.00,,,0.00,WUHU216HW,2013-03-04 04:19:00,
2013-03-03 23:20:00,62.4,34.9,29.67,West,270,0.0,4.6,37,0.00,,,0.00,WUHU216HW,2013-03-04 04:20:00,
2013-03-03 23:21:00,62.4,34.9,29.67,West,270,0.0,4.6,37,0.00,,,0.00,WUHU216HW,2013-03-04 04:21:00,
2013-03-03 23:22:00,62.4,34.9,29.67,West,270,0.0,4.6,37,0.00,,,0.00,WUHU216HW,2013-03-04 04:22:00,
2013-03-03 23:23:00,62.7,35.9,29.67,WSW,248,0.0,4.6,37,0.00,,,0.00,WUHU216HW,2013-03-04 04:23:00,
2013-03-03 23:24:00,32.3,19.2,29.68,WSW,248,0.0,0.0,58,0.00,,,0.00,WUHU216HW,2013-03-04 04:24:00,
2013-03-03 23:25:00,62.7,35.9,29.68,West,270,0.0,4.6,37,0.00,,,0.00,WUHU216HW,2013-03-04 04:25:00,
2013-03-03 23:26:00,62.7,35.9,29.67,West,270,0.0,4.6,38,0.00,,,0.00,WUHU216HW,2013-03-04 04:26:00,
2013-03-03 23:27:00,62.7,35.9,29.67,West,270,0.0,4.6,38,0.00,,,0.00,WUHU216HW,2013-03-04 04:27:00,
2013-03-03 23:28:00,62.7,35.9,29.67,West,270,0.0,0.0,38,0.00,,,0.00,WUHU216HW,2013-03-04 04:28:00,
2013-03-03 23:29:00,32.3,19.2,29.68,WSW,248,0.0,0.0,58,0.00,,,0.00,WUHU216HW,2013-03-04 04:29:00,
2013-03-03 23:30:00,62.7,35.9,29.67,WSW,248,0.0,0.0,38,0.00,,,0.00,WUHU216HW,2013-03-04 04:30:00,
2013-03-03 23:31:00,62.4,36.3,29.67,SSW,203,1.5,1.5,38,0.00,,,0.00,WUHU216HW,2013-03-04 04:31:00,
2013-03-03 23:32:00,62.4,36.3,29.67,SSW,203,1.5,1.5,38,0.00,,,0.00,WUHU216HW,2013-03-04 04:32:00,
2013-03-03 23:33:00,62.2,35.4,29.67,SSW,203,0.0,1.5,37,0.00,,,0.00,WUHU216HW,2013-03-04 04:33:00,
2013-03-03 23:34:00,32.1,19.0,29.68,WSW,248,0.0,0.0,59,0.00,,,0.00,WUHU216HW,2013-03-04 04:34:00,
2013-03-03 23:35:00,62.2,35.4,29.67,SSW,203,0.0,1.5,37,0.00,,,0.00,WUHU216HW,2013-03-04 04:35:00,
2013-03-03 23:36:00,62.2,35.4,29.67,SSW,203,0.0,1.5,38,0.00,,,0.00,WUHU216HW,2013-03-04 04:36:00,
2013-03-03 23:37:00,62.2,35.4,29.67,ESE,113,4.9,4.9,37,0.00,,,0.00,WUHU216HW,2013-03-04 04:37:00,
2013-03-03 23:38:00,62.2,35.4,29.67,ESE,113,4.9,4.9,37,0.00,,,0.00,WUHU216HW,2013-03-04 04:38:00,
2013-03-03 23:39:00,32.0,19.3,29.68,WSW,248,0.0,0.0,59,0.00,,,0.00,WUHU216HW,2013-03-04 04:39:00,
2013-03-03 23:41:00,62.0,36.0,29.66,NW,315,0.0,4.9,38,0.00,,,0.00,WUHU216HW,2013-03-04 04:41:00,
2013-03-03 23:42:00,61.8,35.8,29.66,NW,315,0.0,4.9,38,0.00,,,0.00,WUHU216HW,2013-03-04 04:42:00,
2013-03-03 23:43:00,61.8,35.8,29.66,NW,315,0.0,4.9,38,0.00,,,0.00,WUHU216HW,2013-03-04 04:43:00,
2013-03-03 23:45:00,31.8,19.1,29.68,West,270,0.0,0.0,59,0.00,,,0.00,WUHU216HW,2013-03-04 04:45:00,
2013-03-03 23:46:00,61.8,35.8,29.66,WNW,293,7.6,7.6,38,0.00,,,0.00,WUHU216HW,2013-03-04 04:46:00,
2013-03-03 23:47:00,61.8,35.8,29.66,West,270,2.2,7.6,38,0.00,,,0.00,WUHU216HW,2013-03-04 04:47:00,
2013-03-03 23:48:00,61.8,35.8,29.66,West,270,2.2,7.6,38,0.00,,,0.00,WUHU216HW,2013-03-04 04:48:00,
2013-03-03 23:49:00,61.8,35.8,29.66,West,270,2.2,7.6,38,0.00,,,0.00,WUHU216HW,2013-03-04 04:49:00,
2013-03-03 23:50:00,31.8,19.1,29.68,West,270,0.0,0.0,60,0.00,,,0.00,WUHU216HW,2013-03-04 04:50:00,
2013-03-03 23:51:00,61.8,35.8,29.66,WNW,293,0.0,7.6,39,0.00,,,0.00,WUHU216HW,2013-03-04 04:51:00,
2013-03-03 23:52:00,61.8,35.8,29.66,SSE,158,0.0,7.6,38,0.00,,,0.00,WUHU216HW,2013-03-04 04:52:00,
2013-03-03 23:53:00,61.8,35.8,29.66,SSE,158,0.0,7.6,38,0.00,,,0.00,WUHU216HW,2013-03-04 04:53:00,
2013-03-03 23:54:00,61.5,36.2,29.66,SSW,203,0.0,7.6,39,0.00,,,0.00,WUHU216HW,2013-03-04 04:54:00,
2013-03-03 23:55:00,31.6,19.4,29.69,West,270,0.0,0.0,60,0.00,,,0.00,WUHU216HW,2013-03-04 04:55:00,
2013-03-03 23:57:00,61.7,36.4,29.66,SW,225,4.6,4.6,39,0.00,,,0.00,WUHU216HW,2013-03-04 04:57:00,
2013-03-03 23:58:00,61.7,35.6,29.66,SW,225,0.0,4.6,38,0.00,,,0.00,WUHU216HW,2013-03-04 04:58:00,
2013-03-03 23:59:00,61.7,35.6,29.66,SW,225,0.0,4.6,38,0.00,,,0.00,WUHU216HW,2013-03-04 04:59:00,